Darstellungsparameter: Aktuell verwendete Einstellungen:
Skalierung der Graphiken ... ?
xyx+y,   Skalierungsfaktor:      Skalierung: Modus: x, Faktor: 1
Darstellungszeitraum ... ?
Vom - - bis: - -   Zeitraum: 17.04.2011 - 16.04.2021
Min/Max/Avg-Anzeige ... ?
Zeige MMA aktuell
Zeige MMA Monat
Zeige MMA alles
Zeige --A aktuell
Zeige --A Monat
Zeige --A alles
Keine MMA-Anzeige
MMA:
Average (ber die Originaldaten)
MMA-Basis: 17.04.2011 - 16.04.2021
Quicknavigation für Darstellung... ?
Tage:      1T, 2T, 3T, 5T -1T -2T -3T -5T +1T +2T +3T +5T
Wochen: 1W, 2W, 3W -1W -2W -3W +1W +2W +3W
Monate: 1M, 3M, 6M -1M -3M -6M +1M +3M +6M
Jahre:    1J, 3J, 5J, 10J -1J -3J -5J -10J +1J +3J +5J +10J
Nutze für die Darstellung ... ?
Originaldaten oder ...
Mittelwerte Minima Maxima auf...
Stundenbasis Tagesbasis Wochenbasis
Monatsbasis Jahresbasis      Datenbasis: Mittelwerte auf Stundenbasis
Darstellen als:
Statistik (Auto) Statistik J:M      Darstellung:
Zur Graphik,    zurück zur Übersicht aller Sensoren.
 
Tabellarische Datenbersicht: ?
 
Sensor: Nr:Datum:Temp:Abs-Feuchte:Windchill:Wind:
Aussen-T/F 1 17-04-2011 00:00:00 8.32 C 4.78 g/m*3 8.32 C 0 km/h
2 17-04-2011 01:00:00 7.62 C 4.86 g/m*3 7.62 C 0 km/h
3 17-04-2011 02:00:00 7.36 C 4.79 g/m*3 7.36 C 0 km/h
4 17-04-2011 03:00:00 7.16 C 4.96 g/m*3 7.16 C 0 km/h
5 17-04-2011 04:00:00 6.96 C 5.18 g/m*3 6.96 C 0 km/h
6 17-04-2011 05:00:00 6.86 C 5.34 g/m*3 6.86 C 0 km/h
7 17-04-2011 06:00:00 6.68 C 5.37 g/m*3 6.68 C 0 km/h
8 17-04-2011 07:00:00 7.04 C 5.61 g/m*3 7.04 C 0 km/h
9 17-04-2011 08:00:00 8.1 C 5.67 g/m*3 8.1 C 0 km/h
10 17-04-2011 09:00:00 9.44 C 5.57 g/m*3 9.44 C 0 km/h
11 17-04-2011 10:00:00 11.66 C 5.13 g/m*3 11.66 C 0 km/h
12 17-04-2011 11:00:00 14.5 C 4.6 g/m*3 14.5 C 0 km/h
13 17-04-2011 12:00:00 16.56 C 3.64 g/m*3 16.56 C 0 km/h
14 17-04-2011 13:00:00 18.9 C 3.24 g/m*3 18.9 C 0 km/h
15 17-04-2011 14:00:00 21.06 C 3.68 g/m*3 21.06 C 0 km/h
16 17-04-2011 15:00:00 18.48 C 3.16 g/m*3 18.48 C 0 km/h
17 17-04-2011 16:00:00 18.98 C 3.26 g/m*3 18.98 C 0 km/h
18 17-04-2011 17:00:00 18.64 C 3.19 g/m*3 18.64 C 0 km/h
19 17-04-2011 18:00:00 16.54 C 2.93 g/m*3 16.54 C 0 km/h
20 17-04-2011 19:00:00 14.24 C 3.89 g/m*3 14.24 C 0 km/h
21 17-04-2011 20:00:00 11.64 C 3.9 g/m*3 11.64 C 0 km/h
22 17-04-2011 21:00:00 9.18 C 3.96 g/m*3 9.18 C 0 km/h
23 17-04-2011 22:00:00 7.22 C 4.28 g/m*3 7.22 C 0 km/h
24 17-04-2011 23:00:00 5.72 C 4.32 g/m*3 5.72 C 0 km/h
25 18-04-2011 00:00:00 4.86 C 4.48 g/m*3 4.86 C 0 km/h
Sensor: Nr:Datum:Temp:Abs-Feuchte:Windchill:Wind:
Aussen-T/F 26 18-04-2011 01:00:00 3.76 C 4.44 g/m*3 3.76 C 0 km/h
27 18-04-2011 02:00:00 2.68 C 4.49 g/m*3 2.68 C 0 km/h
28 18-04-2011 03:00:00 2.06 C 4.56 g/m*3 2.06 C 0 km/h
29 18-04-2011 04:00:00 1.42 C 4.5 g/m*3 1.42 C 0 km/h
30 18-04-2011 05:00:00 0.98 C 4.47 g/m*3 0.98 C 0 km/h
31 18-04-2011 06:00:00 0.72 C 4.48 g/m*3 0.72 C 0 km/h
32 18-04-2011 07:00:00 1.3 C 4.7 g/m*3 1.3 C 0 km/h
33 18-04-2011 08:00:00 2.7 C 5.14 g/m*3 2.7 C 0 km/h
34 18-04-2011 09:00:00 4.56 C 5.68 g/m*3 4.56 C 0 km/h
35 18-04-2011 10:00:00 8.08 C 6.03 g/m*3 8.08 C 0 km/h
36 18-04-2011 11:00:00 12.02 C 5.34 g/m*3 12.02 C 0 km/h
37 18-04-2011 12:00:00 15.86 C 3.86 g/m*3 15.86 C 0 km/h
38 18-04-2011 13:00:00 19.24 C 3.64 g/m*3 19.24 C 0 km/h
39 18-04-2011 14:00:00 23.64 C 4.26 g/m*3 23.64 C 0 km/h
40 18-04-2011 15:00:00 24.52 C 4.48 g/m*3 24.52 C 0 km/h
41 18-04-2011 16:00:00 26.1 C 4.9 g/m*3 26.1 C 0 km/h
42 18-04-2011 17:00:00 25.44 C 4.72 g/m*3 25.44 C 0 km/h
43 18-04-2011 18:00:00 23.54 C 4.24 g/m*3 23.54 C 0 km/h
44 18-04-2011 19:00:00 18.26 C 4.46 g/m*3 18.26 C 0 km/h
45 18-04-2011 20:00:00 12.92 C 4.63 g/m*3 12.92 C 0 km/h
46 18-04-2011 21:00:00 10.72 C 4.76 g/m*3 10.72 C 0 km/h
47 18-04-2011 22:00:00 9.275 C 5 g/m*3 9.28 C 0 km/h
48 18-04-2011 23:00:00 7.86 C 5.03 g/m*3 7.86 C 0 km/h
49 19-04-2011 00:00:00 6.42 C 5.07 g/m*3 6.42 C 0 km/h
50 19-04-2011 01:00:00 5.3 C 5.03 g/m*3 5.3 C 0 km/h
Sensor: Nr:Datum:Temp:Abs-Feuchte:Windchill:Wind:
Aussen-T/F 51 19-04-2011 02:00:00 4.46 C 5.01 g/m*3 4.46 C 0 km/h
52 19-04-2011 03:00:00 3.74 C 5 g/m*3 3.74 C 0 km/h
53 19-04-2011 04:00:00 3.16 C 5.01 g/m*3 3.16 C 0 km/h
54 19-04-2011 05:00:00 2.5 C 4.91 g/m*3 2.5 C 0 km/h
55 19-04-2011 06:00:00 2.22 C 4.93 g/m*3 2.22 C 0 km/h
56 19-04-2011 07:00:00 2.64 C 5.14 g/m*3 2.64 C 0 km/h
57 19-04-2011 08:00:00 3.76 C 5.54 g/m*3 3.76 C 0 km/h
58 19-04-2011 09:00:00 5.42 C 6.15 g/m*3 5.42 C 0 km/h
59 19-04-2011 10:00:00 8.58 C 6.8 g/m*3 8.58 C 0 km/h
60 19-04-2011 11:00:00 12.76 C 6.26 g/m*3 12.76 C 0 km/h
61 19-04-2011 12:00:00 17.58 C 4.7 g/m*3 17.58 C 0 km/h
62 19-04-2011 13:00:00 20.42 C 4.18 g/m*3 20.42 C 0 km/h
63 19-04-2011 14:00:00 26.44 C 4.99 g/m*3 26.44 C 0 km/h
64 19-04-2011 15:00:00 28.6 C 5.62 g/m*3 28.6 C 0 km/h
65 19-04-2011 16:00:00 28.78 C 5.68 g/m*3 28.78 C 0 km/h
66 19-04-2011 17:00:00 28.68 C 5.65 g/m*3 28.68 C 0 km/h
67 19-04-2011 18:00:00 27.58 C 5.31 g/m*3 27.58 C 0 km/h
68 19-04-2011 19:00:00 22.26 C 4.65 g/m*3 22.26 C 0 km/h
69 19-04-2011 20:00:00 15.18 C 4.62 g/m*3 15.18 C 0 km/h
70 19-04-2011 21:00:00 12.64 C 4.88 g/m*3 12.64 C 0 km/h
71 19-04-2011 22:00:00 10.86 C 5.24 g/m*3 10.86 C 0 km/h
72 19-04-2011 23:00:00 9.04 C 5.16 g/m*3 9.04 C 0 km/h
73 20-04-2011 00:00:00 7.48 C 5.29 g/m*3 7.48 C 0 km/h
74 20-04-2011 01:00:00 6.52 C 5.29 g/m*3 6.52 C 0 km/h
75 20-04-2011 02:00:00 5.74 C 5.28 g/m*3 5.74 C 0 km/h
Sensor: Nr:Datum:Temp:Abs-Feuchte:Windchill:Wind:
Aussen-T/F 76 20-04-2011 03:00:00 4.7 C 5.33 g/m*3 4.7 C 0 km/h
77 20-04-2011 04:00:00 4.02 C 5.32 g/m*3 4.02 C 0 km/h
78 20-04-2011 05:00:00 3.48 C 5.32 g/m*3 3.48 C 0 km/h
79 20-04-2011 06:00:00 3.06 C 5.23 g/m*3 3.06 C 0 km/h
80 20-04-2011 07:00:00 3.38 C 5.4 g/m*3 3.38 C 0 km/h
81 20-04-2011 08:00:00 4.5 C 5.84 g/m*3 4.5 C 0 km/h
82 20-04-2011 09:00:00 6.08 C 6.36 g/m*3 6.08 C 0 km/h
83 20-04-2011 10:00:00 8.94 C 7.03 g/m*3 8.94 C 0 km/h
84 20-04-2011 11:00:00 12.54 C 6.99 g/m*3 12.54 C 0 km/h
85 20-04-2011 12:00:00 17.52 C 5.97 g/m*3 17.52 C 0 km/h
86 20-04-2011 13:00:00 21.7 C 3.85 g/m*3 21.7 C 0 km/h
87 20-04-2011 14:00:00 26.94 C 5.13 g/m*3 26.94 C 0 km/h
88 20-04-2011 15:00:00 28.82 C 5.69 g/m*3 28.82 C 0 km/h
89 20-04-2011 16:00:00 29.3 C 5.84 g/m*3 29.3 C 0 km/h
90 20-04-2011 17:00:00 30.08 C 6.09 g/m*3 30.08 C 0 km/h
91 20-04-2011 18:00:00 27.62 C 5.33 g/m*3 27.62 C 0 km/h
92 20-04-2011 19:00:00 22.44 C 5.22 g/m*3 22.44 C 0 km/h
93 20-04-2011 20:00:00 15.9 C 4.98 g/m*3 15.9 C 0 km/h
94 20-04-2011 21:00:00 13.3 C 5.04 g/m*3 13.3 C 0 km/h
95 20-04-2011 22:00:00 11.48 C 5.1 g/m*3 11.48 C 0 km/h
96 20-04-2011 23:00:00 9.64 C 5.22 g/m*3 9.64 C 0 km/h
97 21-04-2011 00:00:00 8.66 C 5.26 g/m*3 8.66 C 0 km/h
98 21-04-2011 01:00:00 8.08 C 5.45 g/m*3 8.08 C 0 km/h
99 21-04-2011 02:00:00 7.02 C 5.48 g/m*3 7.02 C 0 km/h
100 21-04-2011 03:00:00 6.42 C 5.63 g/m*3 6.42 C 0 km/h
Sensor: Nr:Datum:Temp:Abs-Feuchte:Windchill:Wind:
Aussen-T/F 101 21-04-2011 04:00:00 5.62 C 5.65 g/m*3 5.62 C 0 km/h
102 21-04-2011 05:00:00 4.86 C 5.57 g/m*3 4.86 C 0 km/h
103 21-04-2011 06:00:00 4.68 C 5.67 g/m*3 4.68 C 0 km/h
104 21-04-2011 07:00:00 5.18 C 5.94 g/m*3 5.18 C 0 km/h
105 21-04-2011 08:00:00 6.24 C 6.37 g/m*3 6.24 C 0 km/h
106 21-04-2011 09:00:00 8.56 C 6.98 g/m*3 8.56 C 0 km/h
107 21-04-2011 10:00:00 11.76 C 6.7 g/m*3 11.76 C 0 km/h
108 21-04-2011 11:00:00 15.18 C 6.46 g/m*3 15.18 C 0 km/h
109 21-04-2011 12:00:00 17.8 C 6.74 g/m*3 17.8 C 0 km/h
110 21-04-2011 13:00:00 20.9 C 6.16 g/m*3 20.9 C 0 km/h
111 21-04-2011 14:00:00 29.96 C 6.05 g/m*3 29.96 C 0 km/h
112 21-04-2011 15:00:00 31.4 C 6.54 g/m*3 31.4 C 0 km/h
113 21-04-2011 16:00:00 30.8 C 6.33 g/m*3 30.8 C 0 km/h
114 21-04-2011 17:00:00 31.1 C 6.43 g/m*3 31.1 C 0 km/h
115 21-04-2011 18:00:00 23.04 C 5.56 g/m*3 23.04 C 0 km/h
116 21-04-2011 19:00:00 18.72 C 5.64 g/m*3 18.72 C 0 km/h
117 21-04-2011 20:00:00 15.6 C 5.82 g/m*3 15.6 C 0 km/h
118 21-04-2011 21:00:00 13.46 C 5.9 g/m*3 13.46 C 0 km/h
119 21-04-2011 22:00:00 12.12 C 5.88 g/m*3 12.12 C 0 km/h
120 21-04-2011 23:00:00 10.68 C 6.08 g/m*3 10.68 C 0 km/h
121 22-04-2011 00:00:00 9.58 C 6.15 g/m*3 9.58 C 0 km/h
122 22-04-2011 01:00:00 9 C 6.31 g/m*3 9 C 0 km/h
123 22-04-2011 02:00:00 8.3 C 6.44 g/m*3 8.3 C 0 km/h
124 22-04-2011 03:00:00 7.44 C 6.46 g/m*3 7.44 C 0 km/h
125 22-04-2011 04:00:00 6.84 C 6.49 g/m*3 6.84 C 0 km/h
Sensor: Nr:Datum:Temp:Abs-Feuchte:Windchill:Wind:
Aussen-T/F 126 22-04-2011 05:00:00 6.34 C 6.43 g/m*3 6.34 C 0 km/h
127 22-04-2011 06:00:00 5.98 C 6.36 g/m*3 5.98 C 0 km/h
128 22-04-2011 07:00:00 6.52 C 6.67 g/m*3 6.52 C 0 km/h
129 22-04-2011 08:00:00 7.62 C 7.08 g/m*3 7.62 C 0 km/h
130 22-04-2011 09:00:00 9.56 C 7.84 g/m*3 9.56 C 0 km/h
131 22-04-2011 10:00:00 12.44 C 8.65 g/m*3 12.44 C 0 km/h
132 22-04-2011 11:00:00 15.8 C 8.21 g/m*3 15.8 C 0 km/h
133 22-04-2011 12:00:00 19.26 C 7.74 g/m*3 19.26 C 0 km/h
134 22-04-2011 13:00:00 23.48 C 5.24 g/m*3 23.48 C 0 km/h
135 22-04-2011 14:00:00 29.48 C 5.9 g/m*3 29.48 C 0 km/h
136 22-04-2011 15:00:00 31.16 C 6.46 g/m*3 31.16 C 0 km/h
137 22-04-2011 16:00:00 30.32 C 6.17 g/m*3 30.32 C 0 km/h
138 22-04-2011 17:00:00 29 C 5.74 g/m*3 29 C 0 km/h
139 22-04-2011 18:00:00 29.72 C 5.97 g/m*3 29.72 C 0 km/h
140 22-04-2011 19:00:00 25.08 C 6.01 g/m*3 25.08 C 0 km/h
141 22-04-2011 20:00:00 19.14 C 6.24 g/m*3 19.14 C 0 km/h
142 22-04-2011 21:00:00 17.26 C 6.11 g/m*3 17.26 C 0 km/h
143 22-04-2011 22:00:00 16.48 C 5.97 g/m*3 16.48 C 0 km/h
144 22-04-2011 23:00:00 16.62 C 6.39 g/m*3 16.62 C 0 km/h
145 23-04-2011 00:00:00 13.46 C 9.73 g/m*3 13.46 C 0 km/h
146 23-04-2011 01:00:00 12.34 C 9.49 g/m*3 12.34 C 0 km/h
147 23-04-2011 02:00:00 11.32 C 8.99 g/m*3 11.32 C 0 km/h
148 23-04-2011 03:00:00 10.38 C 8.53 g/m*3 10.38 C 0 km/h
149 23-04-2011 04:00:00 10.84 C 8.88 g/m*3 10.84 C 0 km/h
150 23-04-2011 05:00:00 11.3 C 9.16 g/m*3 11.3 C 0 km/h
Sensor: Nr:Datum:Temp:Abs-Feuchte:Windchill:Wind:
Aussen-T/F 151 23-04-2011 06:00:00 10.96 C 8.99 g/m*3 10.96 C 0 km/h
152 23-04-2011 07:00:00 11.16 C 9.12 g/m*3 11.16 C 0 km/h
153 23-04-2011 08:00:00 13 C 10.18 g/m*3 13 C 0 km/h
154 23-04-2011 09:00:00 14.38 C 10.72 g/m*3 14.38 C 0 km/h
155 23-04-2011 10:00:00 15.06 C 10.94 g/m*3 15.06 C 0 km/h
156 23-04-2011 11:00:00 17.2 C 10.43 g/m*3 17.2 C 0 km/h
157 23-04-2011 12:00:00 19.96 C 7.24 g/m*3 19.96 C 0 km/h
158 23-04-2011 13:00:00 23.94 C 5.25 g/m*3 23.94 C 0 km/h
159 23-04-2011 14:00:00 30.62 C 6.27 g/m*3 30.62 C 0 km/h
160 23-04-2011 15:00:00 31.56 C 6.6 g/m*3 31.56 C 0 km/h
161 23-04-2011 16:00:00 31.88 C 6.71 g/m*3 31.88 C 0 km/h
162 23-04-2011 17:00:00 30.98 C 6.39 g/m*3 30.98 C 0 km/h
163 23-04-2011 18:00:00 30.12 C 6.1 g/m*3 30.12 C 0 km/h
164 23-04-2011 19:00:00 24.44 C 6.42 g/m*3 24.44 C 0 km/h
165 23-04-2011 20:00:00 18.26 C 5.96 g/m*3 18.26 C 0 km/h
166 23-04-2011 21:00:00 15.72 C 5.92 g/m*3 15.72 C 0 km/h
167 23-04-2011 22:00:00 14.88 C 6.59 g/m*3 14.88 C 0 km/h
168 23-04-2011 23:00:00 14.5 C 6.84 g/m*3 14.5 C 0 km/h
169 24-04-2011 00:00:00 13.14 C 7.05 g/m*3 13.14 C 0 km/h
170 24-04-2011 01:00:00 11.28 C 6.89 g/m*3 11.28 C 0 km/h
171 24-04-2011 02:00:00 10.22 C 6.9 g/m*3 10.22 C 0 km/h
172 24-04-2011 03:00:00 9.42 C 6.94 g/m*3 9.42 C 0 km/h
173 24-04-2011 04:00:00 8.86 C 7.06 g/m*3 8.86 C 0 km/h
174 24-04-2011 05:00:00 8.16 C 6.95 g/m*3 8.16 C 0 km/h
175 24-04-2011 06:00:00 7.4 C 6.82 g/m*3 7.4 C 0 km/h
Sensor: Nr:Datum:Temp:Abs-Feuchte:Windchill:Wind:
Aussen-T/F 176 24-04-2011 07:00:00 7.96 C 7.16 g/m*3 7.96 C 0 km/h
177 24-04-2011 08:00:00 9.44 C 7.65 g/m*3 9.44 C 0 km/h
178 24-04-2011 09:00:00 10.94 C 8.06 g/m*3 10.94 C 0 km/h
179 24-04-2011 10:00:00 13.42 C 8.68 g/m*3 13.42 C 0 km/h
180 24-04-2011 11:00:00 16.12 C 8.1 g/m*3 16.12 C 0 km/h
181 24-04-2011 12:00:00 19.04 C 6.96 g/m*3 19.04 C 0 km/h
182 24-04-2011 13:00:00 22.96 C 5.82 g/m*3 22.96 C 0 km/h
183 24-04-2011 14:00:00 29.4 C 5.87 g/m*3 29.4 C 0 km/h
184 24-04-2011 15:00:00 30.46 C 6.22 g/m*3 30.46 C 0 km/h
185 24-04-2011 16:00:00 31.08 C 6.43 g/m*3 31.08 C 0 km/h
186 24-04-2011 17:00:00 28.58 C 6.63 g/m*3 28.58 C 0 km/h
187 24-04-2011 18:00:00 25.34 C 7.32 g/m*3 25.34 C 0 km/h
188 24-04-2011 19:00:00 22.02 C 7.69 g/m*3 22.02 C 0 km/h
189 24-04-2011 20:00:00 17.72 C 6.95 g/m*3 17.72 C 0 km/h
190 24-04-2011 21:00:00 16.14 C 6.27 g/m*3 16.14 C 0 km/h
191 24-04-2011 22:00:00 16.5 C 5.14 g/m*3 16.5 C 0 km/h
192 24-04-2011 23:00:00 16.24 C 4.42 g/m*3 16.24 C 0 km/h
193 25-04-2011 00:00:00 14.78 C 4.45 g/m*3 14.78 C 0 km/h
194 25-04-2011 01:00:00 12.76 C 4.94 g/m*3 12.76 C 0 km/h
195 25-04-2011 02:00:00 11.24 C 5 g/m*3 11.24 C 0 km/h
196 25-04-2011 03:00:00 9.94 C 5.15 g/m*3 9.94 C 0 km/h
197 25-04-2011 04:00:00 8.12 C 5.35 g/m*3 8.12 C 0 km/h
198 25-04-2011 05:00:00 6.94 C 5.53 g/m*3 6.94 C 0 km/h
199 25-04-2011 06:00:00 6.26 C 5.67 g/m*3 6.26 C 0 km/h
200 25-04-2011 07:00:00 6.2 C 5.96 g/m*3 6.2 C 0 km/h
Sensor: Nr:Datum:Temp:Abs-Feuchte:Windchill:Wind:
Aussen-T/F 201 25-04-2011 08:00:00 7.32 C 6.55 g/m*3 7.32 C 0 km/h
202 25-04-2011 09:00:00 9.34 C 7.15 g/m*3 9.34 C 0 km/h
203 25-04-2011 10:00:00 12.78 C 7.2 g/m*3 12.78 C 0 km/h
204 25-04-2011 11:00:00 16.32 C 5.58 g/m*3 16.32 C 0 km/h
205 25-04-2011 12:00:00 18.84 C 3.81 g/m*3 18.84 C 0 km/h
206 25-04-2011 13:00:00 21.56 C 3.78 g/m*3 21.56 C 0 km/h
207 25-04-2011 14:00:00 27.66 C 5.34 g/m*3 27.66 C 0 km/h
208 25-04-2011 15:00:00 29.44 C 5.88 g/m*3 29.44 C 0 km/h
209 25-04-2011 16:00:00 29.42 C 5.88 g/m*3 29.42 C 0 km/h
210 25-04-2011 17:00:00 29.12 C 5.78 g/m*3 29.12 C 0 km/h
211 25-04-2011 18:00:00 27.62 C 5.33 g/m*3 27.62 C 0 km/h
212 25-04-2011 19:00:00 22.72 C 4.53 g/m*3 22.72 C 0 km/h
213 25-04-2011 20:00:00 15.98 C 5.39 g/m*3 15.98 C 0 km/h
214 25-04-2011 21:00:00 14.06 C 5.06 g/m*3 14.06 C 0 km/h
215 25-04-2011 22:00:00 13 C 5.24 g/m*3 13 C 0 km/h
216 25-04-2011 23:00:00 11.98 C 5.28 g/m*3 11.98 C 0 km/h
217 26-04-2011 00:00:00 11.32 C 5.54 g/m*3 11.32 C 0 km/h
218 26-04-2011 01:00:00 9.38 C 5.58 g/m*3 9.38 C 0 km/h
219 26-04-2011 02:00:00 8.1 C 5.66 g/m*3 8.1 C 0 km/h
220 26-04-2011 03:00:00 7.04 C 5.8 g/m*3 7.04 C 0 km/h
221 26-04-2011 04:00:00 6.2 C 5.81 g/m*3 6.2 C 0 km/h
222 26-04-2011 05:00:00 5.62 C 5.89 g/m*3 5.62 C 0 km/h
223 26-04-2011 06:00:00 5.22 C 5.93 g/m*3 5.22 C 0 km/h
224 26-04-2011 07:00:00 5.88 C 6.25 g/m*3 5.88 C 0 km/h
225 26-04-2011 08:00:00 7.08 C 6.73 g/m*3 7.08 C 0 km/h
Sensor: Nr:Datum:Temp:Abs-Feuchte:Windchill:Wind:
Aussen-T/F 226 26-04-2011 09:00:00 8.9 C 7.2 g/m*3 8.9 C 0 km/h
227 26-04-2011 10:00:00 12.1 C 7.27 g/m*3 12.1 C 0 km/h
228 26-04-2011 11:00:00 15.92 C 6.24 g/m*3 15.92 C 0 km/h
229 26-04-2011 12:00:00 19.24 C 5.75 g/m*3 19.24 C 0 km/h
230 26-04-2011 13:00:00 19.66 C 5.79 g/m*3 19.66 C 0 km/h
231 26-04-2011 14:00:00 22.08 C 5.26 g/m*3 22.08 C 0 km/h
232 26-04-2011 15:00:00 20.74 C 5.23 g/m*3 20.74 C 0 km/h
233 26-04-2011 16:00:00 23.94 C 4.6 g/m*3 23.94 C 0 km/h
234 26-04-2011 17:00:00 20.08 C 4.93 g/m*3 20.08 C 0 km/h
235 26-04-2011 18:00:00 14.54 C 7.76 g/m*3 14.54 C 0 km/h
236 26-04-2011 19:00:00 14.04 C 8.25 g/m*3 14.04 C 0 km/h
237 26-04-2011 20:00:00 13.28 C 7.82 g/m*3 13.28 C 0 km/h
238 26-04-2011 21:00:00 12.02 C 7.49 g/m*3 12.02 C 0 km/h
239 26-04-2011 22:00:00 13.12 C 7.68 g/m*3 13.12 C 0 km/h
240 26-04-2011 23:00:00 12.36 C 7.74 g/m*3 12.36 C 0 km/h
241 27-04-2011 00:00:00 11.4 C 7.55 g/m*3 11.4 C 0 km/h
242 27-04-2011 01:00:00 11.58 C 8.16 g/m*3 11.58 C 0 km/h
243 27-04-2011 02:00:00 11.42 C 8.59 g/m*3 11.42 C 0 km/h
244 27-04-2011 03:00:00 11.26 C 8.71 g/m*3 11.26 C 0 km/h
245 27-04-2011 04:00:00 11.42 C 8.82 g/m*3 11.42 C 0 km/h
246 27-04-2011 05:00:00 11.48 C 8.25 g/m*3 11.48 C 0 km/h
247 27-04-2011 06:00:00 11.04 C 6.98 g/m*3 11.04 C 0 km/h
248 27-04-2011 07:00:00 9.98 C 6.79 g/m*3 9.98 C 0 km/h
249 27-04-2011 08:00:00 9.94 C 7.15 g/m*3 9.94 C 0 km/h
250 27-04-2011 09:00:00 11.24 C 7.11 g/m*3 11.24 C 0 km/h
Sensor: Nr:Datum:Temp:Abs-Feuchte:Windchill:Wind:
Aussen-T/F 251 27-04-2011 10:00:00 11.8 C 7.07 g/m*3 11.8 C 0 km/h
252 27-04-2011 11:00:00 11.62 C 7.06 g/m*3 11.62 C 0 km/h
253 27-04-2011 12:00:00 12.14 C 7.1 g/m*3 12.14 C 0 km/h
254 27-04-2011 13:00:00 11.18 C 7.53 g/m*3 11.18 C 0 km/h
255 27-04-2011 14:00:00 11.42 C 7.85 g/m*3 11.42 C 0 km/h
256 27-04-2011 15:00:00 12.92 C 7.99 g/m*3 12.92 C 0 km/h
257 27-04-2011 16:00:00 12.68 C 7.74 g/m*3 12.68 C 0 km/h
258 27-04-2011 17:00:00 12.26 C 7.73 g/m*3 12.26 C 0 km/h
259 27-04-2011 18:00:00 12.08 C 7.86 g/m*3 12.08 C 0 km/h
260 27-04-2011 19:00:00 10.74 C 8.21 g/m*3 10.74 C 0 km/h
261 27-04-2011 20:00:00 10.7 C 8.39 g/m*3 10.7 C 0 km/h
262 27-04-2011 21:00:00 10.14 C 8.25 g/m*3 10.14 C 0 km/h
263 27-04-2011 22:00:00 10.12 C 8.41 g/m*3 10.12 C 0 km/h
264 27-04-2011 23:00:00 9.96 C 8.42 g/m*3 9.96 C 0 km/h
265 28-04-2011 00:00:00 9.92 C 8.45 g/m*3 9.92 C 0 km/h
266 28-04-2011 01:00:00 9.78 C 8.43 g/m*3 9.78 C 0 km/h
267 28-04-2011 02:00:00 9.54 C 8.3 g/m*3 9.54 C 0 km/h
268 28-04-2011 03:00:00 9.26 C 8.18 g/m*3 9.26 C 0 km/h
269 28-04-2011 04:00:00 8.78 C 7.98 g/m*3 8.78 C 0 km/h
270 28-04-2011 05:00:00 9.08 C 8.15 g/m*3 9.08 C 0 km/h
271 28-04-2011 06:00:00 9.44 C 8.34 g/m*3 9.44 C 0 km/h
272 28-04-2011 07:00:00 9.84 C 8.54 g/m*3 9.84 C 0 km/h
273 28-04-2011 08:00:00 10.7 C 9.02 g/m*3 10.7 C 0 km/h
274 28-04-2011 09:00:00 11.82 C 9.57 g/m*3 11.82 C 0 km/h
275 28-04-2011 10:00:00 12.84 C 8.98 g/m*3 12.84 C 0 km/h
Sensor: Nr:Datum:Temp:Abs-Feuchte:Windchill:Wind:
Aussen-T/F 276 28-04-2011 11:00:00 15.22 C 8.34 g/m*3 15.22 C 0 km/h
277 28-04-2011 12:00:00 16.12 C 7.9 g/m*3 16.12 C 0 km/h
278 28-04-2011 13:00:00 17.64 C 7.73 g/m*3 17.64 C 0 km/h
279 28-04-2011 14:00:00 20.54 C 7.28 g/m*3 20.54 C 0 km/h
280 28-04-2011 15:00:00 22.04 C 6.85 g/m*3 22.04 C 0 km/h
281 28-04-2011 16:00:00 21 C 8.43 g/m*3 21 C 0 km/h
282 28-04-2011 17:00:00 24.02 C 6.01 g/m*3 24.02 C 0 km/h
283 28-04-2011 18:00:00 19.88 C 7.93 g/m*3 19.88 C 0 km/h
284 28-04-2011 19:00:00 19.92 C 7.98 g/m*3 19.92 C 0 km/h
285 28-04-2011 20:00:00 14.16 C 8.55 g/m*3 14.16 C 0 km/h
286 28-04-2011 21:00:00 12.42 C 8.45 g/m*3 12.42 C 0 km/h
287 28-04-2011 22:00:00 11.44 C 8.5 g/m*3 11.44 C 0 km/h
288 28-04-2011 23:00:00 10.36 C 8.21 g/m*3 10.36 C 0 km/h
289 29-04-2011 00:00:00 10.74 C 8.65 g/m*3 10.74 C 0 km/h
290 29-04-2011 01:00:00 10 C 8.29 g/m*3 10 C 0 km/h
291 29-04-2011 02:00:00 10.56 C 8.66 g/m*3 10.56 C 0 km/h
292 29-04-2011 03:00:00 9.42 C 8.13 g/m*3 9.42 C 0 km/h
293 29-04-2011 04:00:00 9.24 C 8.06 g/m*3 9.24 C 0 km/h
294 29-04-2011 05:00:00 9.36 C 8.16 g/m*3 9.36 C 0 km/h
295 29-04-2011 06:00:00 9.76 C 8.38 g/m*3 9.76 C 0 km/h
296 29-04-2011 07:00:00 11 C 8.99 g/m*3 11 C 0 km/h
297 29-04-2011 08:00:00 13.46 C 9.19 g/m*3 13.46 C 0 km/h
298 29-04-2011 09:00:00 15.92 C 7.81 g/m*3 15.92 C 0 km/h
299 29-04-2011 10:00:00 17.2 C 7.67 g/m*3 17.2 C 0 km/h
300 29-04-2011 11:00:00 18.84 C 6.91 g/m*3 18.84 C 0 km/h
Sensor: Nr:Datum:Temp:Abs-Feuchte:Windchill:Wind:
Aussen-T/F 301 29-04-2011 12:00:00 20.4 C 6.33 g/m*3 20.4 C 0 km/h
302 29-04-2011 13:00:00 22.56 C 5.53 g/m*3 22.56 C 0 km/h
303 29-04-2011 14:00:00 27.38 C 5.26 g/m*3 27.38 C 0 km/h
304 29-04-2011 15:00:00 25.74 C 5.28 g/m*3 25.74 C 0 km/h
305 29-04-2011 16:00:00 19.14 C 8.81 g/m*3 19.14 C 0 km/h
306 29-04-2011 17:00:00 17.44 C 10.16 g/m*3 17.44 C 0 km/h
307 29-04-2011 18:00:00 16.32 C 9.72 g/m*3 16.32 C 0 km/h
308 29-04-2011 19:00:00 15.64 C 8.27 g/m*3 15.64 C 0 km/h
309 29-04-2011 20:00:00 14.72 C 7.46 g/m*3 14.72 C 0 km/h
310 29-04-2011 21:00:00 12.76 C 7.89 g/m*3 12.76 C 0 km/h
311 29-04-2011 22:00:00 12.22 C 7.97 g/m*3 12.22 C 0 km/h
312 29-04-2011 23:00:00 12.18 C 7.63 g/m*3 12.18 C 0 km/h
313 30-04-2011 00:00:00 11.82 C 7.78 g/m*3 11.82 C 0 km/h
314 30-04-2011 01:00:00 11.48 C 7.74 g/m*3 11.48 C 0 km/h
315 30-04-2011 02:00:00 11.1 C 7.68 g/m*3 11.1 C 0 km/h
316 30-04-2011 03:00:00 10.54 C 7.53 g/m*3 10.54 C 0 km/h
317 30-04-2011 04:00:00 9.98 C 7.49 g/m*3 9.98 C 0 km/h
318 30-04-2011 05:00:00 9.64 C 7.49 g/m*3 9.64 C 0 km/h
319 30-04-2011 06:00:00 10.22 C 7.22 g/m*3 10.22 C 0 km/h
320 30-04-2011 07:00:00 11.78 C 7.32 g/m*3 11.78 C 0 km/h
321 30-04-2011 08:00:00 12.68 C 7.69 g/m*3 12.68 C 0 km/h
322 30-04-2011 09:00:00 14.58 C 7.35 g/m*3 14.58 C 0 km/h
323 30-04-2011 10:00:00 16.56 C 6.76 g/m*3 16.56 C 0 km/h
324 30-04-2011 11:00:00 17.96 C 6.53 g/m*3 17.96 C 0 km/h
325 30-04-2011 12:00:00 19.36 C 6.19 g/m*3 19.36 C 0 km/h
Sensor: Nr:Datum:Temp:Abs-Feuchte:Windchill:Wind:
Aussen-T/F 326 30-04-2011 13:00:00 22.04 C 5.8 g/m*3 22.04 C 0 km/h
327 30-04-2011 14:00:00 24.26 C 5.56 g/m*3 24.26 C 0 km/h
328 30-04-2011 15:00:00 25.14 C 6.26 g/m*3 25.14 C 0 km/h
329 30-04-2011 16:00:00 25.06 C 5.08 g/m*3 25.06 C 0 km/h
330 30-04-2011 17:00:00 20 C 7.02 g/m*3 20 C 0 km/h
331 30-04-2011 18:00:00 16.44 C 9.23 g/m*3 16.44 C 0 km/h
332 30-04-2011 19:00:00 14.8 C 8.79 g/m*3 14.8 C 0 km/h
333 30-04-2011 20:00:00 14.4 C 7.54 g/m*3 14.4 C 0 km/h
334 30-04-2011 21:00:00 15.04 C 6.02 g/m*3 15.04 C 0 km/h
335 30-04-2011 22:00:00 13.06 C 5.85 g/m*3 13.06 C 0 km/h
336 30-04-2011 23:00:00 12.14 C 5.7 g/m*3 12.14 C 0 km/h
337 01-05-2011 00:00:00 12.05 C 5.51 g/m*3 12.05 C 0 km/h
338 01-05-2011 01:00:00 12.84 C 5.1 g/m*3 12.84 C 0 km/h
339 01-05-2011 02:00:00 12.32 C 4.81 g/m*3 12.32 C 0 km/h
340 01-05-2011 03:00:00 11.24 C 4.84 g/m*3 11.24 C 0 km/h
341 01-05-2011 04:00:00 9.64 C 4.89 g/m*3 9.64 C 0 km/h
342 01-05-2011 05:00:00 9.92 C 4.56 g/m*3 9.92 C 0 km/h
343 01-05-2011 06:00:00 9.3 C 4.57 g/m*3 9.3 C 0 km/h
344 01-05-2011 07:00:00 9.2 C 4.59 g/m*3 9.2 C 0 km/h
345 01-05-2011 08:00:00 9.68 C 4.9 g/m*3 9.68 C 0 km/h
346 01-05-2011 09:00:00 11.22 C 4.93 g/m*3 11.22 C 0 km/h
347 01-05-2011 10:00:00 13.48 C 4.63 g/m*3 13.48 C 0 km/h
348 01-05-2011 11:00:00 14.98 C 5.02 g/m*3 14.98 C 0 km/h
349 01-05-2011 12:00:00 16.74 C 5.19 g/m*3 16.74 C 0 km/h
350 01-05-2011 13:00:00 18.86 C 4.69 g/m*3 18.86 C 0 km/h
Sensor: Nr:Datum:Temp:Abs-Feuchte:Windchill:Wind:
Aussen-T/F 351 01-05-2011 14:00:00 24.24 C 4.41 g/m*3 24.24 C 0 km/h
352 01-05-2011 15:00:00 25.4 C 4.71 g/m*3 25.4 C 0 km/h
353 01-05-2011 16:00:00 25.52 C 4.74 g/m*3 25.52 C 0 km/h
354 01-05-2011 17:00:00 24.6 C 4.5 g/m*3 24.6 C 0 km/h
355 01-05-2011 18:00:00 23.38 C 4.2 g/m*3 23.38 C 0 km/h
356 01-05-2011 19:00:00 20.54 C 3.75 g/m*3 20.54 C 0 km/h
357 01-05-2011 20:00:00 15.24 C 3.62 g/m*3 15.24 C 0 km/h
358 01-05-2011 21:00:00 11 C 4.02 g/m*3 11 C 0 km/h
359 01-05-2011 22:00:00 9.88 C 4.01 g/m*3 9.88 C 0 km/h
360 01-05-2011 23:00:00 10.36 C 4.1 g/m*3 10.36 C 0 km/h
361 02-05-2011 00:00:00 11.56 C 3.71 g/m*3 11.56 C 0 km/h
362 02-05-2011 01:00:00 9.52 C 3.79 g/m*3 9.52 C 0 km/h
363 02-05-2011 02:00:00 7.82 C 4.07 g/m*3 7.82 C 0 km/h
364 02-05-2011 03:00:00 6.16 C 4.33 g/m*3 6.16 C 0 km/h
365 02-05-2011 04:00:00 5.32 C 4.44 g/m*3 5.32 C 0 km/h
366 02-05-2011 05:00:00 4.76 C 4.49 g/m*3 4.76 C 0 km/h
367 02-05-2011 06:00:00 4.2 C 4.54 g/m*3 4.2 C 0 km/h
368 02-05-2011 07:00:00 4.4 C 4.77 g/m*3 4.4 C 0 km/h
369 02-05-2011 08:00:00 5.26 C 5.17 g/m*3 5.26 C 0 km/h
370 02-05-2011 09:00:00 7.2 C 5.23 g/m*3 7.2 C 0 km/h
371 02-05-2011 10:00:00 10.76 C 4.79 g/m*3 10.76 C 0 km/h
372 02-05-2011 11:00:00 13.12 C 4.2 g/m*3 13.12 C 0 km/h
373 02-05-2011 12:00:00 14.54 C 3.77 g/m*3 14.54 C 0 km/h
374 02-05-2011 13:00:00 16.78 C 3.6 g/m*3 16.78 C 0 km/h
375 02-05-2011 14:00:00 22.72 C 4.05 g/m*3 22.72 C 0 km/h
Sensor: Nr:Datum:Temp:Abs-Feuchte:Windchill:Wind:
Aussen-T/F 376 02-05-2011 15:00:00 22.12 C 3.91 g/m*3 22.12 C 0 km/h
377 02-05-2011 16:00:00 21.2 C 3.74 g/m*3 21.2 C 0 km/h
378 02-05-2011 17:00:00 21.04 C 3.67 g/m*3 21.04 C 0 km/h
379 02-05-2011 18:00:00 18.58 C 3.37 g/m*3 18.58 C 0 km/h
380 02-05-2011 19:00:00 17.22 C 3.4 g/m*3 17.22 C 0 km/h
381 02-05-2011 20:00:00 12.46 C 4.1 g/m*3 12.46 C 0 km/h
382 02-05-2011 21:00:00 9.9 C 4.52 g/m*3 9.9 C 0 km/h
383 02-05-2011 22:00:00 8.36 C 4.79 g/m*3 8.36 C 0 km/h
384 02-05-2011 23:00:00 9 C 4.73 g/m*3 9 C 0 km/h
385 03-05-2011 00:00:00 8.3 C 4.74 g/m*3 8.3 C 0 km/h
386 03-05-2011 01:00:00 8.02 C 4.74 g/m*3 8.02 C 0 km/h
387 03-05-2011 02:00:00 8.2 C 4.71 g/m*3 8.2 C 0 km/h
388 03-05-2011 03:00:00 8.02 C 4.54 g/m*3 8.02 C 0 km/h
389 03-05-2011 04:00:00 7.72 C 4.42 g/m*3 7.72 C 0 km/h
390 03-05-2011 05:00:00 7.7 C 4.27 g/m*3 7.7 C 0 km/h
391 03-05-2011 06:00:00 7.52 C 4.3 g/m*3 7.52 C 0 km/h
392 03-05-2011 07:00:00 7.76 C 4.12 g/m*3 7.76 C 0 km/h
393 03-05-2011 08:00:00 7.12 C 4.05 g/m*3 7.12 C 0 km/h
394 03-05-2011 09:00:00 7.74 C 4.18 g/m*3 7.74 C 0 km/h
395 03-05-2011 10:00:00 9.78 C 4.02 g/m*3 9.78 C 0 km/h
396 03-05-2011 11:00:00 11.94 C 3.67 g/m*3 11.94 C 0 km/h
397 03-05-2011 12:00:00 12.2 C 3.43 g/m*3 12.2 C 0 km/h
398 03-05-2011 13:00:00 13.14 C 3.25 g/m*3 13.14 C 0 km/h
399 03-05-2011 14:00:00 17.38 C 3.08 g/m*3 17.38 C 0 km/h
400 03-05-2011 15:00:00 19.14 C 3.29 g/m*3 19.14 C 0 km/h
Sensor: Nr:Datum:Temp:Abs-Feuchte:Windchill:Wind:
Aussen-T/F 401 03-05-2011 16:00:00 21.46 C 3.76 g/m*3 21.46 C 0 km/h
402 03-05-2011 17:00:00 19.28 C 3.31 g/m*3 19.28 C 0 km/h
403 03-05-2011 18:00:00 19.6 C 3.38 g/m*3 19.6 C 0 km/h
404 03-05-2011 19:00:00 16.12 C 2.88 g/m*3 16.12 C 0 km/h
405 03-05-2011 20:00:00 9.08 C 3.76 g/m*3 9.08 C 0 km/h
406 03-05-2011 21:00:00 6.58 C 3.66 g/m*3 6.58 C 0 km/h
407 03-05-2011 22:00:00 4.78 C 3.67 g/m*3 4.78 C 0 km/h
408 03-05-2011 23:00:00 3.78 C 3.77 g/m*3 3.78 C 0 km/h
409 04-05-2011 00:00:00 3.48 C 4.03 g/m*3 3.48 C 0 km/h
410 04-05-2011 01:00:00 2.24 C 3.99 g/m*3 2.24 C 0 km/h
411 04-05-2011 02:00:00 1.26 C 4 g/m*3 1.26 C 0 km/h
412 04-05-2011 03:00:00 0.6 C 4.1 g/m*3 0.6 C 0 km/h
413 04-05-2011 04:00:00 0.1 C 4.09 g/m*3 0.1 C 0 km/h
414 04-05-2011 05:00:00 -0.5 C 4.03 g/m*3 -0.5 C 0 km/h
415 04-05-2011 06:00:00 -0.5 C 4.09 g/m*3 -0.5 C 0 km/h
416 04-05-2011 07:00:00 0.22 C 4.33 g/m*3 0.22 C 0 km/h
417 04-05-2011 08:00:00 2.2 C 4.9 g/m*3 2.2 C 0 km/h
418 04-05-2011 09:00:00 4.08 C 5.1 g/m*3 4.08 C 0 km/h
419 04-05-2011 10:00:00 7.14 C 4.88 g/m*3 7.14 C 0 km/h
420 04-05-2011 11:00:00 9.78 C 4.11 g/m*3 9.78 C 0 km/h
421 04-05-2011 12:00:00 11.56 C 3.32 g/m*3 11.56 C 0 km/h
422 04-05-2011 13:00:00 15.4 C 2.81 g/m*3 15.4 C 0 km/h
423 04-05-2011 14:00:00 17.96 C 3.06 g/m*3 17.96 C 0 km/h
424 04-05-2011 15:00:00 19.16 C 3.29 g/m*3 19.16 C 0 km/h
425 04-05-2011 16:00:00 19.32 C 3.32 g/m*3 19.32 C 0 km/h
Sensor: Nr:Datum:Temp:Abs-Feuchte:Windchill:Wind:
Aussen-T/F 426 04-05-2011 17:00:00 19.76 C 3.41 g/m*3 19.76 C 0 km/h
427 04-05-2011 18:00:00 18.44 C 3.15 g/m*3 18.44 C 0 km/h
428 04-05-2011 19:00:00 16.32 C 3 g/m*3 16.32 C 0 km/h
429 04-05-2011 20:00:00 11.2 C 3.75 g/m*3 11.2 C 0 km/h
430 04-05-2011 21:00:00 7.86 C 4.16 g/m*3 7.86 C 0 km/h
431 04-05-2011 22:00:00 6.84 C 4.17 g/m*3 6.84 C 0 km/h
432 04-05-2011 23:00:00 4.8 C 4.37 g/m*3 4.8 C 0 km/h
433 05-05-2011 00:00:00 3.46 C 4.38 g/m*3 3.46 C 0 km/h
434 05-05-2011 01:00:00 2.64 C 4.42 g/m*3 2.64 C 0 km/h
435 05-05-2011 02:00:00 2.02 C 4.51 g/m*3 2.02 C 0 km/h
436 05-05-2011 03:00:00 1.58 C 4.59 g/m*3 1.58 C 0 km/h
437 05-05-2011 04:00:00 1.1 C 4.56 g/m*3 1.1 C 0 km/h
438 05-05-2011 05:00:00 0.5 C 4.45 g/m*3 0.5 C 0 km/h
439 05-05-2011 06:00:00 0.44 C 4.47 g/m*3 0.44 C 0 km/h
440 05-05-2011 07:00:00 1.28 C 4.76 g/m*3 1.28 C 0 km/h
441 05-05-2011 08:00:00 2.66 C 5.17 g/m*3 2.66 C 0 km/h
442 05-05-2011 09:00:00 5.2 C 5.94 g/m*3 5.2 C 0 km/h
443 05-05-2011 10:00:00 8.94 C 6.48 g/m*3 8.94 C 0 km/h
444 05-05-2011 11:00:00 12.78 C 4.65 g/m*3 12.78 C 0 km/h
445 05-05-2011 12:00:00 14.56 C 3.55 g/m*3 14.56 C 0 km/h
446 05-05-2011 13:00:00 18.24 C 3.65 g/m*3 18.24 C 0 km/h
447 05-05-2011 14:00:00 23.46 C 4.22 g/m*3 23.46 C 0 km/h
448 05-05-2011 15:00:00 24.12 C 4.38 g/m*3 24.12 C 0 km/h
449 05-05-2011 16:00:00 23.18 C 4.15 g/m*3 23.18 C 0 km/h
450 05-05-2011 17:00:00 22.56 C 4.01 g/m*3 22.56 C 0 km/h
Sensor: Nr:Datum:Temp:Abs-Feuchte:Windchill:Wind:
Aussen-T/F 451 05-05-2011 18:00:00 20.86 C 3.63 g/m*3 20.86 C 0 km/h
452 05-05-2011 19:00:00 17.1 C 4.92 g/m*3 17.1 C 0 km/h
453 05-05-2011 20:00:00 13.18 C 4.68 g/m*3 13.18 C 0 km/h
454 05-05-2011 21:00:00 10.9 C 4.16 g/m*3 10.9 C 0 km/h
455 05-05-2011 22:00:00 9.06 C 4.67 g/m*3 9.06 C 0 km/h
456 05-05-2011 23:00:00 7.94 C 4.83 g/m*3 7.94 C 0 km/h
457 06-05-2011 00:00:00 6.78 C 4.74 g/m*3 6.78 C 0 km/h
458 06-05-2011 01:00:00 5.6 C 4.78 g/m*3 5.6 C 0 km/h
459 06-05-2011 02:00:00 4.36 C 4.87 g/m*3 4.36 C 0 km/h
460 06-05-2011 03:00:00 3.56 C 4.96 g/m*3 3.56 C 0 km/h
461 06-05-2011 04:00:00 2.88 C 4.93 g/m*3 2.88 C 0 km/h
462 06-05-2011 05:00:00 2.18 C 4.86 g/m*3 2.18 C 0 km/h
463 06-05-2011 06:00:00 2.3 C 5.01 g/m*3 2.3 C 0 km/h
464 06-05-2011 07:00:00 3.46 C 5.41 g/m*3 3.46 C 0 km/h
465 06-05-2011 08:00:00 5.2 C 6 g/m*3 5.2 C 0 km/h
466 06-05-2011 09:00:00 8.38 C 6.78 g/m*3 8.38 C 0 km/h
467 06-05-2011 10:00:00 11.9 C 6.69 g/m*3 11.9 C 0 km/h
468 06-05-2011 11:00:00 16.36 C 5.63 g/m*3 16.36 C 0 km/h
469 06-05-2011 12:00:00 20.48 C 4.59 g/m*3 20.48 C 0 km/h
470 06-05-2011 13:00:00 23.68 C 4.27 g/m*3 23.68 C 0 km/h
471 06-05-2011 14:00:00 26.28 C 4.95 g/m*3 26.28 C 0 km/h
472 06-05-2011 15:00:00 26.08 C 4.89 g/m*3 26.08 C 0 km/h
473 06-05-2011 16:00:00 26.24 C 4.93 g/m*3 26.24 C 0 km/h
474 06-05-2011 17:00:00 26.68 C 5.06 g/m*3 26.68 C 0 km/h
475 06-05-2011 18:00:00 24.76 C 5.68 g/m*3 24.76 C 0 km/h
Sensor: Nr:Datum:Temp:Abs-Feuchte:Windchill:Wind:
Aussen-T/F 476 06-05-2011 19:00:00 20.22 C 6.48 g/m*3 20.22 C 0 km/h
477 06-05-2011 20:00:00 17.06 C 5.92 g/m*3 17.06 C 0 km/h
478 06-05-2011 21:00:00 14.88 C 5.37 g/m*3 14.88 C 0 km/h
479 06-05-2011 22:00:00 13.12 C 5.64 g/m*3 13.12 C 0 km/h
480 06-05-2011 23:00:00 12.26 C 5.63 g/m*3 12.26 C 0 km/h
481 07-05-2011 00:00:00 11.46 C 5.73 g/m*3 11.46 C 0 km/h
482 07-05-2011 01:00:00 10.04 C 5.86 g/m*3 10.04 C 0 km/h
483 07-05-2011 02:00:00 8.76 C 5.94 g/m*3 8.76 C 0 km/h
484 07-05-2011 03:00:00 7.92 C 6.17 g/m*3 7.92 C 0 km/h
485 07-05-2011 04:00:00 7.3 C 6.19 g/m*3 7.3 C 0 km/h
486 07-05-2011 05:00:00 7.22 C 6.38 g/m*3 7.22 C 0 km/h
487 07-05-2011 06:00:00 7.06 C 6.44 g/m*3 7.06 C 0 km/h
488 07-05-2011 07:00:00 7.58 C 6.74 g/m*3 7.58 C 0 km/h
489 07-05-2011 08:00:00 9.2 C 7.18 g/m*3 9.2 C 0 km/h
490 07-05-2011 09:00:00 11.84 C 7.53 g/m*3 11.84 C 0 km/h
491 07-05-2011 10:00:00 16.16 C 7.92 g/m*3 16.16 C 0 km/h
492 07-05-2011 11:00:00 19.38 C 7.37 g/m*3 19.38 C 0 km/h
493 07-05-2011 12:00:00 21.74 C 6.39 g/m*3 21.74 C 0 km/h
494 07-05-2011 13:00:00 27.32 C 5.76 g/m*3 27.32 C 0 km/h
495 07-05-2011 14:00:00 31.2 C 6.47 g/m*3 31.2 C 0 km/h
496 07-05-2011 15:00:00 31.54 C 6.59 g/m*3 31.54 C 0 km/h
497 07-05-2011 16:00:00 31.26 C 6.49 g/m*3 31.26 C 0 km/h
498 07-05-2011 17:00:00 31.44 C 6.55 g/m*3 31.44 C 0 km/h
499 07-05-2011 18:00:00 29.66 C 6.01 g/m*3 29.66 C 0 km/h
500 07-05-2011 19:00:00 25.08 C 6.84 g/m*3 25.08 C 0 km/h
Sensor: Nr:Datum:Temp:Abs-Feuchte:Windchill:Wind:
Aussen-T/F 501 07-05-2011 20:00:00 20.12 C 6.89 g/m*3 20.12 C 0 km/h
502 07-05-2011 21:00:00 17.6 C 6 g/m*3 17.6 C 0 km/h
503 07-05-2011 22:00:00 16.22 C 5.8 g/m*3 16.22 C 0 km/h
504 07-05-2011 23:00:00 15.6 C 5.56 g/m*3 15.6 C 0 km/h
505 08-05-2011 00:00:00 15.16 C 5.33 g/m*3 15.16 C 0 km/h
506 08-05-2011 01:00:00 14.12 C 5.15 g/m*3 14.12 C 0 km/h
507 08-05-2011 02:00:00 12.98 C 5.32 g/m*3 12.98 C 0 km/h
508 08-05-2011 03:00:00 11.64 C 5.19 g/m*3 11.64 C 0 km/h
509 08-05-2011 04:00:00 10.5 C 5.3 g/m*3 10.5 C 0 km/h
510 08-05-2011 05:00:00 9.8 C 5.27 g/m*3 9.8 C 0 km/h
511 08-05-2011 06:00:00 9.04 C 5.34 g/m*3 9.04 C 0 km/h
512 08-05-2011 07:00:00 9.68 C 5.82 g/m*3 9.68 C 0 km/h
513 08-05-2011 08:00:00 11.54 C 6.48 g/m*3 11.54 C 0 km/h
514 08-05-2011 09:00:00 14 C 6.59 g/m*3 14 C 0 km/h
515 08-05-2011 10:00:00 17.74 C 6.53 g/m*3 17.74 C 0 km/h
516 08-05-2011 11:00:00 21 C 5.94 g/m*3 21 C 0 km/h
517 08-05-2011 12:00:00 23.46 C 4.39 g/m*3 23.46 C 0 km/h
518 08-05-2011 13:00:00 27.4 C 5.26 g/m*3 27.4 C 0 km/h
519 08-05-2011 14:00:00 30.88 C 6.36 g/m*3 30.88 C 0 km/h
520 08-05-2011 15:00:00 29.98 C 6.06 g/m*3 29.98 C 0 km/h
521 08-05-2011 16:00:00 32.02 C 6.76 g/m*3 32.02 C 0 km/h
522 08-05-2011 17:00:00 31.72 C 6.65 g/m*3 31.72 C 0 km/h
523 08-05-2011 18:00:00 30.56 C 6.25 g/m*3 30.56 C 0 km/h
524 08-05-2011 19:00:00 23.5 C 5.58 g/m*3 23.5 C 0 km/h
525 08-05-2011 20:00:00 20.22 C 5.32 g/m*3 20.22 C 0 km/h
Sensor: Nr:Datum:Temp:Abs-Feuchte:Windchill:Wind:
Aussen-T/F 526 08-05-2011 21:00:00 18.72 C 4.55 g/m*3 18.72 C 0 km/h
527 08-05-2011 22:00:00 17 C 4.4 g/m*3 17 C 0 km/h
528 08-05-2011 23:00:00 15.06 C 4.76 g/m*3 15.06 C 0 km/h
529 09-05-2011 00:00:00 14.06 C 5.01 g/m*3 14.06 C 0 km/h
530 09-05-2011 01:00:00 12.54 C 5.29 g/m*3 12.54 C 0 km/h
531 09-05-2011 02:00:00 11.58 C 5.52 g/m*3 11.58 C 0 km/h
532 09-05-2011 03:00:00 10.76 C 5.76 g/m*3 10.76 C 0 km/h
533 09-05-2011 04:00:00 10.56 C 6.15 g/m*3 10.56 C 0 km/h
534 09-05-2011 05:00:00 10.44 C 6.47 g/m*3 10.44 C 0 km/h
535 09-05-2011 06:00:00 10.64 C 6.67 g/m*3 10.64 C 0 km/h
536 09-05-2011 07:00:00 11.08 C 6.92 g/m*3 11.08 C 0 km/h
537 09-05-2011 08:00:00 12.32 C 7.02 g/m*3 12.32 C 0 km/h
538 09-05-2011 09:00:00 15.92 C 5.91 g/m*3 15.92 C 0 km/h
539 09-05-2011 10:00:00 18.9 C 4.5 g/m*3 18.9 C 0 km/h
540 09-05-2011 11:00:00 20.26 C 4.04 g/m*3 20.26 C 0 km/h
541 09-05-2011 12:00:00 22.06 C 3.9 g/m*3 22.06 C 0 km/h
542 09-05-2011 13:00:00 26.06 C 4.89 g/m*3 26.06 C 0 km/h
543 09-05-2011 14:00:00 28.5 C 5.59 g/m*3 28.5 C 0 km/h
544 09-05-2011 15:00:00 30.1 C 6.1 g/m*3 30.1 C 0 km/h
545 09-05-2011 16:00:00 26.48 C 5.9 g/m*3 26.48 C 0 km/h
546 09-05-2011 17:00:00 30.82 C 6.34 g/m*3 30.82 C 0 km/h
547 09-05-2011 18:00:00 30.6 C 6.26 g/m*3 30.6 C 0 km/h
548 09-05-2011 19:00:00 26.58 C 5.58 g/m*3 26.58 C 0 km/h
549 09-05-2011 20:00:00 19.56 C 5.05 g/m*3 19.56 C 0 km/h
550 09-05-2011 21:00:00 16.44 C 4.65 g/m*3 16.44 C 0 km/h
Sensor: Nr:Datum:Temp:Abs-Feuchte:Windchill:Wind:
Aussen-T/F 551 09-05-2011 22:00:00 13.64 C 4.81 g/m*3 13.64 C 0 km/h
552 09-05-2011 23:00:00 11.72 C 4.9 g/m*3 11.72 C 0 km/h
553 10-05-2011 00:00:00 10.3 C 5.15 g/m*3 10.3 C 0 km/h
554 10-05-2011 01:00:00 9.36 C 5.43 g/m*3 9.36 C 0 km/h
555 10-05-2011 02:00:00 9.06 C 5.72 g/m*3 9.06 C 0 km/h
556 10-05-2011 03:00:00 8.64 C 5.89 g/m*3 8.64 C 0 km/h
557 10-05-2011 04:00:00 7.82 C 5.97 g/m*3 7.82 C 0 km/h
558 10-05-2011 05:00:00 7.62 C 6.23 g/m*3 7.62 C 0 km/h
559 10-05-2011 06:00:00 8.62 C 6.47 g/m*3 8.62 C 0 km/h
560 10-05-2011 07:00:00 10.96 C 6.47 g/m*3 10.96 C 0 km/h
561 10-05-2011 08:00:00 12.94 C 6.26 g/m*3 12.94 C 0 km/h
562 10-05-2011 09:00:00 16 C 6.16 g/m*3 16 C 0 km/h
563 10-05-2011 10:00:00 18.44 C 6.65 g/m*3 18.44 C 0 km/h
564 10-05-2011 11:00:00 20.92 C 6.86 g/m*3 20.92 C 0 km/h
565 10-05-2011 12:00:00 22.52 C 6.6 g/m*3 22.52 C 0 km/h
566 10-05-2011 13:00:00 27.48 C 6.13 g/m*3 27.48 C 0 km/h
567 10-05-2011 14:00:00 32.22 C 6.83 g/m*3 32.22 C 0 km/h
568 10-05-2011 15:00:00 32.2 C 6.82 g/m*3 32.2 C 0 km/h
569 10-05-2011 16:00:00 30.58 C 6.51 g/m*3 30.58 C 0 km/h
570 10-05-2011 17:00:00 30.72 C 6.43 g/m*3 30.72 C 0 km/h
571 10-05-2011 18:00:00 26.82 C 7.29 g/m*3 26.82 C 0 km/h
572 10-05-2011 19:00:00 21.86 C 7.51 g/m*3 21.86 C 0 km/h
573 10-05-2011 20:00:00 20.16 C 7.75 g/m*3 20.16 C 0 km/h
574 10-05-2011 21:00:00 16.34 C 9.79 g/m*3 16.34 C 0 km/h
575 10-05-2011 22:00:00 14.42 C 10.45 g/m*3 14.42 C 0 km/h
Sensor: Nr:Datum:Temp:Abs-Feuchte:Windchill:Wind:
Aussen-T/F 576 10-05-2011 23:00:00 15 C 10.67 g/m*3 15 C 0 km/h
577 11-05-2011 00:00:00 14.78 C 10.83 g/m*3 14.78 C 0 km/h
578 11-05-2011 01:00:00 14.34 C 10.79 g/m*3 14.34 C 0 km/h
579 11-05-2011 02:00:00 14.4 C 10.68 g/m*3 14.4 C 0 km/h
580 11-05-2011 03:00:00 13.98 C 10.46 g/m*3 13.98 C 0 km/h
581 11-05-2011 04:00:00 13.06 C 9.97 g/m*3 13.06 C 0 km/h
582 11-05-2011 05:00:00 12.18 C 9.61 g/m*3 12.18 C 0 km/h
583 11-05-2011 06:00:00 12.22 C 9.72 g/m*3 12.22 C 0 km/h
584 11-05-2011 07:00:00 13.96 C 10.81 g/m*3 13.96 C 0 km/h
585 11-05-2011 08:00:00 15.72 C 11.76 g/m*3 15.72 C 0 km/h
586 11-05-2011 09:00:00 17.46 C 10.38 g/m*3 17.46 C 0 km/h
587 11-05-2011 10:00:00 17.88 C 9.15 g/m*3 17.88 C 0 km/h
588 11-05-2011 11:00:00 19.82 C 8.58 g/m*3 19.82 C 0 km/h
589 11-05-2011 12:00:00 21.28 C 7.48 g/m*3 21.28 C 0 km/h
590 11-05-2011 13:00:00 24.76 C 6.5 g/m*3 24.76 C 0 km/h
591 11-05-2011 14:00:00 27.06 C 5.99 g/m*3 27.06 C 0 km/h
592 11-05-2011 15:00:00 26.62 C 6.3 g/m*3 26.62 C 0 km/h
593 11-05-2011 16:00:00 27.44 C 5.91 g/m*3 27.44 C 0 km/h
594 11-05-2011 17:00:00 25.18 C 6.42 g/m*3 25.18 C 0 km/h
595 11-05-2011 18:00:00 24.1 C 6.35 g/m*3 24.1 C 0 km/h
596 11-05-2011 19:00:00 21.76 C 8.12 g/m*3 21.76 C 0 km/h
597 11-05-2011 20:00:00 18.42 C 8.35 g/m*3 18.42 C 0 km/h
598 11-05-2011 21:00:00 16.42 C 7.88 g/m*3 16.42 C 0 km/h
599 11-05-2011 22:00:00 15.04 C 8.18 g/m*3 15.04 C 0 km/h
600 11-05-2011 23:00:00 13.88 C 8.31 g/m*3 13.88 C 0 km/h
Sensor: Nr:Datum:Temp:Abs-Feuchte:Windchill:Wind:
Aussen-T/F 601 12-05-2011 00:00:00 12.38 C 7.86 g/m*3 12.38 C 0 km/h
602 12-05-2011 01:00:00 11.6 C 7.96 g/m*3 11.6 C 0 km/h
603 12-05-2011 02:00:00 11.46 C 8.18 g/m*3 11.46 C 0 km/h
604 12-05-2011 03:00:00 10.88 C 8.01 g/m*3 10.88 C 0 km/h
605 12-05-2011 04:00:00 10.86 C 8.18 g/m*3 10.86 C 0 km/h
606 12-05-2011 05:00:00 11.36 C 8.11 g/m*3 11.36 C 0 km/h
607 12-05-2011 06:00:00 11.66 C 8.22 g/m*3 11.66 C 0 km/h
608 12-05-2011 07:00:00 12.72 C 8.23 g/m*3 12.72 C 0 km/h
609 12-05-2011 08:00:00 13.86 C 7.96 g/m*3 13.86 C 0 km/h
610 12-05-2011 09:00:00 15.3 C 7.6 g/m*3 15.3 C 0 km/h
611 12-05-2011 10:00:00 16.48 C 7.26 g/m*3 16.48 C 0 km/h
612 12-05-2011 11:00:00 17.12 C 6.97 g/m*3 17.12 C 0 km/h
613 12-05-2011 12:00:00 19.56 C 6.43 g/m*3 19.56 C 0 km/h
614 12-05-2011 13:00:00 21.22 C 6.31 g/m*3 21.22 C 0 km/h
615 12-05-2011 14:00:00 23.72 C 5.65 g/m*3 23.72 C 0 km/h
616 12-05-2011 15:00:00 21.94 C 5.96 g/m*3 21.94 C 0 km/h
617 12-05-2011 16:00:00 22.14 C 5.75 g/m*3 22.14 C 0 km/h
618 12-05-2011 17:00:00 21.56 C 5.03 g/m*3 21.56 C 0 km/h
619 12-05-2011 18:00:00 21.92 C 4.37 g/m*3 21.92 C 0 km/h
620 12-05-2011 19:00:00 18.84 C 4.97 g/m*3 18.84 C 0 km/h
621 12-05-2011 20:00:00 15.98 C 5.2 g/m*3 15.98 C 0 km/h
622 12-05-2011 21:00:00 13.56 C 5.73 g/m*3 13.56 C 0 km/h
623 12-05-2011 22:00:00 11.84 C 5.82 g/m*3 11.84 C 0 km/h
624 12-05-2011 23:00:00 10.72 C 5.47 g/m*3 10.72 C 0 km/h
625 13-05-2011 00:00:00 9.98 C 5.31 g/m*3 9.98 C 0 km/h
Sensor: Nr:Datum:Temp:Abs-Feuchte:Windchill:Wind:
Aussen-T/F 626 13-05-2011 01:00:00 8.48 C 5.53 g/m*3 8.48 C 0 km/h
627 13-05-2011 02:00:00 6.98 C 5.6 g/m*3 6.98 C 0 km/h
628 13-05-2011 03:00:00 6.64 C 5.71 g/m*3 6.64 C 0 km/h
629 13-05-2011 04:00:00 5.86 C 5.71 g/m*3 5.86 C 0 km/h
630 13-05-2011 05:00:00 5.04 C 5.75 g/m*3 5.04 C 0 km/h
631 13-05-2011 06:00:00 5 C 5.86 g/m*3 5 C 0 km/h
632 13-05-2011 07:00:00 5.32 C 6 g/m*3 5.32 C 0 km/h
633 13-05-2011 08:00:00 6.86 C 6.6 g/m*3 6.86 C 0 km/h
634 13-05-2011 09:00:00 10.34 C 6.84 g/m*3 10.34 C 0 km/h
635 13-05-2011 10:00:00 13.18 C 6.44 g/m*3 13.18 C 0 km/h
636 13-05-2011 11:00:00 15.88 C 5.25 g/m*3 15.88 C 0 km/h
637 13-05-2011 12:00:00 17.6 C 5.19 g/m*3 17.6 C 0 km/h
638 13-05-2011 13:00:00 20.16 C 4.88 g/m*3 20.16 C 0 km/h
639 13-05-2011 14:00:00 24.7 C 4.53 g/m*3 24.7 C 0 km/h
640 13-05-2011 15:00:00 21 C 5.09 g/m*3 21 C 0 km/h
641 13-05-2011 16:00:00 24.86 C 4.57 g/m*3 24.86 C 0 km/h
642 13-05-2011 17:00:00 25.08 C 4.9 g/m*3 25.08 C 0 km/h
643 13-05-2011 18:00:00 21.96 C 5.85 g/m*3 21.96 C 0 km/h
644 13-05-2011 19:00:00 21.1 C 5.64 g/m*3 21.1 C 0 km/h
645 13-05-2011 20:00:00 15.34 C 6 g/m*3 15.34 C 0 km/h
646 13-05-2011 21:00:00 12.9 C 5.46 g/m*3 12.9 C 0 km/h
647 13-05-2011 22:00:00 12.15 C 5.32 g/m*3 12.15 C 0 km/h
648 13-05-2011 23:00:00 11.7 C 5.5 g/m*3 11.7 C 0 km/h
649 14-05-2011 00:00:00 10.06 C 5.55 g/m*3 10.06 C 0 km/h
650 14-05-2011 01:00:00 8.68 C 5.63 g/m*3 8.68 C 0 km/h
Sensor: Nr:Datum:Temp:Abs-Feuchte:Windchill:Wind:
Aussen-T/F 651 14-05-2011 02:00:00 7.86 C 5.96 g/m*3 7.86 C 0 km/h
652 14-05-2011 03:00:00 7.04 C 5.94 g/m*3 7.04 C 0 km/h
653 14-05-2011 04:00:00 6.64 C 6.16 g/m*3 6.64 C 0 km/h
654 14-05-2011 05:00:00 5.98 C 6.02 g/m*3 5.98 C 0 km/h
655 14-05-2011 06:00:00 5.48 C 6.02 g/m*3 5.48 C 0 km/h
656 14-05-2011 07:00:00 6.8 C 6.49 g/m*3 6.8 C 0 km/h
657 14-05-2011 08:00:00 9.58 C 6.26 g/m*3 9.58 C 0 km/h
658 14-05-2011 09:00:00 12.36 C 6.26 g/m*3 12.36 C 0 km/h
659 14-05-2011 10:00:00 15.8 C 6.25 g/m*3 15.8 C 0 km/h
660 14-05-2011 11:00:00 18.56 C 5.11 g/m*3 18.56 C 0 km/h
661 14-05-2011 12:00:00 20.34 C 4.44 g/m*3 20.34 C 0 km/h
662 14-05-2011 13:00:00 19.1 C 5.21 g/m*3 19.1 C 0 km/h
663 14-05-2011 14:00:00 15.46 C 7.04 g/m*3 15.46 C 0 km/h
664 14-05-2011 15:00:00 15.6 C 6.38 g/m*3 15.6 C 0 km/h
665 14-05-2011 16:00:00 14.6 C 7.33 g/m*3 14.6 C 0 km/h
666 14-05-2011 17:00:00 16.82 C 6.04 g/m*3 16.82 C 0 km/h
667 14-05-2011 18:00:00 19.82 C 4.89 g/m*3 19.82 C 0 km/h
668 14-05-2011 19:00:00 18.14 C 3.78 g/m*3 18.14 C 0 km/h
669 14-05-2011 20:00:00 15.08 C 3.45 g/m*3 15.08 C 0 km/h
670 14-05-2011 21:00:00 12.52 C 3.74 g/m*3 12.52 C 0 km/h
671 14-05-2011 22:00:00 10.6 C 4 g/m*3 10.6 C 0 km/h
672 14-05-2011 23:00:00 9.46 C 4.21 g/m*3 9.46 C 0 km/h
673 15-05-2011 00:00:00 8.02 C 4.57 g/m*3 8.02 C 0 km/h
674 15-05-2011 01:00:00 6.82 C 5.07 g/m*3 6.82 C 0 km/h
675 15-05-2011 02:00:00 6.1 C 5.26 g/m*3 6.1 C 0 km/h
Sensor: Nr:Datum:Temp:Abs-Feuchte:Windchill:Wind:
Aussen-T/F 676 15-05-2011 03:00:00 5.56 C 5.34 g/m*3 5.56 C 0 km/h
677 15-05-2011 04:00:00 6.46 C 5.34 g/m*3 6.46 C 0 km/h
678 15-05-2011 05:00:00 4.76 C 5.26 g/m*3 4.76 C 0 km/h
679 15-05-2011 06:00:00 5.66 C 5.49 g/m*3 5.66 C 0 km/h
680 15-05-2011 07:00:00 7 C 5.52 g/m*3 7 C 0 km/h
681 15-05-2011 08:00:00 9.2 C 5.61 g/m*3 9.2 C 0 km/h
682 15-05-2011 09:00:00 10.88 C 6.02 g/m*3 10.88 C 0 km/h
683 15-05-2011 10:00:00 9.36 C 7.09 g/m*3 9.36 C 0 km/h
684 15-05-2011 11:00:00 11.6 C 7.13 g/m*3 11.6 C 0 km/h
685 15-05-2011 12:00:00 12 C 6.63 g/m*3 12 C 0 km/h
686 15-05-2011 13:00:00 15.02 C 5.78 g/m*3 15.02 C 0 km/h
687 15-05-2011 14:00:00 16.3 C 5.33 g/m*3 16.3 C 0 km/h
688 15-05-2011 15:00:00 14.66 C 5.8 g/m*3 14.66 C 0 km/h
689 15-05-2011 16:00:00 17.12 C 4.63 g/m*3 17.12 C 0 km/h
690 15-05-2011 17:00:00 18.34 C 4.67 g/m*3 18.34 C 0 km/h
691 15-05-2011 18:00:00 14.04 C 6.92 g/m*3 14.04 C 0 km/h
692 15-05-2011 19:00:00 11.02 C 6.98 g/m*3 11.02 C 0 km/h
693 15-05-2011 20:00:00 9.96 C 7.33 g/m*3 9.96 C 0 km/h
694 15-05-2011 21:00:00 9.4 C 7.16 g/m*3 9.4 C 0 km/h
695 15-05-2011 22:00:00 9.84 C 6.98 g/m*3 9.84 C 0 km/h
696 15-05-2011 23:00:00 9.12 C 7.09 g/m*3 9.12 C 0 km/h
697 16-05-2011 00:00:00 8.22 C 6.74 g/m*3 8.22 C 0 km/h
698 16-05-2011 01:00:00 7.44 C 6.76 g/m*3 7.44 C 0 km/h
699 16-05-2011 02:00:00 7.9 C 6.78 g/m*3 7.9 C 0 km/h
700 16-05-2011 03:00:00 8.4 C 6.65 g/m*3 8.4 C 0 km/h
Sensor: Nr:Datum:Temp:Abs-Feuchte:Windchill:Wind:
Aussen-T/F 701 16-05-2011 04:00:00 8.88 C 6.39 g/m*3 8.88 C 0 km/h
702 16-05-2011 05:00:00 9.16 C 6.13 g/m*3 9.16 C 0 km/h
703 16-05-2011 06:00:00 9.5 C 5.95 g/m*3 9.5 C 0 km/h
704 16-05-2011 07:00:00 9.96 C 5.81 g/m*3 9.96 C 0 km/h
705 16-05-2011 08:00:00 10.86 C 5.83 g/m*3 10.86 C 0 km/h
706 16-05-2011 09:00:00 12.38 C 5.78 g/m*3 12.38 C 0 km/h
707 16-05-2011 10:00:00 14.16 C 5.63 g/m*3 14.16 C 0 km/h
708 16-05-2011 11:00:00 16.36 C 5.51 g/m*3 16.36 C 0 km/h
709 16-05-2011 12:00:00 16.48 C 5.5 g/m*3 16.48 C 0 km/h
710 16-05-2011 13:00:00 15.24 C 6.4 g/m*3 15.24 C 0 km/h
711 16-05-2011 14:00:00 14.96 C 6.7 g/m*3 14.96 C 0 km/h
712 16-05-2011 15:00:00 14.6 C 7.23 g/m*3 14.6 C 0 km/h
713 16-05-2011 16:00:00 15.4 C 6.62 g/m*3 15.4 C 0 km/h
714 16-05-2011 17:00:00 16 C 6.73 g/m*3 16 C 0 km/h
715 16-05-2011 18:00:00 15.42 C 6.76 g/m*3 15.42 C 0 km/h
716 16-05-2011 19:00:00 15.26 C 6.93 g/m*3 15.26 C 0 km/h
717 16-05-2011 20:00:00 14.6 C 7.28 g/m*3 14.6 C 0 km/h
718 16-05-2011 21:00:00 13.94 C 7.64 g/m*3 13.94 C 0 km/h
719 16-05-2011 22:00:00 13.6 C 7.67 g/m*3 13.6 C 0 km/h
720 16-05-2011 23:00:00 13.36 C 7.7 g/m*3 13.36 C 0 km/h
721 17-05-2011 00:00:00 12.94 C 7.8 g/m*3 12.94 C 0 km/h
722 17-05-2011 01:00:00 12.74 C 7.83 g/m*3 12.74 C 0 km/h
723 17-05-2011 02:00:00 12.7 C 8.04 g/m*3 12.7 C 0 km/h
724 17-05-2011 03:00:00 12.9 C 7.91 g/m*3 12.9 C 0 km/h
725 17-05-2011 04:00:00 12.74 C 8.06 g/m*3 12.74 C 0 km/h
Sensor: Nr:Datum:Temp:Abs-Feuchte:Windchill:Wind:
Aussen-T/F 726 17-05-2011 05:00:00 12.68 C 7.96 g/m*3 12.68 C 0 km/h
727 17-05-2011 06:00:00 13.1 C 7.76 g/m*3 13.1 C 0 km/h
728 17-05-2011 07:00:00 13.58 C 7.64 g/m*3 13.58 C 0 km/h
729 17-05-2011 08:00:00 13.1 C 7.94 g/m*3 13.1 C 0 km/h
730 17-05-2011 09:00:00 14.14 C 7.84 g/m*3 14.14 C 0 km/h
731 17-05-2011 10:00:00 15.08 C 7.78 g/m*3 15.08 C 0 km/h
732 17-05-2011 11:00:00 16.22 C 7.54 g/m*3 16.22 C 0 km/h
733 17-05-2011 12:00:00 18.18 C 7.08 g/m*3 18.18 C 0 km/h
734 17-05-2011 13:00:00 20.4 C 6.83 g/m*3 20.4 C 0 km/h
735 17-05-2011 14:00:00 23.16 C 6.14 g/m*3 23.16 C 0 km/h
736 17-05-2011 15:00:00 24.08 C 6.12 g/m*3 24.08 C 0 km/h
737 17-05-2011 16:00:00 26.8 C 5.09 g/m*3 26.8 C 0 km/h
738 17-05-2011 17:00:00 27.36 C 5.25 g/m*3 27.36 C 0 km/h
739 17-05-2011 18:00:00 24.84 C 4.75 g/m*3 24.84 C 0 km/h
740 17-05-2011 19:00:00 22.6 C 4.9 g/m*3 22.6 C 0 km/h
741 17-05-2011 20:00:00 19.56 C 6.06 g/m*3 19.56 C 0 km/h
742 17-05-2011 21:00:00 15.08 C 6.52 g/m*3 15.08 C 0 km/h
743 17-05-2011 22:00:00 13.36 C 6.52 g/m*3 13.36 C 0 km/h
744 17-05-2011 23:00:00 11.64 C 6.79 g/m*3 11.64 C 0 km/h
745 18-05-2011 00:00:00 10.24 C 6.81 g/m*3 10.24 C 0 km/h
746 18-05-2011 01:00:00 9.48 C 6.89 g/m*3 9.48 C 0 km/h
747 18-05-2011 02:00:00 8.54 C 6.93 g/m*3 8.54 C 0 km/h
748 18-05-2011 03:00:00 7.76 C 6.9 g/m*3 7.76 C 0 km/h
749 18-05-2011 04:00:00 7.06 C 6.75 g/m*3 7.06 C 0 km/h
750 18-05-2011 05:00:00 6.62 C 6.7 g/m*3 6.62 C 0 km/h
Sensor: Nr:Datum:Temp:Abs-Feuchte:Windchill:Wind:
Aussen-T/F 751 18-05-2011 06:00:00 6.74 C 6.78 g/m*3 6.74 C 0 km/h
752 18-05-2011 07:00:00 7.92 C 7.24 g/m*3 7.92 C 0 km/h
753 18-05-2011 08:00:00 9.66 C 7.71 g/m*3 9.66 C 0 km/h
754 18-05-2011 09:00:00 12.92 C 7.85 g/m*3 12.92 C 0 km/h
755 18-05-2011 10:00:00 17.16 C 6.57 g/m*3 17.16 C 0 km/h
756 18-05-2011 11:00:00 19.14 C 6.15 g/m*3 19.14 C 0 km/h
757 18-05-2011 12:00:00 20.62 C 6.38 g/m*3 20.62 C 0 km/h
758 18-05-2011 13:00:00 24.28 C 6.28 g/m*3 24.28 C 0 km/h
759 18-05-2011 14:00:00 27.98 C 5.65 g/m*3 27.98 C 0 km/h
760 18-05-2011 15:00:00 28.98 C 5.74 g/m*3 28.98 C 0 km/h
761 18-05-2011 16:00:00 28.88 C 5.71 g/m*3 28.88 C 0 km/h
762 18-05-2011 17:00:00 27.7 C 5.35 g/m*3 27.7 C 0 km/h
763 18-05-2011 18:00:00 26.82 C 6.17 g/m*3 26.82 C 0 km/h
764 18-05-2011 19:00:00 23.66 C 7.17 g/m*3 23.66 C 0 km/h
765 18-05-2011 20:00:00 19.86 C 7.95 g/m*3 19.86 C 0 km/h
766 18-05-2011 21:00:00 17.48 C 7.33 g/m*3 17.48 C 0 km/h
767 18-05-2011 22:00:00 15.5 C 7.75 g/m*3 15.5 C 0 km/h
768 18-05-2011 23:00:00 13.54 C 7.65 g/m*3 13.54 C 0 km/h
769 19-05-2011 00:00:00 12.14 C 7.59 g/m*3 12.14 C 0 km/h
770 19-05-2011 01:00:00 11.7 C 7.8 g/m*3 11.7 C 0 km/h
771 19-05-2011 02:00:00 10.76 C 7.79 g/m*3 10.76 C 0 km/h
772 19-05-2011 03:00:00 10.16 C 7.84 g/m*3 10.16 C 0 km/h
773 19-05-2011 04:00:00 10.4 C 8.06 g/m*3 10.4 C 0 km/h
774 19-05-2011 05:00:00 10.42 C 8.01 g/m*3 10.42 C 0 km/h
775 19-05-2011 06:00:00 11.12 C 8.23 g/m*3 11.12 C 0 km/h
Sensor: Nr:Datum:Temp:Abs-Feuchte:Windchill:Wind:
Aussen-T/F 776 19-05-2011 07:00:00 12.88 C 8.04 g/m*3 12.88 C 0 km/h
777 19-05-2011 08:00:00 15.1 C 7.92 g/m*3 15.1 C 0 km/h
778 19-05-2011 09:00:00 17.66 C 8.13 g/m*3 17.66 C 0 km/h
779 19-05-2011 10:00:00 20.06 C 7.98 g/m*3 20.06 C 0 km/h
780 19-05-2011 11:00:00 22.12 C 7.82 g/m*3 22.12 C 0 km/h
781 19-05-2011 12:00:00 23.46 C 7.68 g/m*3 23.46 C 0 km/h
782 19-05-2011 13:00:00 26.3 C 6.78 g/m*3 26.3 C 0 km/h
783 19-05-2011 14:00:00 27.16 C 6.39 g/m*3 27.16 C 0 km/h
784 19-05-2011 15:00:00 25.76 C 6.73 g/m*3 25.76 C 0 km/h
785 19-05-2011 16:00:00 26.92 C 6.41 g/m*3 26.92 C 0 km/h
786 19-05-2011 17:00:00 24.7 C 7.51 g/m*3 24.7 C 0 km/h
787 19-05-2011 18:00:00 19.46 C 9.01 g/m*3 19.46 C 0 km/h
788 19-05-2011 19:00:00 16.12 C 11.36 g/m*3 16.12 C 0 km/h
789 19-05-2011 20:00:00 15.4 C 11.14 g/m*3 15.4 C 0 km/h
790 19-05-2011 21:00:00 14.26 C 10.76 g/m*3 14.26 C 0 km/h
791 19-05-2011 22:00:00 13.48 C 10.4 g/m*3 13.48 C 0 km/h
792 19-05-2011 23:00:00 13.06 C 10.2 g/m*3 13.06 C 0 km/h
793 20-05-2011 00:00:00 12.66 C 10.06 g/m*3 12.66 C 0 km/h
794 20-05-2011 01:00:00 11.96 C 9.63 g/m*3 11.96 C 0 km/h
795 20-05-2011 02:00:00 11.78 C 9.57 g/m*3 11.78 C 0 km/h
796 20-05-2011 03:00:00 11.02 C 9.16 g/m*3 11.02 C 0 km/h
797 20-05-2011 04:00:00 10.7 C 9.02 g/m*3 10.7 C 0 km/h
798 20-05-2011 05:00:00 10.84 C 9.12 g/m*3 10.84 C 0 km/h
799 20-05-2011 06:00:00 11.12 C 9.28 g/m*3 11.12 C 0 km/h
800 20-05-2011 07:00:00 11.46 C 9.48 g/m*3 11.46 C 0 km/h
Sensor: Nr:Datum:Temp:Abs-Feuchte:Windchill:Wind:
Aussen-T/F 801 20-05-2011 08:00:00 12.24 C 9.87 g/m*3 12.24 C 0 km/h
802 20-05-2011 09:00:00 13.72 C 10.22 g/m*3 13.72 C 0 km/h
803 20-05-2011 10:00:00 14.84 C 9.96 g/m*3 14.84 C 0 km/h
804 20-05-2011 11:00:00 17.52 C 10.6 g/m*3 17.52 C 0 km/h
805 20-05-2011 12:00:00 20.46 C 9.37 g/m*3 20.46 C 0 km/h
806 20-05-2011 13:00:00 25.48 C 8.09 g/m*3 25.48 C 0 km/h
807 20-05-2011 14:00:00 28.32 C 7.36 g/m*3 28.32 C 0 km/h
808 20-05-2011 15:00:00 24.12 C 8.37 g/m*3 24.12 C 0 km/h
809 20-05-2011 16:00:00 25.26 C 7.57 g/m*3 25.26 C 0 km/h
810 20-05-2011 17:00:00 24.52 C 7.53 g/m*3 24.52 C 0 km/h
811 20-05-2011 18:00:00 22.98 C 8.54 g/m*3 22.98 C 0 km/h
812 20-05-2011 19:00:00 18.3 C 10.26 g/m*3 18.3 C 0 km/h
813 20-05-2011 20:00:00 15.36 C 11.14 g/m*3 15.36 C 0 km/h
814 20-05-2011 21:00:00 14.46 C 10.89 g/m*3 14.46 C 0 km/h
815 20-05-2011 22:00:00 13.94 C 10.67 g/m*3 13.94 C 0 km/h
816 20-05-2011 23:00:00 13.66 C 10.63 g/m*3 13.66 C 0 km/h
817 21-05-2011 00:00:00 13.5 C 10.57 g/m*3 13.5 C 0 km/h
818 21-05-2011 01:00:00 13.24 C 10.47 g/m*3 13.24 C 0 km/h
819 21-05-2011 02:00:00 12.56 C 10.04 g/m*3 12.56 C 0 km/h
820 21-05-2011 03:00:00 11.82 C 9.63 g/m*3 11.82 C 0 km/h
821 21-05-2011 04:00:00 11.6 C 9.56 g/m*3 11.6 C 0 km/h
822 21-05-2011 05:00:00 11.46 C 9.48 g/m*3 11.46 C 0 km/h
823 21-05-2011 06:00:00 11.6 C 9.56 g/m*3 11.6 C 0 km/h
824 21-05-2011 07:00:00 12.36 C 9.81 g/m*3 12.36 C 0 km/h
825 21-05-2011 08:00:00 12.92 C 9.01 g/m*3 12.92 C 0 km/h
Sensor: Nr:Datum:Temp:Abs-Feuchte:Windchill:Wind:
Aussen-T/F 826 21-05-2011 09:00:00 14.34 C 9.16 g/m*3 14.34 C 0 km/h
827 21-05-2011 10:00:00 16.12 C 8.45 g/m*3 16.12 C 0 km/h
828 21-05-2011 11:00:00 17.86 C 8.29 g/m*3 17.86 C 0 km/h
829 21-05-2011 12:00:00 19.46 C 8.57 g/m*3 19.46 C 0 km/h
830 21-05-2011 13:00:00 25.1 C 8.38 g/m*3 25.1 C 0 km/h
831 21-05-2011 14:00:00 29.48 C 7.02 g/m*3 29.48 C 0 km/h
832 21-05-2011 15:00:00 30.12 C 6.47 g/m*3 30.12 C 0 km/h
833 21-05-2011 16:00:00 30.1 C 6.22 g/m*3 30.1 C 0 km/h
834 21-05-2011 17:00:00 31.36 C 6.59 g/m*3 31.36 C 0 km/h
835 21-05-2011 18:00:00 30.7 C 6.42 g/m*3 30.7 C 0 km/h
836 21-05-2011 19:00:00 26.31 C 9.04 g/m*3 26.31 C 0 km/h
837 21-05-2011 20:00:00 20.52727 C 9.43 g/m*3 20.53 C 0 km/h
838 21-05-2011 21:00:00 17.56 C 9.34 g/m*3 17.56 C 0 km/h
839 21-05-2011 22:00:00 15.525 C 9.27 g/m*3 15.53 C 0 km/h
840 21-05-2011 23:00:00 14.72 C 9.5 g/m*3 14.72 C 0 km/h
841 22-05-2011 00:00:00 13.32 C 8.86 g/m*3 13.32 C 0 km/h
842 22-05-2011 01:00:00 12.2 C 8.57 g/m*3 12.2 C 0 km/h
843 22-05-2011 02:00:00 11.24 C 8.41 g/m*3 11.24 C 0 km/h
844 22-05-2011 03:00:00 10.42 C 8.2 g/m*3 10.42 C 0 km/h
845 22-05-2011 04:00:00 9.8 C 8.05 g/m*3 9.8 C 0 km/h
846 22-05-2011 05:00:00 9.32 C 7.92 g/m*3 9.32 C 0 km/h
847 22-05-2011 06:00:00 9.42 C 8.06 g/m*3 9.42 C 0 km/h
848 22-05-2011 07:00:00 10 C 8.34 g/m*3 10 C 0 km/h
849 22-05-2011 08:00:00 12.8 C 9.01 g/m*3 12.8 C 0 km/h
850 22-05-2011 09:00:00 15 C 9.03 g/m*3 15 C 0 km/h
Sensor: Nr:Datum:Temp:Abs-Feuchte:Windchill:Wind:
Aussen-T/F 851 22-05-2011 10:00:00 20.2 C 8.74 g/m*3 20.2 C 0 km/h
852 22-05-2011 11:00:00 20.42 C 8.08 g/m*3 20.42 C 0 km/h
853 22-05-2011 12:00:00 22.54 C 8.05 g/m*3 22.54 C 0 km/h
854 22-05-2011 13:00:00 24.94286 C 7.51 g/m*3 24.94 C 0 km/h
855 22-05-2011 14:00:00 27.26667 C 7.18 g/m*3 27.27 C 0 km/h
856 22-05-2011 15:00:00 27.24 C 7.09 g/m*3 27.24 C 0 km/h
857 22-05-2011 16:00:00 21.14 C 10.23 g/m*3 21.14 C 0 km/h
858 22-05-2011 17:00:00 19.64 C 12.15 g/m*3 19.64 C 0 km/h
859 22-05-2011 18:00:00 20.42 C 12.19 g/m*3 20.42 C 0 km/h
860 22-05-2011 19:00:00 22.48 C 10.06 g/m*3 22.48 C 0 km/h
861 22-05-2011 20:00:00 18.28 C 8.75 g/m*3 18.28 C 0 km/h
862 22-05-2011 21:00:00 15.32 C 7.45 g/m*3 15.32 C 0 km/h
863 22-05-2011 22:00:00 12.94 C 6.12 g/m*3 12.94 C 0 km/h
864 22-05-2011 23:00:00 11.4 C 6.06 g/m*3 11.4 C 0 km/h
865 23-05-2011 00:00:00 11.02 C 5.83 g/m*3 11.02 C 0 km/h
866 23-05-2011 01:00:00 9.96 C 6.15 g/m*3 9.96 C 0 km/h
867 23-05-2011 02:00:00 8.9 C 6.13 g/m*3 8.9 C 0 km/h
868 23-05-2011 03:00:00 6.94 C 6.1 g/m*3 6.94 C 0 km/h
869 23-05-2011 04:00:00 7.1 C 6.15 g/m*3 7.1 C 0 km/h
870 23-05-2011 05:00:00 6.02 C 6.05 g/m*3 6.02 C 0 km/h
871 23-05-2011 06:00:00 6.44 C 6.35 g/m*3 6.44 C 0 km/h
872 23-05-2011 07:00:00 7.52 C 6.59 g/m*3 7.52 C 0 km/h
873 23-05-2011 08:00:00 9.36 C 6.95 g/m*3 9.36 C 0 km/h
874 23-05-2011 09:00:00 13.18 C 5.8 g/m*3 13.18 C 0 km/h
875 23-05-2011 10:00:00 15.14 C 5.28 g/m*3 15.14 C 0 km/h
Sensor: Nr:Datum:Temp:Abs-Feuchte:Windchill:Wind:
Aussen-T/F 876 23-05-2011 11:00:00 16.96 C 4.45 g/m*3 16.96 C 0 km/h
877 23-05-2011 12:00:00 18.34 C 3.51 g/m*3 18.34 C 0 km/h
878 23-05-2011 13:00:00 22.08 C 3.9 g/m*3 22.08 C 0 km/h
879 23-05-2011 14:00:00 26.2 C 4.92 g/m*3 26.2 C 0 km/h
880 23-05-2011 15:00:00 26.84 C 5.1 g/m*3 26.84 C 0 km/h
881 23-05-2011 16:00:00 27.8 C 5.38 g/m*3 27.8 C 0 km/h
882 23-05-2011 17:00:00 29.16 C 5.79 g/m*3 29.16 C 0 km/h
883 23-05-2011 18:00:00 28.22 C 5.5 g/m*3 28.22 C 0 km/h
884 23-05-2011 19:00:00 25.86 C 5.8 g/m*3 25.86 C 0 km/h
885 23-05-2011 20:00:00 19.1 C 7.54 g/m*3 19.1 C 0 km/h
886 23-05-2011 21:00:00 16.28 C 7.15 g/m*3 16.28 C 0 km/h
887 23-05-2011 22:00:00 13.78 C 7.09 g/m*3 13.78 C 0 km/h
888 23-05-2011 23:00:00 11.84 C 7.13 g/m*3 11.84 C 0 km/h
889 24-05-2011 00:00:00 10.84 C 7.27 g/m*3 10.84 C 0 km/h
890 24-05-2011 01:00:00 10.24 C 7.16 g/m*3 10.24 C 0 km/h
891 24-05-2011 02:00:00 9.52 C 7.18 g/m*3 9.52 C 0 km/h
892 24-05-2011 03:00:00 9.1 C 7.29 g/m*3 9.1 C 0 km/h
893 24-05-2011 04:00:00 8.64 C 7.2 g/m*3 8.64 C 0 km/h
894 24-05-2011 05:00:00 9.62 C 7.59 g/m*3 9.62 C 0 km/h
895 24-05-2011 06:00:00 10.74 C 7.74 g/m*3 10.74 C 0 km/h
896 24-05-2011 07:00:00 13.04 C 7.34 g/m*3 13.04 C 0 km/h
897 24-05-2011 08:00:00 13.84 C 7.76 g/m*3 13.84 C 0 km/h
898 24-05-2011 09:00:00 16.02 C 7.31 g/m*3 16.02 C 0 km/h
899 24-05-2011 10:00:00 18.12 C 6.99 g/m*3 18.12 C 0 km/h
900 24-05-2011 11:00:00 18.86 C 6.92 g/m*3 18.86 C 0 km/h
Sensor: Nr:Datum:Temp:Abs-Feuchte:Windchill:Wind:
Aussen-T/F 901 24-05-2011 12:00:00 18.74 C 6.16 g/m*3 18.74 C 0 km/h
902 24-05-2011 13:00:00 21.8 C 5.07 g/m*3 21.8 C 0 km/h
903 24-05-2011 14:00:00 24.76 C 4.54 g/m*3 24.76 C 0 km/h
904 24-05-2011 15:00:00 24.38 C 4.45 g/m*3 24.38 C 0 km/h
905 24-05-2011 16:00:00 24.42 C 4.46 g/m*3 24.42 C 0 km/h
906 24-05-2011 17:00:00 22.5 C 3.99 g/m*3 22.5 C 0 km/h
907 24-05-2011 18:00:00 22.5 C 3.99 g/m*3 22.5 C 0 km/h
908 24-05-2011 19:00:00 20.32 C 3.56 g/m*3 20.32 C 0 km/h
909 24-05-2011 20:00:00 16.96 C 3.29 g/m*3 16.96 C 0 km/h
910 24-05-2011 21:00:00 13.98 C 3.98 g/m*3 13.98 C 0 km/h
911 24-05-2011 22:00:00 11.62 C 4.47 g/m*3 11.62 C 0 km/h
912 24-05-2011 23:00:00 11.18 C 4.56 g/m*3 11.18 C 0 km/h
913 25-05-2011 00:00:00 9.78 C 4.69 g/m*3 9.78 C 0 km/h
914 25-05-2011 01:00:00 8.72 C 4.75 g/m*3 8.72 C 0 km/h
915 25-05-2011 02:00:00 7.34 C 4.78 g/m*3 7.34 C 0 km/h
916 25-05-2011 03:00:00 5.64 C 4.85 g/m*3 5.64 C 0 km/h
917 25-05-2011 04:00:00 4.58 C 4.96 g/m*3 4.58 C 0 km/h
918 25-05-2011 05:00:00 3.74 C 5 g/m*3 3.74 C 0 km/h
919 25-05-2011 06:00:00 3.84 C 5.27 g/m*3 3.84 C 0 km/h
920 25-05-2011 07:00:00 4.46 C 5.53 g/m*3 4.46 C 0 km/h
921 25-05-2011 08:00:00 6.22 C 6.13 g/m*3 6.22 C 0 km/h
922 25-05-2011 09:00:00 9.26 C 6.51 g/m*3 9.26 C 0 km/h
923 25-05-2011 10:00:00 13.84 C 5.11 g/m*3 13.84 C 0 km/h
924 25-05-2011 11:00:00 16.58 C 3.22 g/m*3 16.58 C 0 km/h
925 25-05-2011 12:00:00 17.66 C 3.04 g/m*3 17.66 C 0 km/h
Sensor: Nr:Datum:Temp:Abs-Feuchte:Windchill:Wind:
Aussen-T/F 926 25-05-2011 13:00:00 23.72 C 4.28 g/m*3 23.72 C 0 km/h
927 25-05-2011 14:00:00 29.26 C 5.83 g/m*3 29.26 C 0 km/h
928 25-05-2011 15:00:00 30.62 C 6.27 g/m*3 30.62 C 0 km/h
929 25-05-2011 16:00:00 30.7 C 6.3 g/m*3 30.7 C 0 km/h
930 25-05-2011 17:00:00 29.68 C 5.96 g/m*3 29.68 C 0 km/h
931 25-05-2011 18:00:00 29.4 C 5.87 g/m*3 29.4 C 0 km/h
932 25-05-2011 19:00:00 26.38 C 4.97 g/m*3 26.38 C 0 km/h
933 25-05-2011 20:00:00 18.3 C 4.13 g/m*3 18.3 C 0 km/h
934 25-05-2011 21:00:00 15.02 C 3.54 g/m*3 15.02 C 0 km/h
935 25-05-2011 22:00:00 12.18 C 3.9 g/m*3 12.18 C 0 km/h
936 25-05-2011 23:00:00 10.12 C 4.09 g/m*3 10.12 C 0 km/h
937 26-05-2011 00:00:00 8.88 C 4.48 g/m*3 8.88 C 0 km/h
938 26-05-2011 01:00:00 7.82 C 4.69 g/m*3 7.82 C 0 km/h
939 26-05-2011 02:00:00 7.22 C 4.89 g/m*3 7.22 C 0 km/h
940 26-05-2011 03:00:00 6.8 C 5.12 g/m*3 6.8 C 0 km/h
941 26-05-2011 04:00:00 6.14 C 5.2 g/m*3 6.14 C 0 km/h
942 26-05-2011 05:00:00 5.8 C 5.27 g/m*3 5.8 C 0 km/h
943 26-05-2011 06:00:00 6.1 C 5.42 g/m*3 6.1 C 0 km/h
944 26-05-2011 07:00:00 7.32 C 5.93 g/m*3 7.32 C 0 km/h
945 26-05-2011 08:00:00 11.56 C 6.57 g/m*3 11.56 C 0 km/h
946 26-05-2011 09:00:00 15.58 C 6.93 g/m*3 15.58 C 0 km/h
947 26-05-2011 10:00:00 19.36 C 6.92 g/m*3 19.36 C 0 km/h
948 26-05-2011 11:00:00 21.08 C 7.95 g/m*3 21.08 C 0 km/h
949 26-05-2011 12:00:00 24 C 5.7 g/m*3 24 C 0 km/h
950 26-05-2011 13:00:00 25.16 C 5.34 g/m*3 25.16 C 0 km/h
Sensor: Nr:Datum:Temp:Abs-Feuchte:Windchill:Wind:
Aussen-T/F 951 26-05-2011 14:00:00 26.52 C 5.36 g/m*3 26.52 C 0 km/h
952 26-05-2011 15:00:00 24.44 C 5.35 g/m*3 24.44 C 0 km/h
953 26-05-2011 16:00:00 24.84 C 4.56 g/m*3 24.84 C 0 km/h
954 26-05-2011 17:00:00 24.84 C 4.56 g/m*3 24.84 C 0 km/h
955 26-05-2011 18:00:00 22.24 C 4.21 g/m*3 22.24 C 0 km/h
956 26-05-2011 19:00:00 20.84 C 4.28 g/m*3 20.84 C 0 km/h
957 26-05-2011 20:00:00 19.22 C 4.46 g/m*3 19.22 C 0 km/h
958 26-05-2011 21:00:00 17.46 C 4.28 g/m*3 17.46 C 0 km/h
959 26-05-2011 22:00:00 16.08 C 4.3 g/m*3 16.08 C 0 km/h
960 26-05-2011 23:00:00 15.86 C 4.54 g/m*3 15.86 C 0 km/h
961 27-05-2011 00:00:00 15.66 C 4.62 g/m*3 15.66 C 0 km/h
962 27-05-2011 01:00:00 15.32 C 4.76 g/m*3 15.32 C 0 km/h
963 27-05-2011 02:00:00 13.66 C 5.1 g/m*3 13.66 C 0 km/h
964 27-05-2011 03:00:00 12.96 C 5.41 g/m*3 12.96 C 0 km/h
965 27-05-2011 04:00:00 12.34 C 5.55 g/m*3 12.34 C 0 km/h
966 27-05-2011 05:00:00 11.9 C 5.7 g/m*3 11.9 C 0 km/h
967 27-05-2011 06:00:00 12.76 C 5.83 g/m*3 12.76 C 0 km/h
968 27-05-2011 07:00:00 13.36 C 5.87 g/m*3 13.36 C 0 km/h
969 27-05-2011 08:00:00 14.44 C 5.95 g/m*3 14.44 C 0 km/h
970 27-05-2011 09:00:00 14.54 C 5.81 g/m*3 14.54 C 0 km/h
971 27-05-2011 10:00:00 13.82 C 5.61 g/m*3 13.82 C 0 km/h
972 27-05-2011 11:00:00 15 C 5.64 g/m*3 15 C 0 km/h
973 27-05-2011 12:00:00 15.32 C 5.73 g/m*3 15.32 C 0 km/h
974 27-05-2011 13:00:00 16.34 C 5.06 g/m*3 16.34 C 0 km/h
975 27-05-2011 14:00:00 18.5 C 4.78 g/m*3 18.5 C 0 km/h
Sensor: Nr:Datum:Temp:Abs-Feuchte:Windchill:Wind:
Aussen-T/F 976 27-05-2011 15:00:00 16.98 C 5.38 g/m*3 16.98 C 0 km/h
977 27-05-2011 16:00:00 16.16 C 5.28 g/m*3 16.16 C 0 km/h
978 27-05-2011 17:00:00 15.98 C 5.5 g/m*3 15.98 C 0 km/h
979 27-05-2011 18:00:00 16.96 C 5.49 g/m*3 16.96 C 0 km/h
980 27-05-2011 19:00:00 17.74 C 5.17 g/m*3 17.74 C 0 km/h
981 27-05-2011 20:00:00 14.7 C 5.72 g/m*3 14.7 C 0 km/h
982 27-05-2011 21:00:00 12.08 C 6.32 g/m*3 12.08 C 0 km/h
983 27-05-2011 22:00:00 12.42 C 6.19 g/m*3 12.42 C 0 km/h
984 27-05-2011 23:00:00 11.7 C 6.23 g/m*3 11.7 C 0 km/h
985 28-05-2011 00:00:00 9.24 C 6.2 g/m*3 9.24 C 0 km/h
986 28-05-2011 01:00:00 7.94 C 6.31 g/m*3 7.94 C 0 km/h
987 28-05-2011 02:00:00 6.9 C 6.33 g/m*3 6.9 C 0 km/h
988 28-05-2011 03:00:00 6.18 C 6.29 g/m*3 6.18 C 0 km/h
989 28-05-2011 04:00:00 7.72 C 6.79 g/m*3 7.72 C 0 km/h
990 28-05-2011 05:00:00 7.98 C 6.46 g/m*3 7.98 C 0 km/h
991 28-05-2011 06:00:00 8.52 C 6.57 g/m*3 8.52 C 0 km/h
992 28-05-2011 07:00:00 9.48 C 6.42 g/m*3 9.48 C 0 km/h
993 28-05-2011 08:00:00 9.94 C 6.93 g/m*3 9.94 C 0 km/h
994 28-05-2011 09:00:00 13.7 C 6.37 g/m*3 13.7 C 0 km/h
995 28-05-2011 10:00:00 15.7 C 5.41 g/m*3 15.7 C 0 km/h
996 28-05-2011 11:00:00 17.56 C 5.3 g/m*3 17.56 C 0 km/h
997 28-05-2011 12:00:00 19.08 C 5.21 g/m*3 19.08 C 0 km/h
998 28-05-2011 13:00:00 21.72 C 4.7 g/m*3 21.72 C 0 km/h
999 28-05-2011 14:00:00 24.42 C 4.5 g/m*3 24.42 C 0 km/h
1000 28-05-2011 15:00:00 23.18 C 4.19 g/m*3 23.18 C 0 km/h
Sensor: Nr:Datum:Temp:Abs-Feuchte:Windchill:Wind:
Aussen-T/F 1001 28-05-2011 16:00:00 24.72 C 4.53 g/m*3 24.72 C 0 km/h
1002 28-05-2011 17:00:00 24.48 C 4.47 g/m*3 24.48 C 0 km/h
1003 28-05-2011 18:00:00 22.7 C 4.24 g/m*3 22.7 C 0 km/h
1004 28-05-2011 19:00:00 21.04 C 4.48 g/m*3 21.04 C 0 km/h
1005 28-05-2011 20:00:00 18.78 C 4.73 g/m*3 18.78 C 0 km/h
1006 28-05-2011 21:00:00 17.06 C 5.05 g/m*3 17.06 C 0 km/h
1007 28-05-2011 22:00:00 14.72 C 5.7 g/m*3 14.72 C 0 km/h
1008 28-05-2011 23:00:00 14.14 C 5.89 g/m*3 14.14 C 0 km/h
1009 29-05-2011 00:00:00 13.16 C 6.09 g/m*3 13.16 C 0 km/h
1010 29-05-2011 01:00:00 12.88 C 6.21 g/m*3 12.88 C 0 km/h
1011 29-05-2011 02:00:00 13.16 C 6.3 g/m*3 13.16 C 0 km/h
1012 29-05-2011 03:00:00 12.92 C 6.25 g/m*3 12.92 C 0 km/h
1013 29-05-2011 04:00:00 13.24 C 6.03 g/m*3 13.24 C 0 km/h
1014 29-05-2011 05:00:00 12 C 6.33 g/m*3 12 C 0 km/h
1015 29-05-2011 06:00:00 12.08 C 6.62 g/m*3 12.08 C 0 km/h
1016 29-05-2011 07:00:00 12.8 C 7.01 g/m*3 12.8 C 0 km/h
1017 29-05-2011 08:00:00 14.78 C 6.25 g/m*3 14.78 C 0 km/h
1018 29-05-2011 09:00:00 16.02 C 6.27 g/m*3 16.02 C 0 km/h
1019 29-05-2011 10:00:00 17.44 C 6.33 g/m*3 17.44 C 0 km/h
1020 29-05-2011 11:00:00 20.06 C 6.35 g/m*3 20.06 C 0 km/h
1021 29-05-2011 12:00:00 20.96 C 6.21 g/m*3 20.96 C 0 km/h
1022 29-05-2011 13:00:00 25.16 C 5.34 g/m*3 25.16 C 0 km/h
1023 29-05-2011 14:00:00 28.24 C 5.51 g/m*3 28.24 C 0 km/h
1024 29-05-2011 15:00:00 28.98 C 5.74 g/m*3 28.98 C 0 km/h
1025 29-05-2011 16:00:00 29.66 C 5.95 g/m*3 29.66 C 0 km/h
Sensor: Nr:Datum:Temp:Abs-Feuchte:Windchill:Wind:
Aussen-T/F 1026 29-05-2011 17:00:00 29.6 C 5.94 g/m*3 29.6 C 0 km/h
1027 29-05-2011 18:00:00 29 C 5.74 g/m*3 29 C 0 km/h
1028 29-05-2011 19:00:00 26.6 C 5.54 g/m*3 26.6 C 0 km/h
1029 29-05-2011 20:00:00 22.12 C 6.96 g/m*3 22.12 C 0 km/h
1030 29-05-2011 21:00:00 18.42 C 7.21 g/m*3 18.42 C 0 km/h
1031 29-05-2011 22:00:00 16.425 C 7.13 g/m*3 16.43 C 0 km/h
1032 29-05-2011 23:00:00 14.98 C 7.07 g/m*3 14.98 C 0 km/h
1033 30-05-2011 00:00:00 13.9 C 7.14 g/m*3 13.9 C 0 km/h
1034 30-05-2011 01:00:00 13.2 C 7.37 g/m*3 13.2 C 0 km/h
1035 30-05-2011 02:00:00 11.98 C 7.32 g/m*3 11.98 C 0 km/h
1036 30-05-2011 03:00:00 10.94 C 7.48 g/m*3 10.94 C 0 km/h
1037 30-05-2011 04:00:00 10.32 C 7.46 g/m*3 10.32 C 0 km/h
1038 30-05-2011 05:00:00 9.56 C 7.35 g/m*3 9.56 C 0 km/h
1039 30-05-2011 06:00:00 9.6 C 7.64 g/m*3 9.6 C 0 km/h
1040 30-05-2011 07:00:00 10.34 C 7.97 g/m*3 10.34 C 0 km/h
1041 30-05-2011 08:00:00 12.18 C 8.69 g/m*3 12.18 C 0 km/h
1042 30-05-2011 09:00:00 15.3 C 9.04 g/m*3 15.3 C 0 km/h
1043 30-05-2011 10:00:00 19.42 C 9.15 g/m*3 19.42 C 0 km/h
1044 30-05-2011 11:00:00 23.78 C 7.18 g/m*3 23.78 C 0 km/h
1045 30-05-2011 12:00:00 26.06 C 5.81 g/m*3 26.06 C 0 km/h
1046 30-05-2011 13:00:00 29.98 C 6.06 g/m*3 29.98 C 0 km/h
1047 30-05-2011 14:00:00 32.34 C 6.87 g/m*3 32.34 C 0 km/h
1048 30-05-2011 15:00:00 33.3 C 7.23 g/m*3 33.3 C 0 km/h
1049 30-05-2011 16:00:00 33.28 C 7.23 g/m*3 33.28 C 0 km/h
1050 30-05-2011 17:00:00 31.82 C 6.69 g/m*3 31.82 C 0 km/h
Sensor: Nr:Datum:Temp:Abs-Feuchte:Windchill:Wind:
Aussen-T/F 1051 30-05-2011 18:00:00 32.74 C 7.02 g/m*3 32.74 C 0 km/h
1052 30-05-2011 19:00:00 31.42 C 6.55 g/m*3 31.42 C 0 km/h
1053 30-05-2011 20:00:00 26.92 C 6.92 g/m*3 26.92 C 0 km/h
1054 30-05-2011 21:00:00 22.58 C 7.1 g/m*3 22.58 C 0 km/h
1055 30-05-2011 22:00:00 20.92 C 7.18 g/m*3 20.92 C 0 km/h
1056 30-05-2011 23:00:00 20.04 C 7.14 g/m*3 20.04 C 0 km/h
1057 31-05-2011 00:00:00 18.56 C 7.34 g/m*3 18.56 C 0 km/h
1058 31-05-2011 01:00:00 16.6 C 7.57 g/m*3 16.6 C 0 km/h
1059 31-05-2011 02:00:00 17.04 C 7.83 g/m*3 17.04 C 0 km/h
1060 31-05-2011 03:00:00 17 C 7.96 g/m*3 17 C 0 km/h
1061 31-05-2011 04:00:00 15.54 C 8.11 g/m*3 15.54 C 0 km/h
1062 31-05-2011 05:00:00 15.5 C 8.27 g/m*3 15.5 C 0 km/h
1063 31-05-2011 06:00:00 15.72 C 8.49 g/m*3 15.72 C 0 km/h
1064 31-05-2011 07:00:00 17.62 C 8.59 g/m*3 17.62 C 0 km/h
1065 31-05-2011 08:00:00 18.76 C 8.55 g/m*3 18.76 C 0 km/h
1066 31-05-2011 09:00:00 17.12 C 9.27 g/m*3 17.12 C 0 km/h
1067 31-05-2011 10:00:00 17.18 C 10.24 g/m*3 17.18 C 0 km/h
1068 31-05-2011 11:00:00 15.2 C 10.18 g/m*3 15.2 C 0 km/h
1069 31-05-2011 12:00:00 14.36 C 10.33 g/m*3 14.36 C 0 km/h
1070 31-05-2011 13:00:00 14.78 C 10.6 g/m*3 14.78 C 0 km/h
1071 31-05-2011 14:00:00 14.98 C 10.48 g/m*3 14.98 C 0 km/h
1072 31-05-2011 15:00:00 14.84 C 10.18 g/m*3 14.84 C 0 km/h
1073 31-05-2011 16:00:00 13.98 C 9.54 g/m*3 13.98 C 0 km/h
1074 31-05-2011 17:00:00 13 C 9.12 g/m*3 13 C 0 km/h
1075 31-05-2011 18:00:00 12.4 C 8.7 g/m*3 12.4 C 0 km/h
Sensor: Nr:Datum:Temp:Abs-Feuchte:Windchill:Wind:
Aussen-T/F 1076 31-05-2011 19:00:00 12 C 8.5 g/m*3 12 C 0 km/h
1077 31-05-2011 20:00:00 11.68 C 8.88 g/m*3 11.68 C 0 km/h
1078 31-05-2011 21:00:00 11.04 C 8.43 g/m*3 11.04 C 0 km/h
1079 31-05-2011 22:00:00 10.74 C 8.59 g/m*3 10.74 C 0 km/h
1080 31-05-2011 23:00:00 10.66 C 8.62 g/m*3 10.66 C 0 km/h
1081 01-06-2011 00:00:00 10.64 C 8.55 g/m*3 10.64 C 0 km/h
1082 01-06-2011 01:00:00 10.44 C 8.5 g/m*3 10.44 C 0 km/h
1083 01-06-2011 02:00:00 10.28 C 8.42 g/m*3 10.28 C 0 km/h
1084 01-06-2011 03:00:00 10.22 C 8.12 g/m*3 10.22 C 0 km/h
1085 01-06-2011 04:00:00 9.94 C 7.62 g/m*3 9.94 C 0 km/h
1086 01-06-2011 05:00:00 9.52 C 7.64 g/m*3 9.52 C 0 km/h
1087 01-06-2011 06:00:00 9.86 C 7.67 g/m*3 9.86 C 0 km/h
1088 01-06-2011 07:00:00 10.44 C 7.21 g/m*3 10.44 C 0 km/h
1089 01-06-2011 08:00:00 10.92 C 7.01 g/m*3 10.92 C 0 km/h
1090 01-06-2011 09:00:00 12.02 C 6.77 g/m*3 12.02 C 0 km/h
1091 01-06-2011 10:00:00 12.8 C 6.32 g/m*3 12.8 C 0 km/h
1092 01-06-2011 11:00:00 13.76 C 6.18 g/m*3 13.76 C 0 km/h
1093 01-06-2011 12:00:00 16.94 C 5.54 g/m*3 16.94 C 0 km/h
1094 01-06-2011 13:00:00 18.22 C 5.48 g/m*3 18.22 C 0 km/h
1095 01-06-2011 14:00:00 19.68 C 5.19 g/m*3 19.68 C 0 km/h
1096 01-06-2011 15:00:00 21.16 C 4.92 g/m*3 21.16 C 0 km/h
1097 01-06-2011 16:00:00 21.5 C 4.37 g/m*3 21.5 C 0 km/h
1098 01-06-2011 17:00:00 20.4 C 4.88 g/m*3 20.4 C 0 km/h
1099 01-06-2011 18:00:00 19.9 C 5.22 g/m*3 19.9 C 0 km/h
1100 01-06-2011 19:00:00 20.62 C 5.16 g/m*3 20.62 C 0 km/h
Sensor: Nr:Datum:Temp:Abs-Feuchte:Windchill:Wind:
Aussen-T/F 1101 01-06-2011 20:00:00 18.2 C 5.66 g/m*3 18.2 C 0 km/h
1102 01-06-2011 21:00:00 17.12 C 5.86 g/m*3 17.12 C 0 km/h
1103 01-06-2011 22:00:00 16.28 C 6.43 g/m*3 16.28 C 0 km/h
1104 01-06-2011 23:00:00 15.8 C 6.08 g/m*3 15.8 C 0 km/h
1105 02-06-2011 00:00:00 15 C 6.67 g/m*3 15 C 0 km/h
1106 02-06-2011 01:00:00 13.86 C 7.34 g/m*3 13.86 C 0 km/h
1107 02-06-2011 02:00:00 13.46 C 7.23 g/m*3 13.46 C 0 km/h
1108 02-06-2011 03:00:00 12.02 C 6.59 g/m*3 12.02 C 0 km/h
1109 02-06-2011 04:00:00 10.44 C 6.3 g/m*3 10.44 C 0 km/h
1110 02-06-2011 05:00:00 9.1 C 6.21 g/m*3 9.1 C 0 km/h
1111 02-06-2011 06:00:00 8.82 C 6.36 g/m*3 8.82 C 0 km/h
1112 02-06-2011 07:00:00 9.58 C 6.57 g/m*3 9.58 C 0 km/h
1113 02-06-2011 08:00:00 10.86 C 6.83 g/m*3 10.86 C 0 km/h
1114 02-06-2011 09:00:00 13.16 C 6.53 g/m*3 13.16 C 0 km/h
1115 02-06-2011 10:00:00 13.5 C 6.32 g/m*3 13.5 C 0 km/h
1116 02-06-2011 11:00:00 18.08 C 4.78 g/m*3 18.08 C 0 km/h
1117 02-06-2011 12:00:00 19.86 C 3.98 g/m*3 19.86 C 0 km/h
1118 02-06-2011 13:00:00 25.14 C 4.69 g/m*3 25.14 C 0 km/h
1119 02-06-2011 14:00:00 30.22 C 6.14 g/m*3 30.22 C 0 km/h
1120 02-06-2011 15:00:00 30.36 C 6.18 g/m*3 30.36 C 0 km/h
1121 02-06-2011 16:00:00 30.62 C 6.27 g/m*3 30.62 C 0 km/h
1122 02-06-2011 17:00:00 30.68 C 6.29 g/m*3 30.68 C 0 km/h
1123 02-06-2011 18:00:00 30.6 C 6.26 g/m*3 30.6 C 0 km/h
1124 02-06-2011 19:00:00 30.6 C 6.26 g/m*3 30.6 C 0 km/h
1125 02-06-2011 20:00:00 30.6 C 6.26 g/m*3 30.6 C 0 km/h
Sensor: Nr:Datum:Temp:Abs-Feuchte:Windchill:Wind:
Aussen-T/F 1126 02-06-2011 21:00:00 30.6 C 6.26 g/m*3 30.6 C 0 km/h
1127 02-06-2011 22:00:00 21.84 C 6.27 g/m*3 21.84 C 0 km/h
1128 02-06-2011 23:00:00 16 C 5.59 g/m*3 16 C 0 km/h
1129 03-06-2011 00:00:00 16 C 5.59 g/m*3 16 C 0 km/h
1130 03-06-2011 01:00:00 13.06 C 5.81 g/m*3 13.06 C 0 km/h
1131 03-06-2011 02:00:00 12.38 C 5.72 g/m*3 12.38 C 0 km/h
1132 03-06-2011 03:00:00 11.68 C 5.83 g/m*3 11.68 C 0 km/h
1133 03-06-2011 04:00:00 11.34 C 5.64 g/m*3 11.34 C 0 km/h
1134 03-06-2011 05:00:00 11.28 C 5.68 g/m*3 11.28 C 0 km/h
1135 03-06-2011 06:00:00 12.4 C 6.25 g/m*3 12.4 C 0 km/h
1136 03-06-2011 07:00:00 14.22 C 6.31 g/m*3 14.22 C 0 km/h
1137 03-06-2011 08:00:00 16.32 C 6.25 g/m*3 16.32 C 0 km/h
1138 03-06-2011 09:00:00 19.08 C 5.93 g/m*3 19.08 C 0 km/h
1139 03-06-2011 10:00:00 21.08 C 5.82 g/m*3 21.08 C 0 km/h
1140 03-06-2011 11:00:00 22.4 C 5.72 g/m*3 22.4 C 0 km/h
1141 03-06-2011 12:00:00 23.96 C 5.56 g/m*3 23.96 C 0 km/h
1142 03-06-2011 13:00:00 26.44 C 5.54 g/m*3 26.44 C 0 km/h
1143 03-06-2011 14:00:00 27.48 C 5.92 g/m*3 27.48 C 0 km/h
1144 03-06-2011 15:00:00 30.52 C 6.36 g/m*3 30.52 C 0 km/h
1145 03-06-2011 16:00:00 31.06 C 6.42 g/m*3 31.06 C 0 km/h
1146 03-06-2011 17:00:00 31.46 C 6.56 g/m*3 31.46 C 0 km/h
1147 03-06-2011 18:00:00 30.26 C 6.15 g/m*3 30.26 C 0 km/h
1148 03-06-2011 19:00:00 28.66 C 6.26 g/m*3 28.66 C 0 km/h
1149 03-06-2011 20:00:00 24.56 C 7.28 g/m*3 24.56 C 0 km/h
1150 03-06-2011 21:00:00 21.54 C 7.79 g/m*3 21.54 C 0 km/h
Sensor: Nr:Datum:Temp:Abs-Feuchte:Windchill:Wind:
Aussen-T/F 1151 03-06-2011 22:00:00 20 C 7.98 g/m*3 20 C 0 km/h
1152 03-06-2011 23:00:00 18.56 C 8.38 g/m*3 18.56 C 0 km/h
1153 04-06-2011 00:00:00 17.44 C 8.53 g/m*3 17.44 C 0 km/h
1154 04-06-2011 01:00:00 16.96 C 8.57 g/m*3 16.96 C 0 km/h
1155 04-06-2011 02:00:00 16.12 C 8.48 g/m*3 16.12 C 0 km/h
1156 04-06-2011 03:00:00 15.64 C 8.51 g/m*3 15.64 C 0 km/h
1157 04-06-2011 04:00:00 15.08 C 8.38 g/m*3 15.08 C 0 km/h
1158 04-06-2011 05:00:00 14.84 C 8.38 g/m*3 14.84 C 0 km/h
1159 04-06-2011 06:00:00 15.38 C 8.69 g/m*3 15.38 C 0 km/h
1160 04-06-2011 07:00:00 17.88 C 9.21 g/m*3 17.88 C 0 km/h
1161 04-06-2011 08:00:00 18.84 C 9.4 g/m*3 18.84 C 0 km/h
1162 04-06-2011 09:00:00 21.64 C 9.43 g/m*3 21.64 C 0 km/h
1163 04-06-2011 10:00:00 23.76 C 8.84 g/m*3 23.76 C 0 km/h
1164 04-06-2011 11:00:00 25.86 C 8.45 g/m*3 25.86 C 0 km/h
1165 04-06-2011 12:00:00 27.44 C 7.96 g/m*3 27.44 C 0 km/h
1166 04-06-2011 13:00:00 30.6 C 7.39 g/m*3 30.6 C 0 km/h
1167 04-06-2011 14:00:00 32.7 C 7.01 g/m*3 32.7 C 0 km/h
1168 04-06-2011 15:00:00 30.98 C 7.48 g/m*3 30.98 C 0 km/h
1169 04-06-2011 16:00:00 25.88 C 10.45 g/m*3 25.88 C 0 km/h
1170 04-06-2011 17:00:00 23.38 C 13.74 g/m*3 23.38 C 0 km/h
1171 04-06-2011 18:00:00 21.32 C 13.44 g/m*3 21.32 C 0 km/h
1172 04-06-2011 19:00:00 20.62 C 13.08 g/m*3 20.62 C 0 km/h
1173 04-06-2011 20:00:00 20.42 C 12.4 g/m*3 20.42 C 0 km/h
1174 04-06-2011 21:00:00 19.58 C 12.48 g/m*3 19.58 C 0 km/h
1175 04-06-2011 22:00:00 18.56 C 12.73 g/m*3 18.56 C 0 km/h
Sensor: Nr:Datum:Temp:Abs-Feuchte:Windchill:Wind:
Aussen-T/F 1176 04-06-2011 23:00:00 17.98 C 13.22 g/m*3 17.98 C 0 km/h
1177 05-06-2011 00:00:00 17.8 C 13.36 g/m*3 17.8 C 0 km/h
1178 05-06-2011 01:00:00 17.34 C 12.99 g/m*3 17.34 C 0 km/h
1179 05-06-2011 02:00:00 16.56 C 12.54 g/m*3 16.56 C 0 km/h
1180 05-06-2011 03:00:00 15.78 C 11.97 g/m*3 15.78 C 0 km/h
1181 05-06-2011 04:00:00 15.38 C 11.68 g/m*3 15.38 C 0 km/h
1182 05-06-2011 05:00:00 15.26 C 11.7 g/m*3 15.26 C 0 km/h
1183 05-06-2011 06:00:00 16.16 C 12.35 g/m*3 16.16 C 0 km/h
1184 05-06-2011 07:00:00 16.66 C 12.7 g/m*3 16.66 C 0 km/h
1185 05-06-2011 08:00:00 18.3 C 13.57 g/m*3 18.3 C 0 km/h
1186 05-06-2011 09:00:00 19.4 C 12.51 g/m*3 19.4 C 0 km/h
1187 05-06-2011 10:00:00 20.84 C 13.47 g/m*3 20.84 C 0 km/h
1188 05-06-2011 11:00:00 22.24 C 12.99 g/m*3 22.24 C 0 km/h
1189 05-06-2011 12:00:00 24.14 C 13.2 g/m*3 24.14 C 0 km/h
1190 05-06-2011 13:00:00 25.12 C 14.09 g/m*3 25.12 C 0 km/h
1191 05-06-2011 14:00:00 26 C 14.36 g/m*3 26 C 0 km/h
1192 05-06-2011 15:00:00 23.94 C 14.27 g/m*3 23.94 C 0 km/h
1193 05-06-2011 16:00:00 17.82 C 12.52 g/m*3 17.82 C 0 km/h
1194 05-06-2011 17:00:00 17.4 C 12.72 g/m*3 17.4 C 0 km/h
1195 05-06-2011 18:00:00 16.92 C 12.53 g/m*3 16.92 C 0 km/h
1196 05-06-2011 19:00:00 17.42 C 13 g/m*3 17.42 C 0 km/h
1197 05-06-2011 20:00:00 17.56 C 13.02 g/m*3 17.56 C 0 km/h
1198 05-06-2011 21:00:00 16.88 C 12.61 g/m*3 16.88 C 0 km/h
1199 05-06-2011 22:00:00 16.58 C 12.56 g/m*3 16.58 C 0 km/h
1200 05-06-2011 23:00:00 15.7 C 11.91 g/m*3 15.7 C 0 km/h
Sensor: Nr:Datum:Temp:Abs-Feuchte:Windchill:Wind:
Aussen-T/F 1201 06-06-2011 00:00:00 15.1 C 11.56 g/m*3 15.1 C 0 km/h
1202 06-06-2011 01:00:00 15.02 C 11.58 g/m*3 15.02 C 0 km/h
1203 06-06-2011 02:00:00 15.06 C 11.58 g/m*3 15.06 C 0 km/h
1204 06-06-2011 03:00:00 14.78 C 11.46 g/m*3 14.78 C 0 km/h
1205 06-06-2011 04:00:00 13.98 C 10.96 g/m*3 13.98 C 0 km/h
1206 06-06-2011 05:00:00 13.68 C 10.76 g/m*3 13.68 C 0 km/h
1207 06-06-2011 06:00:00 14.22 C 11.13 g/m*3 14.22 C 0 km/h
1208 06-06-2011 07:00:00 15.34 C 11.81 g/m*3 15.34 C 0 km/h
1209 06-06-2011 08:00:00 17.26 C 13.05 g/m*3 17.26 C 0 km/h
1210 06-06-2011 09:00:00 18.32 C 13.09 g/m*3 18.32 C 0 km/h
1211 06-06-2011 10:00:00 20.4 C 12.84 g/m*3 20.4 C 0 km/h
1212 06-06-2011 11:00:00 22.3 C 11.1 g/m*3 22.3 C 0 km/h
1213 06-06-2011 12:00:00 23.5 C 10.91 g/m*3 23.5 C 0 km/h
1214 06-06-2011 13:00:00 26.62 C 10.23 g/m*3 26.62 C 0 km/h
1215 06-06-2011 14:00:00 27.04 C 9.49 g/m*3 27.04 C 0 km/h
1216 06-06-2011 15:00:00 25.96 C 9.96 g/m*3 25.96 C 0 km/h
1217 06-06-2011 16:00:00 24.96 C 9.88 g/m*3 24.96 C 0 km/h
1218 06-06-2011 17:00:00 17.74 C 10.5 g/m*3 17.74 C 0 km/h
1219 06-06-2011 18:00:00 16.92 C 12.07 g/m*3 16.92 C 0 km/h
1220 06-06-2011 19:00:00 17.74 C 12.7 g/m*3 17.74 C 0 km/h
1221 06-06-2011 20:00:00 17.8 C 12.6 g/m*3 17.8 C 0 km/h
1222 06-06-2011 21:00:00 16.34 C 11.99 g/m*3 16.34 C 0 km/h
1223 06-06-2011 22:00:00 15.64 C 11.78 g/m*3 15.64 C 0 km/h
1224 06-06-2011 23:00:00 15.56 C 11.81 g/m*3 15.56 C 0 km/h
1225 07-06-2011 00:00:00 15.14 C 11.51 g/m*3 15.14 C 0 km/h
Sensor: Nr:Datum:Temp:Abs-Feuchte:Windchill:Wind:
Aussen-T/F 1226 07-06-2011 01:00:00 15.38 C 11.81 g/m*3 15.38 C 0 km/h
1227 07-06-2011 02:00:00 15.64 C 12 g/m*3 15.64 C 0 km/h
1228 07-06-2011 03:00:00 15.12 C 11.68 g/m*3 15.12 C 0 km/h
1229 07-06-2011 04:00:00 15.12 C 11.63 g/m*3 15.12 C 0 km/h
1230 07-06-2011 05:00:00 15 C 11.54 g/m*3 15 C 0 km/h
1231 07-06-2011 06:00:00 14.88 C 11.41 g/m*3 14.88 C 0 km/h
1232 07-06-2011 07:00:00 15.98 C 10.72 g/m*3 15.98 C 0 km/h
1233 07-06-2011 08:00:00 17.6 C 9.57 g/m*3 17.6 C 0 km/h
1234 07-06-2011 09:00:00 18.46 C 8.65 g/m*3 18.46 C 0 km/h
1235 07-06-2011 10:00:00 19.14 C 8.48 g/m*3 19.14 C 0 km/h
1236 07-06-2011 11:00:00 19.36 C 8.42 g/m*3 19.36 C 0 km/h
1237 07-06-2011 12:00:00 21.02 C 8.62 g/m*3 21.02 C 0 km/h
1238 07-06-2011 13:00:00 25.9 C 8.76 g/m*3 25.9 C 0 km/h
1239 07-06-2011 14:00:00 29.12 C 8.04 g/m*3 29.12 C 0 km/h
1240 07-06-2011 15:00:00 29.78 C 8.15 g/m*3 29.78 C 0 km/h
1241 07-06-2011 16:00:00 31.14 C 7.29 g/m*3 31.14 C 0 km/h
1242 07-06-2011 17:00:00 29.68 C 8.64 g/m*3 29.68 C 0 km/h
1243 07-06-2011 18:00:00 27.4 C 10.26 g/m*3 27.4 C 0 km/h
1244 07-06-2011 19:00:00 25.82 C 11.62 g/m*3 25.82 C 0 km/h
1245 07-06-2011 20:00:00 21.14 C 11.52 g/m*3 21.14 C 0 km/h
1246 07-06-2011 21:00:00 19.36 C 11.22 g/m*3 19.36 C 0 km/h
1247 07-06-2011 22:00:00 19.12 C 11.29 g/m*3 19.12 C 0 km/h
1248 07-06-2011 23:00:00 18.68 C 10.68 g/m*3 18.68 C 0 km/h
1249 08-06-2011 00:00:00 16.42 C 11.43 g/m*3 16.42 C 0 km/h
1250 08-06-2011 01:00:00 16 C 11.77 g/m*3 16 C 0 km/h
Sensor: Nr:Datum:Temp:Abs-Feuchte:Windchill:Wind:
Aussen-T/F 1251 08-06-2011 02:00:00 15.52 C 11.65 g/m*3 15.52 C 0 km/h
1252 08-06-2011 03:00:00 15.2 C 11.53 g/m*3 15.2 C 0 km/h
1253 08-06-2011 04:00:00 15.12 C 11.5 g/m*3 15.12 C 0 km/h
1254 08-06-2011 05:00:00 15 C 11.44 g/m*3 15 C 0 km/h
1255 08-06-2011 06:00:00 13.18 C 10.21 g/m*3 13.18 C 0 km/h
1256 08-06-2011 07:00:00 11.86 C 9.02 g/m*3 11.86 C 0 km/h
1257 08-06-2011 08:00:00 11.36 C 8.7 g/m*3 11.36 C 0 km/h
1258 08-06-2011 09:00:00 11.8 C 8.88 g/m*3 11.8 C 0 km/h
1259 08-06-2011 10:00:00 12.16 C 8.65 g/m*3 12.16 C 0 km/h
1260 08-06-2011 11:00:00 13.32 C 8.19 g/m*3 13.32 C 0 km/h
1261 08-06-2011 12:00:00 16.12 C 6.81 g/m*3 16.12 C 0 km/h
1262 08-06-2011 13:00:00 20.54 C 6.88 g/m*3 20.54 C 0 km/h
1263 08-06-2011 14:00:00 20.1 C 6.99 g/m*3 20.1 C 0 km/h
1264 08-06-2011 15:00:00 20.9 C 7.03 g/m*3 20.9 C 0 km/h
1265 08-06-2011 16:00:00 20.04 C 5.54 g/m*3 20.04 C 0 km/h
1266 08-06-2011 17:00:00 19.72 C 5.51 g/m*3 19.72 C 0 km/h
1267 08-06-2011 18:00:00 18.34 C 5.99 g/m*3 18.34 C 0 km/h
1268 08-06-2011 19:00:00 17.32 C 6.93 g/m*3 17.32 C 0 km/h
1269 08-06-2011 20:00:00 15.76 C 7.55 g/m*3 15.76 C 0 km/h
1270 08-06-2011 21:00:00 14.2 C 8.25 g/m*3 14.2 C 0 km/h
1271 08-06-2011 22:00:00 13.32 C 8.28 g/m*3 13.32 C 0 km/h
1272 08-06-2011 23:00:00 13.38 C 7.8 g/m*3 13.38 C 0 km/h
1273 09-06-2011 00:00:00 13.4 C 7.79 g/m*3 13.4 C 0 km/h
1274 09-06-2011 01:00:00 11.92 C 7.66 g/m*3 11.92 C 0 km/h
1275 09-06-2011 02:00:00 11.1 C 7.55 g/m*3 11.1 C 0 km/h
Sensor: Nr:Datum:Temp:Abs-Feuchte:Windchill:Wind:
Aussen-T/F 1276 09-06-2011 03:00:00 11.1 C 7.55 g/m*3 11.1 C 0 km/h
1277 09-06-2011 04:00:00 11.1 C 7.55 g/m*3 11.1 C 0 km/h
1278 09-06-2011 05:00:00 11.1 C 7.55 g/m*3 11.1 C 0 km/h
1279 09-06-2011 06:00:00 9.2 C 7.63 g/m*3 9.2 C 0 km/h
1280 09-06-2011 07:00:00 9.58 C 8.05 g/m*3 9.58 C 0 km/h
1281 09-06-2011 08:00:00 9.7 C 8.11 g/m*3 9.7 C 0 km/h
1282 09-06-2011 09:00:00 9.7 C 8.11 g/m*3 9.7 C 0 km/h
1283 09-06-2011 10:00:00 9.7 C 8.11 g/m*3 9.7 C 0 km/h
1284 09-06-2011 11:00:00 11.48 C 8.09 g/m*3 11.48 C 0 km/h
1285 09-06-2011 12:00:00 19.22 C 6.9 g/m*3 19.22 C 0 km/h
1286 09-06-2011 13:00:00 19.4 C 6.84 g/m*3 19.4 C 0 km/h
1287 09-06-2011 14:00:00 15.94 C 7.68 g/m*3 15.94 C 0 km/h
1288 09-06-2011 15:00:00 17.32 C 8.35 g/m*3 17.32 C 0 km/h
1289 09-06-2011 16:00:00 17.06 C 8.74 g/m*3 17.06 C 0 km/h
1290 09-06-2011 17:00:00 17.02 C 8.95 g/m*3 17.02 C 0 km/h
1291 09-06-2011 18:00:00 21.94 C 6.65 g/m*3 21.94 C 0 km/h
1292 09-06-2011 19:00:00 22.3 C 7.5 g/m*3 22.3 C 0 km/h
1293 09-06-2011 20:00:00 22.3 C 7.5 g/m*3 22.3 C 0 km/h
1294 09-06-2011 21:00:00 12.74 C 9.44 g/m*3 12.74 C 0 km/h
1295 09-06-2011 22:00:00 11.64 C 9.04 g/m*3 11.64 C 0 km/h
1296 09-06-2011 23:00:00 11.4 C 8.93 g/m*3 11.4 C 0 km/h
1297 10-06-2011 00:00:00 11.4 C 8.93 g/m*3 11.4 C 0 km/h
1298 10-06-2011 01:00:00 11.4 C 8.93 g/m*3 11.4 C 0 km/h
1299 10-06-2011 02:00:00 11.4 C 8.93 g/m*3 11.4 C 0 km/h
1300 10-06-2011 03:00:00 11.4 C 8.93 g/m*3 11.4 C 0 km/h
Sensor: Nr:Datum:Temp:Abs-Feuchte:Windchill:Wind:
Aussen-T/F 1301 10-06-2011 04:00:00 11.4 C 8.93 g/m*3 11.4 C 0 km/h
1302 10-06-2011 05:00:00 11.4 C 8.93 g/m*3 11.4 C 0 km/h
1303 10-06-2011 06:00:00 11.62 C 9.1 g/m*3 11.62 C 0 km/h
1304 10-06-2011 07:00:00 12.62 C 9.28 g/m*3 12.62 C 0 km/h
1305 10-06-2011 08:00:00 13 C 9.07 g/m*3 13 C 0 km/h
1306 10-06-2011 09:00:00 13 C 9.07 g/m*3 13 C 0 km/h
1307 10-06-2011 10:00:00 13 C 9.07 g/m*3 13 C 0 km/h
1308 10-06-2011 11:00:00 13 C 9.07 g/m*3 13 C 0 km/h
1309 10-06-2011 12:00:00 13 C 9.07 g/m*3 13 C 0 km/h
1310 10-06-2011 13:00:00 13 C 9.07 g/m*3 13 C 0 km/h
1311 10-06-2011 14:00:00 13 C 9.07 g/m*3 13 C 0 km/h
1312 10-06-2011 15:00:00 20.46 C 6.99 g/m*3 20.46 C 0 km/h
1313 10-06-2011 16:00:00 26.32 C 4.96 g/m*3 26.32 C 0 km/h
1314 10-06-2011 17:00:00 21.64 C 5.78 g/m*3 21.64 C 0 km/h
1315 10-06-2011 18:00:00 18.3 C 6.66 g/m*3 18.3 C 0 km/h
1316 10-06-2011 19:00:00 18.2 C 7.52 g/m*3 18.2 C 0 km/h
1317 10-06-2011 20:00:00 18.2 C 7.77 g/m*3 18.2 C 0 km/h
1318 10-06-2011 21:00:00 15.86 C 8.46 g/m*3 15.86 C 0 km/h
1319 10-06-2011 22:00:00 14.4 C 8.9 g/m*3 14.4 C 0 km/h
1320 10-06-2011 23:00:00 14.68 C 8.5 g/m*3 14.68 C 0 km/h
1321 11-06-2011 00:00:00 13.1 C 8.88 g/m*3 13.1 C 0 km/h
1322 11-06-2011 01:00:00 12.6 C 9.07 g/m*3 12.6 C 0 km/h
1323 11-06-2011 02:00:00 12.6 C 9.07 g/m*3 12.6 C 0 km/h
1324 11-06-2011 03:00:00 12.6 C 9.07 g/m*3 12.6 C 0 km/h
1325 11-06-2011 04:00:00 12.6 C 9.07 g/m*3 12.6 C 0 km/h
Sensor: Nr:Datum:Temp:Abs-Feuchte:Windchill:Wind:
Aussen-T/F 1326 11-06-2011 05:00:00 12.6 C 9.07 g/m*3 12.6 C 0 km/h
1327 11-06-2011 06:00:00 12.6 C 9.07 g/m*3 12.6 C 0 km/h
1328 11-06-2011 07:00:00 11.38 C 8.86 g/m*3 11.38 C 0 km/h
1329 11-06-2011 08:00:00 11.52 C 8.96 g/m*3 11.52 C 0 km/h
1330 11-06-2011 09:00:00 12.76 C 7.96 g/m*3 12.76 C 0 km/h
1331 11-06-2011 10:00:00 13.6 C 7.3 g/m*3 13.6 C 0 km/h
1332 11-06-2011 11:00:00 13.6 C 7.3 g/m*3 13.6 C 0 km/h
1333 11-06-2011 12:00:00 13.6 C 7.3 g/m*3 13.6 C 0 km/h
1334 11-06-2011 13:00:00 19.98 C 4.9 g/m*3 19.98 C 0 km/h
1335 11-06-2011 14:00:00 21.26 C 5.02 g/m*3 21.26 C 0 km/h
1336 11-06-2011 15:00:00 26.18 C 4.92 g/m*3 26.18 C 0 km/h
1337 11-06-2011 16:00:00 25.1 C 4.63 g/m*3 25.1 C 0 km/h
1338 11-06-2011 17:00:00 25.5 C 4.73 g/m*3 25.5 C 0 km/h
1339 11-06-2011 18:00:00 24.74 C 4.81 g/m*3 24.74 C 0 km/h
1340 11-06-2011 19:00:00 19.1 C 6.36 g/m*3 19.1 C 0 km/h
1341 11-06-2011 20:00:00 16.14 C 7.86 g/m*3 16.14 C 0 km/h
1342 11-06-2011 21:00:00 15.32 C 6.98 g/m*3 15.32 C 0 km/h
1343 11-06-2011 22:00:00 13.48 C 7.31 g/m*3 13.48 C 0 km/h
1344 11-06-2011 23:00:00 11.9 C 7.46 g/m*3 11.9 C 0 km/h
1345 12-06-2011 00:00:00 10.26 C 7.51 g/m*3 10.26 C 0 km/h
1346 12-06-2011 01:00:00 9.36 C 7.56 g/m*3 9.36 C 0 km/h
1347 12-06-2011 02:00:00 8.58 C 7.43 g/m*3 8.58 C 0 km/h
1348 12-06-2011 03:00:00 8.02 C 7.28 g/m*3 8.02 C 0 km/h
1349 12-06-2011 04:00:00 7.52 C 7.21 g/m*3 7.52 C 0 km/h
1350 12-06-2011 05:00:00 6.9 C 6.97 g/m*3 6.9 C 0 km/h
Sensor: Nr:Datum:Temp:Abs-Feuchte:Windchill:Wind:
Aussen-T/F 1351 12-06-2011 06:00:00 7.2 C 7.1 g/m*3 7.2 C 0 km/h
1352 12-06-2011 07:00:00 8.9 C 7.8 g/m*3 8.9 C 0 km/h
1353 12-06-2011 08:00:00 11.88 C 8.12 g/m*3 11.88 C 0 km/h
1354 12-06-2011 09:00:00 13.68 C 7.38 g/m*3 13.68 C 0 km/h
1355 12-06-2011 10:00:00 16.14 C 7.14 g/m*3 16.14 C 0 km/h
1356 12-06-2011 11:00:00 17.5 C 6.47 g/m*3 17.5 C 0 km/h
1357 12-06-2011 12:00:00 18.14 C 6.01 g/m*3 18.14 C 0 km/h
1358 12-06-2011 13:00:00 22 C 5.47 g/m*3 22 C 0 km/h
1359 12-06-2011 14:00:00 25.62 C 4.86 g/m*3 25.62 C 0 km/h
1360 12-06-2011 15:00:00 23.12 C 4.14 g/m*3 23.12 C 0 km/h
1361 12-06-2011 16:00:00 23.9 C 4.37 g/m*3 23.9 C 0 km/h
1362 12-06-2011 17:00:00 22.76 C 4.62 g/m*3 22.76 C 0 km/h
1363 12-06-2011 18:00:00 23.08 C 4.83 g/m*3 23.08 C 0 km/h
1364 12-06-2011 19:00:00 21.1 C 6.34 g/m*3 21.1 C 0 km/h
1365 12-06-2011 20:00:00 17.32 C 7.43 g/m*3 17.32 C 0 km/h
1366 12-06-2011 21:00:00 15.24 C 6.32 g/m*3 15.24 C 0 km/h
1367 12-06-2011 22:00:00 13.92 C 7.27 g/m*3 13.92 C 0 km/h
1368 12-06-2011 23:00:00 12.94 C 7.14 g/m*3 12.94 C 0 km/h
1369 13-06-2011 00:00:00 12.38 C 7.09 g/m*3 12.38 C 0 km/h
1370 13-06-2011 01:00:00 11.8 C 7.11 g/m*3 11.8 C 0 km/h
1371 13-06-2011 02:00:00 11.92 C 7.32 g/m*3 11.92 C 0 km/h
1372 13-06-2011 03:00:00 12.28 C 7.66 g/m*3 12.28 C 0 km/h
1373 13-06-2011 04:00:00 12.72 C 7.74 g/m*3 12.72 C 0 km/h
1374 13-06-2011 05:00:00 12.7 C 8.08 g/m*3 12.7 C 0 km/h
1375 13-06-2011 06:00:00 12.96 C 8.21 g/m*3 12.96 C 0 km/h
Sensor: Nr:Datum:Temp:Abs-Feuchte:Windchill:Wind:
Aussen-T/F 1376 13-06-2011 07:00:00 13.86 C 8.32 g/m*3 13.86 C 0 km/h
1377 13-06-2011 08:00:00 14.62 C 8.17 g/m*3 14.62 C 0 km/h
1378 13-06-2011 09:00:00 15.6 C 8.43 g/m*3 15.6 C 0 km/h
1379 13-06-2011 10:00:00 16.4 C 8.23 g/m*3 16.4 C 0 km/h
1380 13-06-2011 11:00:00 17.06 C 8.05 g/m*3 17.06 C 0 km/h
1381 13-06-2011 12:00:00 18.72 C 8.08 g/m*3 18.72 C 0 km/h
1382 13-06-2011 13:00:00 19.56 C 7.92 g/m*3 19.56 C 0 km/h
1383 13-06-2011 14:00:00 21.22 C 7.98 g/m*3 21.22 C 0 km/h
1384 13-06-2011 15:00:00 22.28 C 7.73 g/m*3 22.28 C 0 km/h
1385 13-06-2011 16:00:00 23.76 C 7.9 g/m*3 23.76 C 0 km/h
1386 13-06-2011 17:00:00 22.04 C 8.21 g/m*3 22.04 C 0 km/h
1387 13-06-2011 18:00:00 21.14 C 8.68 g/m*3 21.14 C 0 km/h
1388 13-06-2011 19:00:00 20.9 C 8.74 g/m*3 20.9 C 0 km/h
1389 13-06-2011 20:00:00 19.72 C 9.21 g/m*3 19.72 C 0 km/h
1390 13-06-2011 21:00:00 17.94 C 9.92 g/m*3 17.94 C 0 km/h
1391 13-06-2011 22:00:00 17.5 C 10.05 g/m*3 17.5 C 0 km/h
1392 13-06-2011 23:00:00 17.04 C 10.21 g/m*3 17.04 C 0 km/h
1393 14-06-2011 00:00:00 16.62 C 10.41 g/m*3 16.62 C 0 km/h
1394 14-06-2011 01:00:00 16.34 C 10.37 g/m*3 16.34 C 0 km/h
1395 14-06-2011 02:00:00 15.04 C 10.08 g/m*3 15.04 C 0 km/h
1396 14-06-2011 03:00:00 13.74 C 10.02 g/m*3 13.74 C 0 km/h
1397 14-06-2011 04:00:00 14.44 C 10.76 g/m*3 14.44 C 0 km/h
1398 14-06-2011 05:00:00 14.74 C 10.98 g/m*3 14.74 C 0 km/h
1399 14-06-2011 06:00:00 15.22 C 11.31 g/m*3 15.22 C 0 km/h
1400 14-06-2011 07:00:00 16.34 C 11.79 g/m*3 16.34 C 0 km/h
Sensor: Nr:Datum:Temp:Abs-Feuchte:Windchill:Wind:
Aussen-T/F 1401 14-06-2011 08:00:00 17.9 C 11.57 g/m*3 17.9 C 0 km/h
1402 14-06-2011 09:00:00 19.14 C 11.6 g/m*3 19.14 C 0 km/h
1403 14-06-2011 10:00:00 20.76 C 10.73 g/m*3 20.76 C 0 km/h
1404 14-06-2011 11:00:00 21.84 C 10.31 g/m*3 21.84 C 0 km/h
1405 14-06-2011 12:00:00 22.7 C 10.3 g/m*3 22.7 C 0 km/h
1406 14-06-2011 13:00:00 22.74 C 10.04 g/m*3 22.74 C 0 km/h
1407 14-06-2011 14:00:00 27.74 C 8.58 g/m*3 27.74 C 0 km/h
1408 14-06-2011 15:00:00 28.78 C 7.66 g/m*3 28.78 C 0 km/h
1409 14-06-2011 16:00:00 31.16 C 6.58 g/m*3 31.16 C 0 km/h
1410 14-06-2011 17:00:00 30.2 C 7.05 g/m*3 30.2 C 0 km/h
1411 14-06-2011 18:00:00 29.28 C 7.23 g/m*3 29.28 C 0 km/h
1412 14-06-2011 19:00:00 26.2 C 8.32 g/m*3 26.2 C 0 km/h
1413 14-06-2011 20:00:00 22.54 C 9.17 g/m*3 22.54 C 0 km/h
1414 14-06-2011 21:00:00 19.64 C 9.92 g/m*3 19.64 C 0 km/h
1415 14-06-2011 22:00:00 16.8 C 9.84 g/m*3 16.8 C 0 km/h
1416 14-06-2011 23:00:00 15.3 C 9.77 g/m*3 15.3 C 0 km/h
1417 15-06-2011 00:00:00 14.1 C 9.73 g/m*3 14.1 C 0 km/h
1418 15-06-2011 01:00:00 13.3 C 9.61 g/m*3 13.3 C 0 km/h
1419 15-06-2011 02:00:00 12.8 C 9.57 g/m*3 12.8 C 0 km/h
1420 15-06-2011 03:00:00 12.54 C 9.57 g/m*3 12.54 C 0 km/h
1421 15-06-2011 04:00:00 12.04 C 9.4 g/m*3 12.04 C 0 km/h
1422 15-06-2011 05:00:00 12.5 C 9.78 g/m*3 12.5 C 0 km/h
1423 15-06-2011 06:00:00 13.66 C 10.37 g/m*3 13.66 C 0 km/h
1424 15-06-2011 07:00:00 15.08 C 10.21 g/m*3 15.08 C 0 km/h
1425 15-06-2011 08:00:00 16.94 C 9.78 g/m*3 16.94 C 0 km/h
Sensor: Nr:Datum:Temp:Abs-Feuchte:Windchill:Wind:
Aussen-T/F 1426 15-06-2011 09:00:00 18.54 C 9.71 g/m*3 18.54 C 0 km/h
1427 15-06-2011 10:00:00 20.46 C 9.62 g/m*3 20.46 C 0 km/h
1428 15-06-2011 11:00:00 24.04 C 9.77 g/m*3 24.04 C 0 km/h
1429 15-06-2011 12:00:00 24.64 C 9.61 g/m*3 24.64 C 0 km/h
1430 15-06-2011 13:00:00 28.08 C 8.41 g/m*3 28.08 C 0 km/h
1431 15-06-2011 14:00:00 24.86 C 8.72 g/m*3 24.86 C 0 km/h
1432 15-06-2011 15:00:00 24.24 C 9.35 g/m*3 24.24 C 0 km/h
1433 15-06-2011 16:00:00 26.52 C 8.27 g/m*3 26.52 C 0 km/h
1434 15-06-2011 17:00:00 28.16 C 7.63 g/m*3 28.16 C 0 km/h
1435 15-06-2011 18:00:00 26.98 C 8.28 g/m*3 26.98 C 0 km/h
1436 15-06-2011 19:00:00 26.14 C 9.08 g/m*3 26.14 C 0 km/h
1437 15-06-2011 20:00:00 21.96 C 10.42 g/m*3 21.96 C 0 km/h
1438 15-06-2011 21:00:00 19.98 C 10.22 g/m*3 19.98 C 0 km/h
1439 16-06-2011 20:00:00 17.2 C 9.23 g/m*3 17.2 C 0 km/h
1440 16-06-2011 21:00:00 16.74 C 9.17 g/m*3 16.74 C 0 km/h
1441 16-06-2011 22:00:00 15.98 C 8.41 g/m*3 15.98 C 0 km/h
1442 16-06-2011 23:00:00 15.02 C 7.34 g/m*3 15.02 C 0 km/h
1443 17-06-2011 00:00:00 13.12 C 6.7 g/m*3 13.12 C 0 km/h
1444 17-06-2011 01:00:00 12.28 C 6.75 g/m*3 12.28 C 0 km/h
1445 17-06-2011 02:00:00 10.6 C 6.83 g/m*3 10.6 C 0 km/h
1446 17-06-2011 03:00:00 9.26 C 7.08 g/m*3 9.26 C 0 km/h
1447 17-06-2011 04:00:00 8.1 C 7.07 g/m*3 8.1 C 0 km/h
1448 17-06-2011 05:00:00 7.46 C 6.98 g/m*3 7.46 C 0 km/h
1449 17-06-2011 06:00:00 7.8 C 7.2 g/m*3 7.8 C 0 km/h
1450 17-06-2011 07:00:00 9.42 C 7.93 g/m*3 9.42 C 0 km/h
Sensor: Nr:Datum:Temp:Abs-Feuchte:Windchill:Wind:
Aussen-T/F 1451 17-06-2011 08:00:00 12.3 C 8.1 g/m*3 12.3 C 0 km/h
1452 17-06-2011 09:00:00 15.16 C 7.51 g/m*3 15.16 C 0 km/h
1453 17-06-2011 10:00:00 18.14 C 6.2 g/m*3 18.14 C 0 km/h
1454 17-06-2011 11:00:00 19.44 C 5.59 g/m*3 19.44 C 0 km/h
1455 17-06-2011 12:00:00 20.92 C 5.54 g/m*3 20.92 C 0 km/h
1456 17-06-2011 13:00:00 23.4 C 5.85 g/m*3 23.4 C 0 km/h
1457 17-06-2011 14:00:00 25.68 C 5.64 g/m*3 25.68 C 0 km/h
1458 17-06-2011 15:00:00 24.38 C 5.56 g/m*3 24.38 C 0 km/h
1459 17-06-2011 16:00:00 22.22 C 7.55 g/m*3 22.22 C 0 km/h
1460 17-06-2011 17:00:00 21.48 C 8.78 g/m*3 21.48 C 0 km/h
1461 17-06-2011 18:00:00 20.82 C 9.06 g/m*3 20.82 C 0 km/h
1462 17-06-2011 19:00:00 19.8 C 8.81 g/m*3 19.8 C 0 km/h
1463 17-06-2011 20:00:00 17.22 C 9.41 g/m*3 17.22 C 0 km/h
1464 17-06-2011 21:00:00 15.42 C 10.42 g/m*3 15.42 C 0 km/h
1465 17-06-2011 22:00:00 14.56 C 10.59 g/m*3 14.56 C 0 km/h
1466 17-06-2011 23:00:00 14.16 C 10.57 g/m*3 14.16 C 0 km/h
1467 18-06-2011 00:00:00 14.08 C 10.62 g/m*3 14.08 C 0 km/h
1468 18-06-2011 01:00:00 14.04 C 10.64 g/m*3 14.04 C 0 km/h
1469 18-06-2011 02:00:00 14.32 C 10.95 g/m*3 14.32 C 0 km/h
1470 18-06-2011 03:00:00 14.34 C 10.96 g/m*3 14.34 C 0 km/h
1471 18-06-2011 04:00:00 14.94 C 10.66 g/m*3 14.94 C 0 km/h
1472 18-06-2011 05:00:00 14.92 C 9.8 g/m*3 14.92 C 0 km/h
1473 18-06-2011 06:00:00 14.86 C 9.05 g/m*3 14.86 C 0 km/h
1474 18-06-2011 07:00:00 15.64 C 8.29 g/m*3 15.64 C 0 km/h
1475 18-06-2011 08:00:00 16.1 C 7.79 g/m*3 16.1 C 0 km/h
Sensor: Nr:Datum:Temp:Abs-Feuchte:Windchill:Wind:
Aussen-T/F 1476 18-06-2011 09:00:00 16.58 C 7.62 g/m*3 16.58 C 0 km/h
1477 18-06-2011 10:00:00 16.48 C 6.93 g/m*3 16.48 C 0 km/h
1478 18-06-2011 11:00:00 16.9 C 6.3 g/m*3 16.9 C 0 km/h
1479 18-06-2011 12:00:00 16.9 C 6.04 g/m*3 16.9 C 0 km/h
1480 18-06-2011 13:00:00 18.04 C 6.07 g/m*3 18.04 C 0 km/h
1481 18-06-2011 14:00:00 19.1 C 5.7 g/m*3 19.1 C 0 km/h
1482 18-06-2011 15:00:00 20.86 C 5.23 g/m*3 20.86 C 0 km/h
1483 18-06-2011 16:00:00 20.82 C 5.66 g/m*3 20.82 C 0 km/h
1484 18-06-2011 17:00:00 17.52 C 6.24 g/m*3 17.52 C 0 km/h
1485 18-06-2011 18:00:00 17.64 C 6.4 g/m*3 17.64 C 0 km/h
1486 18-06-2011 19:00:00 15.6 C 6.52 g/m*3 15.6 C 0 km/h
1487 18-06-2011 20:00:00 14.94 C 6.77 g/m*3 14.94 C 0 km/h
1488 18-06-2011 21:00:00 13.26 C 7.17 g/m*3 13.26 C 0 km/h
1489 18-06-2011 22:00:00 12.32 C 7.2 g/m*3 12.32 C 0 km/h
1490 18-06-2011 23:00:00 11.66 C 7.43 g/m*3 11.66 C 0 km/h
1491 19-06-2011 00:00:00 12.3 C 7.64 g/m*3 12.3 C 0 km/h
1492 19-06-2011 01:00:00 12.56 C 7.15 g/m*3 12.56 C 0 km/h
1493 19-06-2011 02:00:00 12.58 C 7.07 g/m*3 12.58 C 0 km/h
1494 19-06-2011 03:00:00 11.44 C 7 g/m*3 11.44 C 0 km/h
1495 19-06-2011 04:00:00 11.38 C 7.01 g/m*3 11.38 C 0 km/h
1496 19-06-2011 05:00:00 11.94 C 7.05 g/m*3 11.94 C 0 km/h
1497 19-06-2011 06:00:00 12.2 C 6.86 g/m*3 12.2 C 0 km/h
1498 19-06-2011 07:00:00 12.56 C 7 g/m*3 12.56 C 0 km/h
1499 19-06-2011 08:00:00 12.6 C 7.39 g/m*3 12.6 C 0 km/h
1500 19-06-2011 09:00:00 13.34 C 7.32 g/m*3 13.34 C 0 km/h
Sensor: Nr:Datum:Temp:Abs-Feuchte:Windchill:Wind:
Aussen-T/F 1501 19-06-2011 10:00:00 14.56 C 6.89 g/m*3 14.56 C 0 km/h
1502 19-06-2011 11:00:00 15.14 C 6.7 g/m*3 15.14 C 0 km/h
1503 19-06-2011 12:00:00 16.48 C 6.73 g/m*3 16.48 C 0 km/h
1504 19-06-2011 13:00:00 17.2 C 6.41 g/m*3 17.2 C 0 km/h
1505 19-06-2011 14:00:00 18.58 C 6.23 g/m*3 18.58 C 0 km/h
1506 19-06-2011 15:00:00 18 C 7.03 g/m*3 18 C 0 km/h
1507 19-06-2011 16:00:00 17.42 C 7.24 g/m*3 17.42 C 0 km/h
1508 19-06-2011 17:00:00 17.84 C 6.91 g/m*3 17.84 C 0 km/h
1509 19-06-2011 18:00:00 17.46 C 6.63 g/m*3 17.46 C 0 km/h
1510 19-06-2011 19:00:00 16.12 C 7.11 g/m*3 16.12 C 0 km/h
1511 19-06-2011 20:00:00 15.86 C 7.03 g/m*3 15.86 C 0 km/h
1512 19-06-2011 21:00:00 15.06 C 7.13 g/m*3 15.06 C 0 km/h
1513 19-06-2011 22:00:00 13.98 C 7.73 g/m*3 13.98 C 0 km/h
1514 19-06-2011 23:00:00 13.3 C 7.39 g/m*3 13.3 C 0 km/h
1515 20-06-2011 00:00:00 11.78 C 7.8 g/m*3 11.78 C 0 km/h
1516 20-06-2011 01:00:00 11.84 C 7.85 g/m*3 11.84 C 0 km/h
1517 20-06-2011 02:00:00 12.16 C 7.75 g/m*3 12.16 C 0 km/h
1518 20-06-2011 03:00:00 10.16 C 7.54 g/m*3 10.16 C 0 km/h
1519 20-06-2011 04:00:00 9.58 C 7.63 g/m*3 9.58 C 0 km/h
1520 20-06-2011 05:00:00 8.42 C 7.27 g/m*3 8.42 C 0 km/h
1521 20-06-2011 06:00:00 8.52 C 7.45 g/m*3 8.52 C 0 km/h
1522 20-06-2011 07:00:00 10.88 C 8.15 g/m*3 10.88 C 0 km/h
1523 20-06-2011 08:00:00 14.42 C 7.7 g/m*3 14.42 C 0 km/h
1524 20-06-2011 09:00:00 13.36 C 8 g/m*3 13.36 C 0 km/h
1525 20-06-2011 10:00:00 13.4 C 8.93 g/m*3 13.4 C 0 km/h
Sensor: Nr:Datum:Temp:Abs-Feuchte:Windchill:Wind:
Aussen-T/F 1526 20-06-2011 11:00:00 14.04 C 9.38 g/m*3 14.04 C 0 km/h
1527 20-06-2011 12:00:00 14 C 9.7 g/m*3 14 C 0 km/h
1528 20-06-2011 13:00:00 14.36 C 9.91 g/m*3 14.36 C 0 km/h
1529 20-06-2011 14:00:00 14.88 C 10.29 g/m*3 14.88 C 0 km/h
1530 20-06-2011 15:00:00 17.12 C 10.26 g/m*3 17.12 C 0 km/h
1531 20-06-2011 16:00:00 17.54 C 10.4 g/m*3 17.54 C 0 km/h
1532 20-06-2011 17:00:00 17.74 C 10.53 g/m*3 17.74 C 0 km/h
1533 20-06-2011 18:00:00 17.04 C 10.73 g/m*3 17.04 C 0 km/h
1534 20-06-2011 19:00:00 16.28 C 11.28 g/m*3 16.28 C 0 km/h
1535 20-06-2011 20:00:00 15.98 C 11.57 g/m*3 15.98 C 0 km/h
1536 20-06-2011 21:00:00 15.68 C 11.57 g/m*3 15.68 C 0 km/h
1537 20-06-2011 22:00:00 14.7 C 11.03 g/m*3 14.7 C 0 km/h
1538 20-06-2011 23:00:00 14.3 C 10.89 g/m*3 14.3 C 0 km/h
1539 21-06-2011 00:00:00 14.8 C 11.38 g/m*3 14.8 C 0 km/h
1540 21-06-2011 01:00:00 14.9 C 11.44 g/m*3 14.9 C 0 km/h
1541 21-06-2011 02:00:00 14.94 C 11.47 g/m*3 14.94 C 0 km/h
1542 21-06-2011 03:00:00 15.14 C 11.64 g/m*3 15.14 C 0 km/h
1543 21-06-2011 04:00:00 15.66 C 12.01 g/m*3 15.66 C 0 km/h
1544 21-06-2011 05:00:00 15.82 C 12.13 g/m*3 15.82 C 0 km/h
1545 21-06-2011 06:00:00 15.92 C 12.2 g/m*3 15.92 C 0 km/h
1546 21-06-2011 07:00:00 16.62 C 12.73 g/m*3 16.62 C 0 km/h
1547 21-06-2011 08:00:00 18 C 13.02 g/m*3 18 C 0 km/h
1548 21-06-2011 09:00:00 18.6 C 11.4 g/m*3 18.6 C 0 km/h
1549 21-06-2011 10:00:00 18.62 C 11.41 g/m*3 18.62 C 0 km/h
1550 21-06-2011 11:00:00 20.42 C 10.45 g/m*3 20.42 C 0 km/h
Sensor: Nr:Datum:Temp:Abs-Feuchte:Windchill:Wind:
Aussen-T/F 1551 21-06-2011 12:00:00 20.7 C 10.15 g/m*3 20.7 C 0 km/h
1552 21-06-2011 13:00:00 21.5 C 10.03 g/m*3 21.5 C 0 km/h
1553 21-06-2011 14:00:00 23.54 C 9.71 g/m*3 23.54 C 0 km/h
1554 21-06-2011 15:00:00 25.52 C 9.29 g/m*3 25.52 C 0 km/h
1555 21-06-2011 16:00:00 25.86 C 8.99 g/m*3 25.86 C 0 km/h
1556 21-06-2011 17:00:00 24.54 C 9.2 g/m*3 24.54 C 0 km/h
1557 21-06-2011 18:00:00 23.58 C 9.35 g/m*3 23.58 C 0 km/h
1558 21-06-2011 19:00:00 22.78 C 9.13 g/m*3 22.78 C 0 km/h
1559 21-06-2011 20:00:00 20.8 C 9.23 g/m*3 20.8 C 0 km/h
1560 21-06-2011 21:00:00 19.22 C 9.77 g/m*3 19.22 C 0 km/h
1561 21-06-2011 22:00:00 17.44 C 10.79 g/m*3 17.44 C 0 km/h
1562 21-06-2011 23:00:00 17.26 C 11.05 g/m*3 17.26 C 0 km/h
1563 22-06-2011 00:00:00 15.92 C 10.93 g/m*3 15.92 C 0 km/h
1564 22-06-2011 01:00:00 15.16 C 10.98 g/m*3 15.16 C 0 km/h
1565 22-06-2011 02:00:00 15.6 C 11.44 g/m*3 15.6 C 0 km/h
1566 22-06-2011 03:00:00 15.84 C 11.6 g/m*3 15.84 C 0 km/h
1567 22-06-2011 04:00:00 15.58 C 11.4 g/m*3 15.58 C 0 km/h
1568 22-06-2011 05:00:00 15.62 C 11.48 g/m*3 15.62 C 0 km/h
1569 22-06-2011 06:00:00 16.44 C 11.84 g/m*3 16.44 C 0 km/h
1570 22-06-2011 07:00:00 17.48 C 11.67 g/m*3 17.48 C 0 km/h
1571 22-06-2011 08:00:00 18.72 C 11.89 g/m*3 18.72 C 0 km/h
1572 22-06-2011 09:00:00 19.78 C 12.49 g/m*3 19.78 C 0 km/h
1573 22-06-2011 10:00:00 22.76 C 12.98 g/m*3 22.76 C 0 km/h
1574 22-06-2011 11:00:00 22.76 C 13.66 g/m*3 22.76 C 0 km/h
1575 22-06-2011 12:00:00 21.44 C 13.76 g/m*3 21.44 C 0 km/h
Sensor: Nr:Datum:Temp:Abs-Feuchte:Windchill:Wind:
Aussen-T/F 1576 22-06-2011 13:00:00 18.04 C 12.69 g/m*3 18.04 C 0 km/h
1577 22-06-2011 14:00:00 17.16 C 11.98 g/m*3 17.16 C 0 km/h
1578 22-06-2011 15:00:00 18.28 C 11.99 g/m*3 18.28 C 0 km/h
1579 22-06-2011 16:00:00 21.58 C 11.93 g/m*3 21.58 C 0 km/h
1580 22-06-2011 17:00:00 21.42 C 9.91 g/m*3 21.42 C 0 km/h
1581 22-06-2011 18:00:00 21.62 C 8.28 g/m*3 21.62 C 0 km/h
1582 22-06-2011 19:00:00 20.14 C 7.25 g/m*3 20.14 C 0 km/h
1583 22-06-2011 20:00:00 17.64 C 7.58 g/m*3 17.64 C 0 km/h
1584 22-06-2011 21:00:00 16.475 C 8.06 g/m*3 16.48 C 0 km/h
1585 22-06-2011 22:00:00 13.92 C 8.79 g/m*3 13.92 C 0 km/h
1586 22-06-2011 23:00:00 12.98 C 9.2 g/m*3 12.98 C 0 km/h
1587 23-06-2011 00:00:00 12.68 C 9.07 g/m*3 12.68 C 0 km/h
1588 23-06-2011 01:00:00 11.48 C 8.71 g/m*3 11.48 C 0 km/h
1589 23-06-2011 02:00:00 11.28 C 8.8 g/m*3 11.28 C 0 km/h
1590 23-06-2011 03:00:00 10.52 C 8.49 g/m*3 10.52 C 0 km/h
1591 23-06-2011 04:00:00 10.4 C 8.52 g/m*3 10.4 C 0 km/h
1592 23-06-2011 05:00:00 10.9 C 8.85 g/m*3 10.9 C 0 km/h
1593 23-06-2011 06:00:00 11.5 C 9.19 g/m*3 11.5 C 0 km/h
1594 23-06-2011 07:00:00 12.94 C 9.47 g/m*3 12.94 C 0 km/h
1595 23-06-2011 08:00:00 15.62 C 8.63 g/m*3 15.62 C 0 km/h
1596 23-06-2011 09:00:00 17.2 C 8.08 g/m*3 17.2 C 0 km/h
1597 23-06-2011 10:00:00 18.62 C 7.55 g/m*3 18.62 C 0 km/h
1598 23-06-2011 11:00:00 19.22 C 7.46 g/m*3 19.22 C 0 km/h
1599 23-06-2011 12:00:00 19.16 C 7.76 g/m*3 19.16 C 0 km/h
1600 23-06-2011 13:00:00 19.02 C 8.35 g/m*3 19.02 C 0 km/h
Sensor: Nr:Datum:Temp:Abs-Feuchte:Windchill:Wind:
Aussen-T/F 1601 23-06-2011 14:00:00 20.84 C 7.04 g/m*3 20.84 C 0 km/h
1602 23-06-2011 15:00:00 19.2 C 7.06 g/m*3 19.2 C 0 km/h
1603 23-06-2011 16:00:00 20.68 C 6.9 g/m*3 20.68 C 0 km/h
1604 23-06-2011 17:00:00 22.4 C 5.84 g/m*3 22.4 C 0 km/h
1605 23-06-2011 18:00:00 22.94 C 5.53 g/m*3 22.94 C 0 km/h
1606 23-06-2011 19:00:00 22.14 C 5.01 g/m*3 22.14 C 0 km/h
1607 23-06-2011 20:00:00 17.94 C 6.15 g/m*3 17.94 C 0 km/h
1608 23-06-2011 21:00:00 15.38 C 7.03 g/m*3 15.38 C 0 km/h
1609 23-06-2011 22:00:00 14.14 C 7.69 g/m*3 14.14 C 0 km/h
1610 23-06-2011 23:00:00 14.16 C 7.48 g/m*3 14.16 C 0 km/h
1611 24-06-2011 00:00:00 13.34 C 7.64 g/m*3 13.34 C 0 km/h
1612 24-06-2011 01:00:00 12.18 C 7.72 g/m*3 12.18 C 0 km/h
1613 24-06-2011 02:00:00 11.24 C 7.6 g/m*3 11.24 C 0 km/h
1614 24-06-2011 03:00:00 9.78 C 7.39 g/m*3 9.78 C 0 km/h
1615 24-06-2011 04:00:00 10.1 C 7.6 g/m*3 10.1 C 0 km/h
1616 24-06-2011 05:00:00 10.98 C 7.1 g/m*3 10.98 C 0 km/h
1617 24-06-2011 06:00:00 11.28 C 6.54 g/m*3 11.28 C 0 km/h
1618 24-06-2011 07:00:00 11.94 C 6.54 g/m*3 11.94 C 0 km/h
1619 24-06-2011 08:00:00 12.36 C 6.6 g/m*3 12.36 C 0 km/h
1620 24-06-2011 09:00:00 12.86 C 6.77 g/m*3 12.86 C 0 km/h
1621 24-06-2011 10:00:00 14.3 C 6.81 g/m*3 14.3 C 0 km/h
1622 24-06-2011 11:00:00 16.34 C 6.81 g/m*3 16.34 C 0 km/h
1623 24-06-2011 12:00:00 16.7 C 6.51 g/m*3 16.7 C 0 km/h
1624 24-06-2011 13:00:00 18.26 C 6.08 g/m*3 18.26 C 0 km/h
1625 24-06-2011 14:00:00 21.34 C 5.98 g/m*3 21.34 C 0 km/h
Sensor: Nr:Datum:Temp:Abs-Feuchte:Windchill:Wind:
Aussen-T/F 1626 24-06-2011 15:00:00 18.54 C 5.77 g/m*3 18.54 C 0 km/h
1627 24-06-2011 16:00:00 19.62 C 6.86 g/m*3 19.62 C 0 km/h
1628 24-06-2011 17:00:00 17.68 C 5.85 g/m*3 17.68 C 0 km/h
1629 24-06-2011 18:00:00 16.86 C 5.74 g/m*3 16.86 C 0 km/h
1630 24-06-2011 19:00:00 16.88 C 7.07 g/m*3 16.88 C 0 km/h
1631 24-06-2011 20:00:00 15.26 C 7.66 g/m*3 15.26 C 0 km/h
1632 24-06-2011 21:00:00 13.08 C 8.07 g/m*3 13.08 C 0 km/h
1633 24-06-2011 22:00:00 11.16 C 7.79 g/m*3 11.16 C 0 km/h
1634 24-06-2011 23:00:00 10.58 C 7.95 g/m*3 10.58 C 0 km/h
1635 25-06-2011 00:00:00 11.14 C 8.34 g/m*3 11.14 C 0 km/h
1636 25-06-2011 01:00:00 11.02 C 8.3 g/m*3 11.02 C 0 km/h
1637 25-06-2011 02:00:00 10.94 C 8.38 g/m*3 10.94 C 0 km/h
1638 25-06-2011 03:00:00 11.14 C 8.48 g/m*3 11.14 C 0 km/h
1639 25-06-2011 04:00:00 10.94 C 8.38 g/m*3 10.94 C 0 km/h
1640 25-06-2011 05:00:00 10.4 C 8.25 g/m*3 10.4 C 0 km/h
1641 25-06-2011 06:00:00 11.28 C 8.56 g/m*3 11.28 C 0 km/h
1642 25-06-2011 07:00:00 12.66 C 8.46 g/m*3 12.66 C 0 km/h
1643 25-06-2011 08:00:00 14.08 C 8.24 g/m*3 14.08 C 0 km/h
1644 25-06-2011 09:00:00 13.98 C 8.12 g/m*3 13.98 C 0 km/h
1645 25-06-2011 10:00:00 13.1 C 8.47 g/m*3 13.1 C 0 km/h
1646 25-06-2011 11:00:00 12.8 C 8.31 g/m*3 12.8 C 0 km/h
1647 25-06-2011 12:00:00 14.74 C 8.51 g/m*3 14.74 C 0 km/h
1648 25-06-2011 13:00:00 15.22 C 8.42 g/m*3 15.22 C 0 km/h
1649 25-06-2011 14:00:00 14.46 C 8.68 g/m*3 14.46 C 0 km/h
1650 25-06-2011 15:00:00 14.24 C 9.18 g/m*3 14.24 C 0 km/h
Sensor: Nr:Datum:Temp:Abs-Feuchte:Windchill:Wind:
Aussen-T/F 1651 25-06-2011 16:00:00 14.54 C 9.95 g/m*3 14.54 C 0 km/h
1652 25-06-2011 17:00:00 15.24 C 10.17 g/m*3 15.24 C 0 km/h
1653 25-06-2011 18:00:00 15.26 C 10.14 g/m*3 15.26 C 0 km/h
1654 25-06-2011 19:00:00 15 C 10.26 g/m*3 15 C 0 km/h
1655 25-06-2011 20:00:00 15 C 10.26 g/m*3 15 C 0 km/h
1656 25-06-2011 21:00:00 15 C 10.26 g/m*3 15 C 0 km/h
1657 25-06-2011 22:00:00 15 C 10.26 g/m*3 15 C 0 km/h
1658 25-06-2011 23:00:00 15 C 10.26 g/m*3 15 C 0 km/h
1659 26-06-2011 00:00:00 15 C 10.26 g/m*3 15 C 0 km/h
1660 26-06-2011 01:00:00 15 C 10.26 g/m*3 15 C 0 km/h
1661 26-06-2011 02:00:00 15 C 10.26 g/m*3 15 C 0 km/h
1662 26-06-2011 03:00:00 15 C 10.26 g/m*3 15 C 0 km/h
1663 26-06-2011 04:00:00 15 C 10.26 g/m*3 15 C 0 km/h
1664 26-06-2011 05:00:00 15 C 10.26 g/m*3 15 C 0 km/h
1665 26-06-2011 06:00:00 15 C 10.26 g/m*3 15 C 0 km/h
1666 26-06-2011 07:00:00 15 C 10.26 g/m*3 15 C 0 km/h
1667 26-06-2011 08:00:00 15 C 10.26 g/m*3 15 C 0 km/h
1668 26-06-2011 09:00:00 15 C 10.26 g/m*3 15 C 0 km/h
1669 26-06-2011 10:00:00 15 C 10.26 g/m*3 15 C 0 km/h
1670 26-06-2011 11:00:00 15 C 10.26 g/m*3 15 C 0 km/h
1671 26-06-2011 12:00:00 15 C 10.26 g/m*3 15 C 0 km/h
1672 26-06-2011 13:00:00 15 C 10.26 g/m*3 15 C 0 km/h
1673 26-06-2011 14:00:00 15 C 10.26 g/m*3 15 C 0 km/h
1674 26-06-2011 15:00:00 15 C 10.26 g/m*3 15 C 0 km/h
1675 26-06-2011 16:00:00 15 C 10.26 g/m*3 15 C 0 km/h
Sensor: Nr:Datum:Temp:Abs-Feuchte:Windchill:Wind:
Aussen-T/F 1676 26-06-2011 17:00:00 15 C 10.26 g/m*3 15 C 0 km/h
1677 26-06-2011 18:00:00 15 C 10.26 g/m*3 15 C 0 km/h
1678 26-06-2011 19:00:00 15 C 10.26 g/m*3 15 C 0 km/h
1679 26-06-2011 20:00:00 15 C 10.26 g/m*3 15 C 0 km/h
1680 26-06-2011 21:00:00 15 C 10.26 g/m*3 15 C 0 km/h
1681 26-06-2011 22:00:00 15 C 10.26 g/m*3 15 C 0 km/h
1682 26-06-2011 23:00:00 15 C 10.26 g/m*3 15 C 0 km/h
1683 27-06-2011 00:00:00 15 C 10.26 g/m*3 15 C 0 km/h
1684 27-06-2011 01:00:00 15 C 10.26 g/m*3 15 C 0 km/h
1685 27-06-2011 02:00:00 15 C 10.26 g/m*3 15 C 0 km/h
1686 27-06-2011 03:00:00 15 C 10.26 g/m*3 15 C 0 km/h
1687 27-06-2011 04:00:00 15 C 10.26 g/m*3 15 C 0 km/h
1688 27-06-2011 05:00:00 15 C 10.26 g/m*3 15 C 0 km/h
1689 27-06-2011 06:00:00 15 C 10.26 g/m*3 15 C 0 km/h
1690 27-06-2011 07:00:00 15 C 10.26 g/m*3 15 C 0 km/h
1691 27-06-2011 08:00:00 15 C 10.26 g/m*3 15 C 0 km/h
1692 27-06-2011 09:00:00 15 C 10.26 g/m*3 15 C 0 km/h
1693 27-06-2011 10:00:00 15 C 10.26 g/m*3 15 C 0 km/h
1694 27-06-2011 11:00:00 15 C 10.26 g/m*3 15 C 0 km/h
1695 27-06-2011 12:00:00 15 C 10.26 g/m*3 15 C 0 km/h
1696 27-06-2011 13:00:00 15 C 10.26 g/m*3 15 C 0 km/h
1697 27-06-2011 14:00:00 15 C 10.26 g/m*3 15 C 0 km/h
1698 27-06-2011 15:00:00 15 C 10.26 g/m*3 15 C 0 km/h
1699 27-06-2011 16:00:00 15 C 10.26 g/m*3 15 C 0 km/h
1700 27-06-2011 17:00:00 15 C 10.26 g/m*3 15 C 0 km/h
Sensor: Nr:Datum:Temp:Abs-Feuchte:Windchill:Wind:
Aussen-T/F 1701 27-06-2011 18:00:00 25.48 C 9.27 g/m*3 25.48 C 0 km/h
1702 27-06-2011 19:00:00 32.12 C 10.46 g/m*3 32.12 C 0 km/h
1703 27-06-2011 20:00:00 27.5 C 12.43 g/m*3 27.5 C 0 km/h
1704 27-06-2011 21:00:00 24.38 C 12.32 g/m*3 24.38 C 0 km/h
1705 27-06-2011 22:00:00 22.64 C 12.73 g/m*3 22.64 C 0 km/h
1706 27-06-2011 23:00:00 21.64 C 12.28 g/m*3 21.64 C 0 km/h
1707 28-06-2011 00:00:00 20.8 C 11.84 g/m*3 20.8 C 0 km/h
1708 28-06-2011 01:00:00 19.98 C 11.74 g/m*3 19.98 C 0 km/h
1709 28-06-2011 02:00:00 18.72 C 11.77 g/m*3 18.72 C 0 km/h
1710 28-06-2011 03:00:00 17.82 C 11.55 g/m*3 17.82 C 0 km/h
1711 28-06-2011 04:00:00 16.94 C 11.42 g/m*3 16.94 C 0 km/h
1712 28-06-2011 05:00:00 16.26 C 11.29 g/m*3 16.26 C 0 km/h
1713 28-06-2011 06:00:00 17.08 C 11.92 g/m*3 17.08 C 0 km/h
1714 28-06-2011 07:00:00 18.02 C 12.36 g/m*3 18.02 C 0 km/h
1715 28-06-2011 08:00:00 19.96 C 12.62 g/m*3 19.96 C 0 km/h
1716 28-06-2011 09:00:00 22.34 C 12.51 g/m*3 22.34 C 0 km/h
1717 28-06-2011 10:00:00 25.52 C 12.56 g/m*3 25.52 C 0 km/h
1718 28-06-2011 11:00:00 29.28 C 11.02 g/m*3 29.28 C 0 km/h
1719 28-06-2011 12:00:00 29.88 C 10.24 g/m*3 29.88 C 0 km/h
1720 28-06-2011 13:00:00 32.64 C 8.94 g/m*3 32.64 C 0 km/h
1721 28-06-2011 14:00:00 34.58 C 7.74 g/m*3 34.58 C 0 km/h
1722 28-06-2011 15:00:00 34.7 C 7.78 g/m*3 34.7 C 0 km/h
1723 28-06-2011 16:00:00 35.3 C 8.03 g/m*3 35.3 C 0 km/h
1724 28-06-2011 17:00:00 34.96 C 7.89 g/m*3 34.96 C 0 km/h
1725 28-06-2011 18:00:00 34.12 C 7.55 g/m*3 34.12 C 0 km/h
Sensor: Nr:Datum:Temp:Abs-Feuchte:Windchill:Wind:
Aussen-T/F 1726 28-06-2011 19:00:00 33.18 C 7.76 g/m*3 33.18 C 0 km/h
1727 28-06-2011 20:00:00 27.44 C 9.18 g/m*3 27.44 C 0 km/h
1728 28-06-2011 21:00:00 24.72 C 8.7 g/m*3 24.72 C 0 km/h
1729 28-06-2011 22:00:00 22.32 C 9.69 g/m*3 22.32 C 0 km/h
1730 28-06-2011 23:00:00 21.4 C 9.79 g/m*3 21.4 C 0 km/h
1731 29-06-2011 00:00:00 21.1 C 10.17 g/m*3 21.1 C 0 km/h
1732 29-06-2011 01:00:00 20.64 C 10.62 g/m*3 20.64 C 0 km/h
1733 29-06-2011 02:00:00 22.56 C 11.66 g/m*3 22.56 C 0 km/h
1734 29-06-2011 03:00:00 22.8 C 12.15 g/m*3 22.8 C 0 km/h
1735 29-06-2011 04:00:00 21.46 C 12.19 g/m*3 21.46 C 0 km/h
1736 29-06-2011 05:00:00 21.8 C 12.05 g/m*3 21.8 C 0 km/h
1737 29-06-2011 06:00:00 21.4 C 12.04 g/m*3 21.4 C 0 km/h
1738 29-06-2011 07:00:00 21.84 C 12.58 g/m*3 21.84 C 0 km/h
1739 29-06-2011 08:00:00 23.48 C 12.29 g/m*3 23.48 C 0 km/h
1740 29-06-2011 09:00:00 24.18 C 12.13 g/m*3 24.18 C 0 km/h
1741 29-06-2011 10:00:00 24.22 C 12.29 g/m*3 24.22 C 0 km/h
1742 29-06-2011 11:00:00 23.98 C 12.39 g/m*3 23.98 C 0 km/h
1743 29-06-2011 12:00:00 24.82 C 11.94 g/m*3 24.82 C 0 km/h
1744 29-06-2011 13:00:00 25.72 C 12.03 g/m*3 25.72 C 0 km/h
1745 29-06-2011 14:00:00 20.96 C 11.08 g/m*3 20.96 C 0 km/h
1746 29-06-2011 15:00:00 18.52 C 10.99 g/m*3 18.52 C 0 km/h
1747 29-06-2011 16:00:00 17.52 C 11.19 g/m*3 17.52 C 0 km/h
1748 29-06-2011 17:00:00 17.46 C 10.68 g/m*3 17.46 C 0 km/h
1749 29-06-2011 18:00:00 17.02 C 10.4 g/m*3 17.02 C 0 km/h
1750 29-06-2011 19:00:00 17.02 C 10.14 g/m*3 17.02 C 0 km/h
Sensor: Nr:Datum:Temp:Abs-Feuchte:Windchill:Wind:
Aussen-T/F 1751 29-06-2011 20:00:00 16.76 C 10.5 g/m*3 16.76 C 0 km/h
1752 29-06-2011 21:00:00 16.5 C 10.7 g/m*3 16.5 C 0 km/h
1753 29-06-2011 22:00:00 16.42 C 10.87 g/m*3 16.42 C 0 km/h
1754 29-06-2011 23:00:00 16.7 C 10.35 g/m*3 16.7 C 0 km/h
1755 30-06-2011 00:00:00 16.6 C 9.69 g/m*3 16.6 C 0 km/h
1756 30-06-2011 01:00:00 16.38 C 9.2 g/m*3 16.38 C 0 km/h
1757 30-06-2011 02:00:00 15.92 C 8.81 g/m*3 15.92 C 0 km/h
1758 30-06-2011 03:00:00 15.32 C 8.18 g/m*3 15.32 C 0 km/h
1759 30-06-2011 04:00:00 14.74 C 8.13 g/m*3 14.74 C 0 km/h
1760 30-06-2011 05:00:00 13.8 C 7.72 g/m*3 13.8 C 0 km/h
1761 30-06-2011 06:00:00 12.5 C 7.83 g/m*3 12.5 C 0 km/h
1762 30-06-2011 07:00:00 13.28 C 8.05 g/m*3 13.28 C 0 km/h
1763 30-06-2011 08:00:00 15.04 C 7.12 g/m*3 15.04 C 0 km/h
1764 30-06-2011 09:00:00 15.84 C 6.99 g/m*3 15.84 C 0 km/h
1765 30-06-2011 10:00:00 16.86 C 6.37 g/m*3 16.86 C 0 km/h
1766 30-06-2011 11:00:00 18.34 C 5.92 g/m*3 18.34 C 0 km/h
1767 30-06-2011 12:00:00 18.84 C 5.84 g/m*3 18.84 C 0 km/h
1768 30-06-2011 13:00:00 22.42 C 5.45 g/m*3 22.42 C 0 km/h
1769 30-06-2011 14:00:00 25.04 C 4.61 g/m*3 25.04 C 0 km/h
1770 30-06-2011 15:00:00 23.66 C 4.52 g/m*3 23.66 C 0 km/h
1771 30-06-2011 16:00:00 23.18 C 5.03 g/m*3 23.18 C 0 km/h
1772 30-06-2011 17:00:00 22.9 C 5.15 g/m*3 22.9 C 0 km/h
1773 30-06-2011 18:00:00 21.2 C 5.3 g/m*3 21.2 C 0 km/h
1774 30-06-2011 19:00:00 22.88 C 4.7 g/m*3 22.88 C 0 km/h
1775 30-06-2011 20:00:00 18.44 C 5.99 g/m*3 18.44 C 0 km/h
Sensor: Nr:Datum:Temp:Abs-Feuchte:Windchill:Wind:
Aussen-T/F 1776 30-06-2011 21:00:00 16.54 C 6.39 g/m*3 16.54 C 0 km/h
1777 30-06-2011 22:00:00 16.42 C 6.71 g/m*3 16.42 C 0 km/h
1778 30-06-2011 23:00:00 14.14 C 7.64 g/m*3 14.14 C 0 km/h
1779 01-07-2011 00:00:00 12.2 C 8.89 g/m*3 12.2 C 0 km/h
1780 01-07-2011 01:00:00 11.64 C 8.88 g/m*3 11.64 C 0 km/h
1781 01-07-2011 02:00:00 11.42 C 8.98 g/m*3 11.42 C 0 km/h
1782 01-07-2011 03:00:00 11.78 C 9.25 g/m*3 11.78 C 0 km/h
1783 01-07-2011 04:00:00 11.3 C 8.98 g/m*3 11.3 C 0 km/h
1784 01-07-2011 05:00:00 10.4 C 8.5 g/m*3 10.4 C 0 km/h
1785 01-07-2011 06:00:00 10.84 C 8.72 g/m*3 10.84 C 0 km/h
1786 01-07-2011 07:00:00 11.72 C 8.69 g/m*3 11.72 C 0 km/h
1787 01-07-2011 08:00:00 12.04 C 8.01 g/m*3 12.04 C 0 km/h
1788 01-07-2011 09:00:00 11.5 C 8.51 g/m*3 11.5 C 0 km/h
1789 01-07-2011 10:00:00 14.1 C 8.11 g/m*3 14.1 C 0 km/h
1790 01-07-2011 11:00:00 15.6 C 7.08 g/m*3 15.6 C 0 km/h
1791 01-07-2011 12:00:00 16.42 C 6.65 g/m*3 16.42 C 0 km/h
1792 01-07-2011 13:00:00 18.52 C 6.91 g/m*3 18.52 C 0 km/h
1793 01-07-2011 14:00:00 19.82 C 5.88 g/m*3 19.82 C 0 km/h
1794 01-07-2011 15:00:00 24.52 C 5.78 g/m*3 24.52 C 0 km/h
1795 01-07-2011 16:00:00 22.96 C 5.33 g/m*3 22.96 C 0 km/h
1796 01-07-2011 17:00:00 21.66 C 6.28 g/m*3 21.66 C 0 km/h
1797 01-07-2011 18:00:00 22.78 C 5.48 g/m*3 22.78 C 0 km/h
1798 01-07-2011 19:00:00 17.72 C 5.74 g/m*3 17.72 C 0 km/h
1799 01-07-2011 20:00:00 15.9 C 6.39 g/m*3 15.9 C 0 km/h
1800 01-07-2011 21:00:00 14.4 C 6.95 g/m*3 14.4 C 0 km/h
Sensor: Nr:Datum:Temp:Abs-Feuchte:Windchill:Wind:
Aussen-T/F 1801 01-07-2011 22:00:00 12.4 C 7.17 g/m*3 12.4 C 0 km/h
1802 01-07-2011 23:00:00 11.12 C 7.66 g/m*3 11.12 C 0 km/h
1803 02-07-2011 00:00:00 10.38 C 7.58 g/m*3 10.38 C 0 km/h
1804 02-07-2011 01:00:00 9.72 C 7.72 g/m*3 9.72 C 0 km/h
1805 02-07-2011 02:00:00 9.04 C 7.55 g/m*3 9.04 C 0 km/h
1806 02-07-2011 03:00:00 8.56 C 7.51 g/m*3 8.56 C 0 km/h
1807 02-07-2011 04:00:00 9.38 C 7.86 g/m*3 9.38 C 0 km/h
1808 02-07-2011 05:00:00 8.42 C 7.42 g/m*3 8.42 C 0 km/h
1809 02-07-2011 06:00:00 9.1 C 7.81 g/m*3 9.1 C 0 km/h
1810 02-07-2011 07:00:00 10.7 C 8.03 g/m*3 10.7 C 0 km/h
1811 02-07-2011 08:00:00 13.14 C 7.78 g/m*3 13.14 C 0 km/h
1812 02-07-2011 09:00:00 14.44 C 6.99 g/m*3 14.44 C 0 km/h
1813 02-07-2011 10:00:00 16.38 C 6.38 g/m*3 16.38 C 0 km/h
1814 02-07-2011 11:00:00 15.36 C 6.4 g/m*3 15.36 C 0 km/h
1815 02-07-2011 12:00:00 16.38 C 6.19 g/m*3 16.38 C 0 km/h
1816 02-07-2011 13:00:00 17.72 C 5.65 g/m*3 17.72 C 0 km/h
1817 02-07-2011 14:00:00 20.86 C 5.78 g/m*3 20.86 C 0 km/h
1818 02-07-2011 15:00:00 21.28 C 5.44 g/m*3 21.28 C 0 km/h
1819 02-07-2011 16:00:00 19.46 C 5.29 g/m*3 19.46 C 0 km/h
1820 02-07-2011 17:00:00 18.78 C 5.4 g/m*3 18.78 C 0 km/h
1821 02-07-2011 18:00:00 20.34 C 5.54 g/m*3 20.34 C 0 km/h
1822 02-07-2011 19:00:00 18.16 C 5.68 g/m*3 18.16 C 0 km/h
1823 02-07-2011 20:00:00 17.04 C 5.92 g/m*3 17.04 C 0 km/h
1824 02-07-2011 21:00:00 15.86 C 6.27 g/m*3 15.86 C 0 km/h
1825 02-07-2011 22:00:00 14.9 C 6.53 g/m*3 14.9 C 0 km/h
Sensor: Nr:Datum:Temp:Abs-Feuchte:Windchill:Wind:
Aussen-T/F 1826 02-07-2011 23:00:00 14.94 C 6.44 g/m*3 14.94 C 0 km/h
1827 03-07-2011 00:00:00 14.44 C 6.64 g/m*3 14.44 C 0 km/h
1828 03-07-2011 01:00:00 14.16 C 6.87 g/m*3 14.16 C 0 km/h
1829 03-07-2011 02:00:00 13.72 C 7.04 g/m*3 13.72 C 0 km/h
1830 03-07-2011 03:00:00 13.36 C 6.86 g/m*3 13.36 C 0 km/h
1831 03-07-2011 04:00:00 13 C 6.8 g/m*3 13 C 0 km/h
1832 03-07-2011 05:00:00 12.9 C 6.76 g/m*3 12.9 C 0 km/h
1833 03-07-2011 06:00:00 12.88 C 6.82 g/m*3 12.88 C 0 km/h
1834 03-07-2011 07:00:00 12.62 C 7.09 g/m*3 12.62 C 0 km/h
1835 03-07-2011 08:00:00 12.6 C 7.08 g/m*3 12.6 C 0 km/h
1836 03-07-2011 09:00:00 12.6 C 7.08 g/m*3 12.6 C 0 km/h
1837 03-07-2011 10:00:00 12.6 C 7.08 g/m*3 12.6 C 0 km/h
1838 03-07-2011 14:00:00 20.16667 C 5.93 g/m*3 20.17 C 0 km/h
1839 03-07-2011 15:00:00 22.56 C 5.85 g/m*3 22.56 C 0 km/h
1840 03-07-2011 16:00:00 25.82 C 5.64 g/m*3 25.82 C 0 km/h
1841 03-07-2011 17:00:00 24.94 C 5.74 g/m*3 24.94 C 0 km/h
1842 03-07-2011 18:00:00 25.02 C 5.9 g/m*3 25.02 C 0 km/h
1843 03-07-2011 19:00:00 22.56 C 6.37 g/m*3 22.56 C 0 km/h
1844 03-07-2011 20:00:00 18.32 C 7.04 g/m*3 18.32 C 0 km/h
1845 03-07-2011 21:00:00 16.46 C 7.54 g/m*3 16.46 C 0 km/h
1846 03-07-2011 22:00:00 16.2 C 7.58 g/m*3 16.2 C 0 km/h
1847 03-07-2011 23:00:00 16.2 C 7.58 g/m*3 16.2 C 0 km/h
1848 04-07-2011 00:00:00 16.2 C 7.58 g/m*3 16.2 C 0 km/h
1849 04-07-2011 01:00:00 16.2 C 7.58 g/m*3 16.2 C 0 km/h
1850 04-07-2011 02:00:00 16.2 C 7.58 g/m*3 16.2 C 0 km/h
Sensor: Nr:Datum:Temp:Abs-Feuchte:Windchill:Wind:
Aussen-T/F 1851 04-07-2011 03:00:00 16.2 C 7.58 g/m*3 16.2 C 0 km/h
1852 04-07-2011 04:00:00 16.2 C 7.58 g/m*3 16.2 C 0 km/h
1853 04-07-2011 05:00:00 16.2 C 7.58 g/m*3 16.2 C 0 km/h
1854 04-07-2011 06:00:00 16.2 C 7.58 g/m*3 16.2 C 0 km/h
1855 04-07-2011 07:00:00 16.2 C 7.58 g/m*3 16.2 C 0 km/h
1856 05-07-2011 08:00:00 12.88 C 9.48 g/m*3 12.88 C 0 km/h
1857 05-07-2011 09:00:00 15.16 C 9.81 g/m*3 15.16 C 0 km/h
1858 05-07-2011 10:00:00 17.7 C 9.66 g/m*3 17.7 C 0 km/h
1859 05-07-2011 11:00:00 21.18 C 9.55 g/m*3 21.18 C 0 km/h
1860 05-07-2011 12:00:00 22.98 C 9.2 g/m*3 22.98 C 0 km/h
1861 05-07-2011 13:00:00 27.46 C 8.13 g/m*3 27.46 C 0 km/h
1862 05-07-2011 14:00:00 32.34 C 6.87 g/m*3 32.34 C 0 km/h
1863 05-07-2011 15:00:00 32.24 C 6.84 g/m*3 32.24 C 0 km/h
1864 05-07-2011 16:00:00 31.86 C 7.1 g/m*3 31.86 C 0 km/h
1865 05-07-2011 17:00:00 30.92 C 8.09 g/m*3 30.92 C 0 km/h
1866 05-07-2011 18:00:00 30.5 C 8.35 g/m*3 30.5 C 0 km/h
1867 05-07-2011 19:00:00 29.84 C 9.08 g/m*3 29.84 C 0 km/h
1868 05-07-2011 20:00:00 25.02 C 10.37 g/m*3 25.02 C 0 km/h
1869 05-07-2011 21:00:00 21.64 C 10.23 g/m*3 21.64 C 0 km/h
1870 05-07-2011 22:00:00 20.22 C 10.26 g/m*3 20.22 C 0 km/h
1871 05-07-2011 23:00:00 19.02 C 10.44 g/m*3 19.02 C 0 km/h
1872 06-07-2011 00:00:00 17.22 C 10.53 g/m*3 17.22 C 0 km/h
1873 06-07-2011 01:00:00 16.42 C 10.42 g/m*3 16.42 C 0 km/h
1874 06-07-2011 02:00:00 15.3 C 10.06 g/m*3 15.3 C 0 km/h
1875 06-07-2011 03:00:00 14.72 C 9.76 g/m*3 14.72 C 0 km/h
Sensor: Nr:Datum:Temp:Abs-Feuchte:Windchill:Wind:
Aussen-T/F 1876 06-07-2011 04:00:00 14.7 C 9.29 g/m*3 14.7 C 0 km/h
1877 06-07-2011 05:00:00 14.26 C 9.24 g/m*3 14.26 C 0 km/h
1878 06-07-2011 06:00:00 15.38 C 9.63 g/m*3 15.38 C 0 km/h
1879 06-07-2011 07:00:00 15.64 C 10.19 g/m*3 15.64 C 0 km/h
1880 06-07-2011 08:00:00 16.7 C 9.83 g/m*3 16.7 C 0 km/h
1881 06-07-2011 09:00:00 18.74 C 9.18 g/m*3 18.74 C 0 km/h
1882 06-07-2011 10:00:00 22.88 C 8.21 g/m*3 22.88 C 0 km/h
1883 06-07-2011 11:00:00 23.48 C 8.07 g/m*3 23.48 C 0 km/h
1884 06-07-2011 12:00:00 23.6 C 7.49 g/m*3 23.6 C 0 km/h
1885 06-07-2011 13:00:00 26.14 C 6.87 g/m*3 26.14 C 0 km/h
1886 06-07-2011 14:00:00 26.92 C 6.61 g/m*3 26.92 C 0 km/h
1887 06-07-2011 15:00:00 24.22 C 6.74 g/m*3 24.22 C 0 km/h
1888 06-07-2011 16:00:00 27.92 C 6.55 g/m*3 27.92 C 0 km/h
1889 06-07-2011 17:00:00 27.08 C 6.46 g/m*3 27.08 C 0 km/h
1890 06-07-2011 18:00:00 26.46 C 6.49 g/m*3 26.46 C 0 km/h
1891 06-07-2011 19:00:00 27.22 C 6.2 g/m*3 27.22 C 0 km/h
1892 06-07-2011 20:00:00 22.22 C 7.86 g/m*3 22.22 C 0 km/h
1893 06-07-2011 21:00:00 19.84 C 8.18 g/m*3 19.84 C 0 km/h
1894 06-07-2011 22:00:00 17 C 8.36 g/m*3 17 C 0 km/h
1895 06-07-2011 23:00:00 15.38 C 8.63 g/m*3 15.38 C 0 km/h
1896 07-07-2011 00:00:00 15.6 C 8.91 g/m*3 15.6 C 0 km/h
1897 07-07-2011 01:00:00 13.7 C 8.62 g/m*3 13.7 C 0 km/h
1898 07-07-2011 02:00:00 13.98 C 8.72 g/m*3 13.98 C 0 km/h
1899 07-07-2011 03:00:00 14.24 C 9.13 g/m*3 14.24 C 0 km/h
1900 07-07-2011 04:00:00 14.1 C 9.59 g/m*3 14.1 C 0 km/h
Sensor: Nr:Datum:Temp:Abs-Feuchte:Windchill:Wind:
Aussen-T/F 1901 07-07-2011 05:00:00 13.52 C 9.74 g/m*3 13.52 C 0 km/h
1902 07-07-2011 06:00:00 13.8 C 10.2 g/m*3 13.8 C 0 km/h
1903 07-07-2011 07:00:00 15.02 C 10.35 g/m*3 15.02 C 0 km/h
1904 07-07-2011 08:00:00 17.34 C 9.54 g/m*3 17.34 C 0 km/h
1905 07-07-2011 09:00:00 18.38 C 9.52 g/m*3 18.38 C 0 km/h
1906 07-07-2011 10:00:00 20.34 C 8.39 g/m*3 20.34 C 0 km/h
1907 07-07-2011 11:00:00 22.84 C 7.13 g/m*3 22.84 C 0 km/h
1908 07-07-2011 12:00:00 23.98 C 6.17 g/m*3 23.98 C 0 km/h
1909 07-07-2011 13:00:00 26.28 C 6.28 g/m*3 26.28 C 0 km/h
1910 07-07-2011 14:00:00 26.46 C 6.09 g/m*3 26.46 C 0 km/h
1911 07-07-2011 15:00:00 26.36 C 6.21 g/m*3 26.36 C 0 km/h
1912 07-07-2011 16:00:00 24.72 C 6.71 g/m*3 24.72 C 0 km/h
1913 07-07-2011 17:00:00 23.66 C 7.68 g/m*3 23.66 C 0 km/h
1914 07-07-2011 18:00:00 23.48 C 7.22 g/m*3 23.48 C 0 km/h
1915 07-07-2011 19:00:00 22.16 C 8.74 g/m*3 22.16 C 0 km/h
1916 07-07-2011 20:00:00 21 C 8.35 g/m*3 21 C 0 km/h
1917 07-07-2011 21:00:00 20.32 C 8.59 g/m*3 20.32 C 0 km/h
1918 07-07-2011 22:00:00 18.78 C 8.94 g/m*3 18.78 C 0 km/h
1919 07-07-2011 23:00:00 18.44 C 8.83 g/m*3 18.44 C 0 km/h
1920 08-07-2011 00:00:00 17.3 C 9.02 g/m*3 17.3 C 0 km/h
1921 08-07-2011 01:00:00 17.36 C 9.08 g/m*3 17.36 C 0 km/h
1922 08-07-2011 02:00:00 17.02 C 9.1 g/m*3 17.02 C 0 km/h
1923 08-07-2011 03:00:00 16.8 C 9.29 g/m*3 16.8 C 0 km/h
1924 08-07-2011 04:00:00 15.22 C 10.16 g/m*3 15.22 C 0 km/h
1925 08-07-2011 05:00:00 14.48 C 10.61 g/m*3 14.48 C 0 km/h
Sensor: Nr:Datum:Temp:Abs-Feuchte:Windchill:Wind:
Aussen-T/F 1926 08-07-2011 06:00:00 13.76 C 10.32 g/m*3 13.76 C 0 km/h
1927 08-07-2011 07:00:00 14.58 C 10.2 g/m*3 14.58 C 0 km/h
1928 08-07-2011 08:00:00 16.48 C 9.68 g/m*3 16.48 C 0 km/h
1929 08-07-2011 09:00:00 17.82 C 8.6 g/m*3 17.82 C 0 km/h
1930 08-07-2011 10:00:00 19.2 C 8.01 g/m*3 19.2 C 0 km/h
1931 08-07-2011 11:00:00 20.18 C 6.92 g/m*3 20.18 C 0 km/h
1932 08-07-2011 12:00:00 21 C 6.81 g/m*3 21 C 0 km/h
1933 08-07-2011 13:00:00 24.44 C 6.65 g/m*3 24.44 C 0 km/h
1934 08-07-2011 14:00:00 25.22 C 5.87 g/m*3 25.22 C 0 km/h
1935 08-07-2011 15:00:00 25.36 C 6.2 g/m*3 25.36 C 0 km/h
1936 08-07-2011 16:00:00 25.62 C 6.05 g/m*3 25.62 C 0 km/h
1937 08-07-2011 17:00:00 26.38 C 5.52 g/m*3 26.38 C 0 km/h
1938 08-07-2011 18:00:00 27.62 C 5.33 g/m*3 27.62 C 0 km/h
1939 08-07-2011 19:00:00 25.82 C 5.06 g/m*3 25.82 C 0 km/h
1940 08-07-2011 20:00:00 22.64 C 6.97 g/m*3 22.64 C 0 km/h
1941 08-07-2011 21:00:00 19.32 C 7.94 g/m*3 19.32 C 0 km/h
1942 08-07-2011 22:00:00 17.86 C 7.68 g/m*3 17.86 C 0 km/h
1943 08-07-2011 23:00:00 16.68 C 7.89 g/m*3 16.68 C 0 km/h
1944 09-07-2011 00:00:00 16.1 C 8.25 g/m*3 16.1 C 0 km/h
1945 09-07-2011 01:00:00 15.54 C 8.27 g/m*3 15.54 C 0 km/h
1946 09-07-2011 02:00:00 14.92 C 8.32 g/m*3 14.92 C 0 km/h
1947 09-07-2011 03:00:00 13.98 C 8.38 g/m*3 13.98 C 0 km/h
1948 09-07-2011 04:00:00 13.98 C 8.53 g/m*3 13.98 C 0 km/h
1949 09-07-2011 05:00:00 14.48 C 8.94 g/m*3 14.48 C 0 km/h
1950 09-07-2011 06:00:00 15.26 C 9.2 g/m*3 15.26 C 0 km/h
Sensor: Nr:Datum:Temp:Abs-Feuchte:Windchill:Wind:
Aussen-T/F 1951 09-07-2011 07:00:00 16.32 C 9.47 g/m*3 16.32 C 0 km/h
1952 09-07-2011 08:00:00 18.72 C 9.17 g/m*3 18.72 C 0 km/h
1953 09-07-2011 09:00:00 22 C 8.73 g/m*3 22 C 0 km/h
1954 09-07-2011 10:00:00 24.38 C 7.87 g/m*3 24.38 C 0 km/h
1955 09-07-2011 11:00:00 25.2 C 7.17 g/m*3 25.2 C 0 km/h
1956 09-07-2011 12:00:00 25.32 C 7.17 g/m*3 25.32 C 0 km/h
1957 09-07-2011 13:00:00 28.02 C 6.53 g/m*3 28.02 C 0 km/h
1958 09-07-2011 14:00:00 29.46 C 5.95 g/m*3 29.46 C 0 km/h
1959 09-07-2011 15:00:00 29.48 C 5.9 g/m*3 29.48 C 0 km/h
1960 09-07-2011 16:00:00 29.52 C 5.91 g/m*3 29.52 C 0 km/h
1961 09-07-2011 17:00:00 28.96 C 5.73 g/m*3 28.96 C 0 km/h
1962 09-07-2011 18:00:00 27.52 C 5.56 g/m*3 27.52 C 0 km/h
1963 09-07-2011 19:00:00 23.36 C 8.1 g/m*3 23.36 C 0 km/h
1964 09-07-2011 20:00:00 21.68 C 8.5 g/m*3 21.68 C 0 km/h
1965 09-07-2011 21:00:00 20.42 C 8.61 g/m*3 20.42 C 0 km/h
1966 09-07-2011 22:00:00 19.22 C 8.58 g/m*3 19.22 C 0 km/h
1967 09-07-2011 23:00:00 16.9 C 8.77 g/m*3 16.9 C 0 km/h
1968 10-07-2011 00:00:00 16.08 C 8.87 g/m*3 16.08 C 0 km/h
1969 10-07-2011 01:00:00 14.86 C 8.98 g/m*3 14.86 C 0 km/h
1970 10-07-2011 02:00:00 13.86 C 8.85 g/m*3 13.86 C 0 km/h
1971 10-07-2011 03:00:00 14.3 C 9.07 g/m*3 14.3 C 0 km/h
1972 10-07-2011 04:00:00 14.04 C 8.83 g/m*3 14.04 C 0 km/h
1973 10-07-2011 05:00:00 12.88 C 9.16 g/m*3 12.88 C 0 km/h
1974 10-07-2011 06:00:00 12.88 C 9.25 g/m*3 12.88 C 0 km/h
1975 10-07-2011 07:00:00 13.92 C 9.6 g/m*3 13.92 C 0 km/h
Sensor: Nr:Datum:Temp:Abs-Feuchte:Windchill:Wind:
Aussen-T/F 1976 10-07-2011 08:00:00 14.6 C 9.81 g/m*3 14.6 C 0 km/h
1977 10-07-2011 09:00:00 17 C 9.52 g/m*3 17 C 0 km/h
1978 10-07-2011 10:00:00 20.38 C 8.34 g/m*3 20.38 C 0 km/h
1979 10-07-2011 11:00:00 22.94 C 6.19 g/m*3 22.94 C 0 km/h
1980 10-07-2011 12:00:00 24.7 C 5.52 g/m*3 24.7 C 0 km/h
1981 10-07-2011 13:00:00 26.68 C 5.31 g/m*3 26.68 C 0 km/h
1982 10-07-2011 14:00:00 26.34 C 5.16 g/m*3 26.34 C 0 km/h
1983 10-07-2011 15:00:00 25.42 C 5.85 g/m*3 25.42 C 0 km/h
1984 10-07-2011 16:00:00 21.98 C 9.11 g/m*3 21.98 C 0 km/h
1985 10-07-2011 17:00:00 21.9 C 9.34 g/m*3 21.9 C 0 km/h
1986 10-07-2011 18:00:00 21.38 C 9.44 g/m*3 21.38 C 0 km/h
1987 10-07-2011 19:00:00 18.56 C 10.38 g/m*3 18.56 C 0 km/h
1988 10-07-2011 20:00:00 16.6 C 11.13 g/m*3 16.6 C 0 km/h
1989 10-07-2011 21:00:00 16.12 C 11.25 g/m*3 16.12 C 0 km/h
1990 10-07-2011 22:00:00 15.28 C 10.62 g/m*3 15.28 C 0 km/h
1991 10-07-2011 23:00:00 14.78 C 10.6 g/m*3 14.78 C 0 km/h
1992 11-07-2011 00:00:00 14.84 C 10.87 g/m*3 14.84 C 0 km/h
1993 11-07-2011 01:00:00 14.54 C 10.82 g/m*3 14.54 C 0 km/h
1994 11-07-2011 02:00:00 14.46 C 10.82 g/m*3 14.46 C 0 km/h
1995 11-07-2011 03:00:00 13.66 C 10.37 g/m*3 13.66 C 0 km/h
1996 11-07-2011 04:00:00 13.06 C 10.04 g/m*3 13.06 C 0 km/h
1997 11-07-2011 05:00:00 13 C 10.09 g/m*3 13 C 0 km/h
1998 11-07-2011 06:00:00 14.02 C 10.75 g/m*3 14.02 C 0 km/h
1999 11-07-2011 07:00:00 15.22 C 10.5 g/m*3 15.22 C 0 km/h
2000 11-07-2011 08:00:00 15.92 C 10.33 g/m*3 15.92 C 0 km/h
Sensor: Nr:Datum:Temp:Abs-Feuchte:Windchill:Wind:
Aussen-T/F 2001 11-07-2011 09:00:00 17.58 C 9.89 g/m*3 17.58 C 0 km/h
2002 11-07-2011 10:00:00 18.66 C 9.97 g/m*3 18.66 C 0 km/h
2003 11-07-2011 11:00:00 21.08 C 8.1 g/m*3 21.08 C 0 km/h
2004 11-07-2011 12:00:00 23.04 C 7.79 g/m*3 23.04 C 0 km/h
2005 11-07-2011 13:00:00 27.16 C 7.22 g/m*3 27.16 C 0 km/h
2006 11-07-2011 14:00:00 28.7 C 6.89 g/m*3 28.7 C 0 km/h
2007 11-07-2011 15:00:00 29.72 C 6.33 g/m*3 29.72 C 0 km/h
2008 11-07-2011 16:00:00 31.54 C 6.72 g/m*3 31.54 C 0 km/h
2009 11-07-2011 17:00:00 32 C 6.75 g/m*3 32 C 0 km/h
2010 11-07-2011 18:00:00 31.66 C 6.63 g/m*3 31.66 C 0 km/h
2011 11-07-2011 19:00:00 29.5 C 6.2 g/m*3 29.5 C 0 km/h
2012 11-07-2011 20:00:00 24.72 C 7.79 g/m*3 24.72 C 0 km/h
2013 11-07-2011 21:00:00 21.1 C 8.29 g/m*3 21.1 C 0 km/h
2014 11-07-2011 22:00:00 19.1 C 8.23 g/m*3 19.1 C 0 km/h
2015 11-07-2011 23:00:00 17.42 C 8.34 g/m*3 17.42 C 0 km/h
2016 12-07-2011 00:00:00 15.54 C 8.53 g/m*3 15.54 C 0 km/h
2017 12-07-2011 01:00:00 14.44 C 8.65 g/m*3 14.44 C 0 km/h
2018 12-07-2011 02:00:00 13.44 C 8.65 g/m*3 13.44 C 0 km/h
2019 12-07-2011 03:00:00 12.66 C 8.57 g/m*3 12.66 C 0 km/h
2020 12-07-2011 04:00:00 12.02 C 8.62 g/m*3 12.02 C 0 km/h
2021 12-07-2011 05:00:00 11.7 C 8.79 g/m*3 11.7 C 0 km/h
2022 12-07-2011 06:00:00 11.9 C 9.04 g/m*3 11.9 C 0 km/h
2023 12-07-2011 07:00:00 12.7 C 9.53 g/m*3 12.7 C 0 km/h
2024 12-07-2011 08:00:00 15.28 C 10.41 g/m*3 15.28 C 0 km/h
2025 12-07-2011 09:00:00 19.62 C 9.97 g/m*3 19.62 C 0 km/h
Sensor: Nr:Datum:Temp:Abs-Feuchte:Windchill:Wind:
Aussen-T/F 2026 12-07-2011 10:00:00 25.08 C 8.74 g/m*3 25.08 C 0 km/h
2027 12-07-2011 11:00:00 27.52 C 7.42 g/m*3 27.52 C 0 km/h
2028 12-07-2011 12:00:00 27.72 C 6.96 g/m*3 27.72 C 0 km/h
2029 12-07-2011 13:00:00 30.48 C 6.91 g/m*3 30.48 C 0 km/h
2030 12-07-2011 14:00:00 32.42 C 6.9 g/m*3 32.42 C 0 km/h
2031 12-07-2011 15:00:00 29.96 C 6.84 g/m*3 29.96 C 0 km/h
2032 12-07-2011 16:00:00 28.78 C 7.72 g/m*3 28.78 C 0 km/h
2033 12-07-2011 17:00:00 21.06 C 12.39 g/m*3 21.06 C 0 km/h
2034 12-07-2011 18:00:00 20.22 C 13.2 g/m*3 20.22 C 0 km/h
2035 12-07-2011 19:00:00 21.32 C 13.4 g/m*3 21.32 C 0 km/h
2036 12-07-2011 20:00:00 21 C 12.24 g/m*3 21 C 0 km/h
2037 12-07-2011 21:00:00 18.62 C 12.49 g/m*3 18.62 C 0 km/h
2038 12-07-2011 22:00:00 17.28 C 12.48 g/m*3 17.28 C 0 km/h
2039 12-07-2011 23:00:00 16.82 C 12.42 g/m*3 16.82 C 0 km/h
2040 13-07-2011 00:00:00 16.58 C 12.42 g/m*3 16.58 C 0 km/h
2041 13-07-2011 01:00:00 16.14 C 12.09 g/m*3 16.14 C 0 km/h
2042 13-07-2011 02:00:00 15.72 C 11.92 g/m*3 15.72 C 0 km/h
2043 13-07-2011 03:00:00 15.4 C 11.69 g/m*3 15.4 C 0 km/h
2044 13-07-2011 04:00:00 15.12 C 11.5 g/m*3 15.12 C 0 km/h
2045 13-07-2011 05:00:00 15.96 C 12.1 g/m*3 15.96 C 0 km/h
2046 13-07-2011 06:00:00 16.58 C 12.67 g/m*3 16.58 C 0 km/h
2047 13-07-2011 07:00:00 16.88 C 12.87 g/m*3 16.88 C 0 km/h
2048 13-07-2011 08:00:00 16.94 C 12.6 g/m*3 16.94 C 0 km/h
2049 13-07-2011 09:00:00 16.92 C 11.64 g/m*3 16.92 C 0 km/h
2050 13-07-2011 10:00:00 16.72 C 10.76 g/m*3 16.72 C 0 km/h
Sensor: Nr:Datum:Temp:Abs-Feuchte:Windchill:Wind:
Aussen-T/F 2051 13-07-2011 11:00:00 16.98 C 10.17 g/m*3 16.98 C 0 km/h
2052 13-07-2011 12:00:00 18.2 C 9.45 g/m*3 18.2 C 0 km/h
2053 13-07-2011 13:00:00 19 C 8.9 g/m*3 19 C 0 km/h
2054 13-07-2011 14:00:00 17.9 C 9.31 g/m*3 17.9 C 0 km/h
2055 13-07-2011 15:00:00 17.18 C 9.51 g/m*3 17.18 C 0 km/h
2056 13-07-2011 16:00:00 16.52 C 9.31 g/m*3 16.52 C 0 km/h
2057 13-07-2011 17:00:00 15.16 C 9.63 g/m*3 15.16 C 0 km/h
2058 13-07-2011 18:00:00 14.6 C 9.74 g/m*3 14.6 C 0 km/h
2059 13-07-2011 19:00:00 14.78 C 9.72 g/m*3 14.78 C 0 km/h
2060 13-07-2011 20:00:00 14.46 C 9.26 g/m*3 14.46 C 0 km/h
2061 13-07-2011 21:00:00 13.38 C 9.15 g/m*3 13.38 C 0 km/h
2062 13-07-2011 22:00:00 13.14 C 9.45 g/m*3 13.14 C 0 km/h
2063 13-07-2011 23:00:00 13.38 C 8.92 g/m*3 13.38 C 0 km/h
2064 14-07-2011 00:00:00 13.42 C 8.73 g/m*3 13.42 C 0 km/h
2065 14-07-2011 01:00:00 13.48 C 8.57 g/m*3 13.48 C 0 km/h
2066 14-07-2011 02:00:00 13.16 C 8.06 g/m*3 13.16 C 0 km/h
2067 14-07-2011 03:00:00 13.36 C 7.79 g/m*3 13.36 C 0 km/h
2068 14-07-2011 04:00:00 13.24 C 7.62 g/m*3 13.24 C 0 km/h
2069 14-07-2011 05:00:00 12.8 C 7.71 g/m*3 12.8 C 0 km/h
2070 14-07-2011 06:00:00 13.28 C 7.57 g/m*3 13.28 C 0 km/h
2071 14-07-2011 07:00:00 13.62 C 7.59 g/m*3 13.62 C 0 km/h
2072 14-07-2011 08:00:00 14.52 C 7.35 g/m*3 14.52 C 0 km/h
2073 14-07-2011 09:00:00 15.78 C 6.48 g/m*3 15.78 C 0 km/h
2074 14-07-2011 10:00:00 16.42 C 5.81 g/m*3 16.42 C 0 km/h
2075 14-07-2011 11:00:00 17.42 C 5.85 g/m*3 17.42 C 0 km/h
Sensor: Nr:Datum:Temp:Abs-Feuchte:Windchill:Wind:
Aussen-T/F 2076 14-07-2011 12:00:00 17.98 C 5.74 g/m*3 17.98 C 0 km/h
2077 14-07-2011 13:00:00 17.76 C 5.75 g/m*3 17.76 C 0 km/h
2078 14-07-2011 14:00:00 19.5 C 5.57 g/m*3 19.5 C 0 km/h
2079 14-07-2011 15:00:00 20.8 C 5.69 g/m*3 20.8 C 0 km/h
2080 14-07-2011 16:00:00 18.9 C 5.83 g/m*3 18.9 C 0 km/h
2081 14-07-2011 17:00:00 17.92 C 6.42 g/m*3 17.92 C 0 km/h
2082 14-07-2011 18:00:00 17.56 C 6.16 g/m*3 17.56 C 0 km/h
2083 14-07-2011 19:00:00 16.86 C 6.46 g/m*3 16.86 C 0 km/h
2084 14-07-2011 20:00:00 16 C 6.32 g/m*3 16 C 0 km/h
2085 14-07-2011 21:00:00 15.08 C 6.55 g/m*3 15.08 C 0 km/h
2086 14-07-2011 22:00:00 14.3 C 6.71 g/m*3 14.3 C 0 km/h
2087 14-07-2011 23:00:00 13.74 C 6.86 g/m*3 13.74 C 0 km/h
2088 15-07-2011 00:00:00 13.52 C 6.98 g/m*3 13.52 C 0 km/h
2089 15-07-2011 01:00:00 13.46 C 6.79 g/m*3 13.46 C 0 km/h
2090 15-07-2011 02:00:00 13.42 C 6.84 g/m*3 13.42 C 0 km/h
2091 15-07-2011 03:00:00 13.38 C 6.8 g/m*3 13.38 C 0 km/h
2092 15-07-2011 04:00:00 13.5 C 6.78 g/m*3 13.5 C 0 km/h
2093 15-07-2011 05:00:00 13.4 C 7.07 g/m*3 13.4 C 0 km/h
2094 15-07-2011 06:00:00 13.48 C 7.15 g/m*3 13.48 C 0 km/h
2095 15-07-2011 07:00:00 14.08 C 7.05 g/m*3 14.08 C 0 km/h
2096 15-07-2011 08:00:00 14.92 C 7.12 g/m*3 14.92 C 0 km/h
2097 15-07-2011 09:00:00 15.6 C 7.21 g/m*3 15.6 C 0 km/h
2098 15-07-2011 10:00:00 18.72 C 6.41 g/m*3 18.72 C 0 km/h
2099 15-07-2011 11:00:00 19.94 C 5.65 g/m*3 19.94 C 0 km/h
2100 15-07-2011 12:00:00 20.64 C 5.45 g/m*3 20.64 C 0 km/h
Sensor: Nr:Datum:Temp:Abs-Feuchte:Windchill:Wind:
Aussen-T/F 2101 15-07-2011 13:00:00 23.66 C 4.91 g/m*3 23.66 C 0 km/h
2102 15-07-2011 14:00:00 27.36 C 5.25 g/m*3 27.36 C 0 km/h
2103 15-07-2011 15:00:00 27.38 C 5.26 g/m*3 27.38 C 0 km/h
2104 15-07-2011 16:00:00 28.12 C 5.47 g/m*3 28.12 C 0 km/h
2105 15-07-2011 17:00:00 26.36 C 4.97 g/m*3 26.36 C 0 km/h
2106 15-07-2011 18:00:00 27 C 5.15 g/m*3 27 C 0 km/h
2107 15-07-2011 19:00:00 24.9 C 4.58 g/m*3 24.9 C 0 km/h
2108 15-07-2011 20:00:00 21.06 C 5.37 g/m*3 21.06 C 0 km/h
2109 15-07-2011 21:00:00 17.38 C 6.04 g/m*3 17.38 C 0 km/h
2110 15-07-2011 22:00:00 14.64 C 6.27 g/m*3 14.64 C 0 km/h
2111 15-07-2011 23:00:00 12.94 C 6.26 g/m*3 12.94 C 0 km/h
2112 16-07-2011 00:00:00 12.04 C 6.24 g/m*3 12.04 C 0 km/h
2113 16-07-2011 01:00:00 10.9 C 6.45 g/m*3 10.9 C 0 km/h
2114 16-07-2011 02:00:00 10.2 C 6.74 g/m*3 10.2 C 0 km/h
2115 16-07-2011 03:00:00 9.54 C 6.9 g/m*3 9.54 C 0 km/h
2116 16-07-2011 04:00:00 8.8 C 6.95 g/m*3 8.8 C 0 km/h
2117 16-07-2011 05:00:00 8.42 C 7.05 g/m*3 8.42 C 0 km/h
2118 16-07-2011 06:00:00 8.68 C 7.29 g/m*3 8.68 C 0 km/h
2119 16-07-2011 07:00:00 11.4 C 8.05 g/m*3 11.4 C 0 km/h
2120 16-07-2011 08:00:00 14.4 C 7.64 g/m*3 14.4 C 0 km/h
2121 16-07-2011 09:00:00 17.82 C 7.45 g/m*3 17.82 C 0 km/h
2122 16-07-2011 10:00:00 21.48 C 7.01 g/m*3 21.48 C 0 km/h
2123 16-07-2011 11:00:00 25.1 C 4.91 g/m*3 25.1 C 0 km/h
2124 16-07-2011 12:00:00 25.94 C 5 g/m*3 25.94 C 0 km/h
2125 16-07-2011 13:00:00 26.82 C 5.1 g/m*3 26.82 C 0 km/h
Sensor: Nr:Datum:Temp:Abs-Feuchte:Windchill:Wind:
Aussen-T/F 2126 16-07-2011 14:00:00 27.24 C 5.27 g/m*3 27.24 C 0 km/h
2127 16-07-2011 15:00:00 27.48 C 5.29 g/m*3 27.48 C 0 km/h
2128 16-07-2011 16:00:00 27.78 C 5.37 g/m*3 27.78 C 0 km/h
2129 16-07-2011 17:00:00 26.42 C 5.43 g/m*3 26.42 C 0 km/h
2130 16-07-2011 18:00:00 25 C 5.8 g/m*3 25 C 0 km/h
2131 16-07-2011 19:00:00 24.18 C 6.02 g/m*3 24.18 C 0 km/h
2132 16-07-2011 20:00:00 22.48 C 6.98 g/m*3 22.48 C 0 km/h
2133 16-07-2011 21:00:00 21.74 C 7.34 g/m*3 21.74 C 0 km/h
2134 16-07-2011 22:00:00 20.625 C 8.2 g/m*3 20.63 C 0 km/h
2135 16-07-2011 23:00:00 20 C 8.61 g/m*3 20 C 0 km/h
2136 17-07-2011 00:00:00 17.7 C 10.59 g/m*3 17.7 C 0 km/h
2137 17-07-2011 01:00:00 16.48 C 11.64 g/m*3 16.48 C 0 km/h
2138 17-07-2011 02:00:00 16.52 C 12.09 g/m*3 16.52 C 0 km/h
2139 17-07-2011 03:00:00 16.52 C 12.32 g/m*3 16.52 C 0 km/h
2140 17-07-2011 04:00:00 16.56 C 12.4 g/m*3 16.56 C 0 km/h
2141 17-07-2011 05:00:00 16.22 C 12.15 g/m*3 16.22 C 0 km/h
2142 17-07-2011 06:00:00 16.12 C 12.19 g/m*3 16.12 C 0 km/h
2143 17-07-2011 07:00:00 15.88 C 12.04 g/m*3 15.88 C 0 km/h
2144 17-07-2011 08:00:00 15.64 C 11.84 g/m*3 15.64 C 0 km/h
2145 17-07-2011 09:00:00 15.78 C 11.51 g/m*3 15.78 C 0 km/h
2146 17-07-2011 10:00:00 17.66 C 10.93 g/m*3 17.66 C 0 km/h
2147 17-07-2011 11:00:00 19.28 C 10.77 g/m*3 19.28 C 0 km/h
2148 17-07-2011 12:00:00 20.6 C 10.17 g/m*3 20.6 C 0 km/h
2149 17-07-2011 13:00:00 20.2 C 8.71 g/m*3 20.2 C 0 km/h
2150 17-07-2011 14:00:00 19.24 C 8.2 g/m*3 19.24 C 0 km/h
Sensor: Nr:Datum:Temp:Abs-Feuchte:Windchill:Wind:
Aussen-T/F 2151 17-07-2011 15:00:00 20.24 C 7.4 g/m*3 20.24 C 0 km/h
2152 17-07-2011 16:00:00 20.8 C 6.66 g/m*3 20.8 C 0 km/h
2153 17-07-2011 17:00:00 19.62 C 6.73 g/m*3 19.62 C 0 km/h
2154 17-07-2011 18:00:00 19.22 C 6.9 g/m*3 19.22 C 0 km/h
2155 17-07-2011 19:00:00 18.2 C 7.46 g/m*3 18.2 C 0 km/h
2156 17-07-2011 20:00:00 17.88 C 7.56 g/m*3 17.88 C 0 km/h
2157 17-07-2011 21:00:00 16.88 C 8.42 g/m*3 16.88 C 0 km/h
2158 17-07-2011 22:00:00 15.76 C 7.98 g/m*3 15.76 C 0 km/h
2159 17-07-2011 23:00:00 15.48 C 7.66 g/m*3 15.48 C 0 km/h
2160 18-07-2011 00:00:00 15.48 C 8.32 g/m*3 15.48 C 0 km/h
2161 18-07-2011 01:00:00 14.48 C 8.92 g/m*3 14.48 C 0 km/h
2162 18-07-2011 02:00:00 14 C 8.97 g/m*3 14 C 0 km/h
2163 18-07-2011 03:00:00 12.92 C 9.43 g/m*3 12.92 C 0 km/h
2164 18-07-2011 04:00:00 12.64 C 9.54 g/m*3 12.64 C 0 km/h
2165 18-07-2011 05:00:00 13.14 C 9.36 g/m*3 13.14 C 0 km/h
2166 18-07-2011 06:00:00 13.14 C 9.04 g/m*3 13.14 C 0 km/h
2167 18-07-2011 07:00:00 15.48 C 8.71 g/m*3 15.48 C 0 km/h
2168 18-07-2011 08:00:00 16.1 C 8.58 g/m*3 16.1 C 0 km/h
2169 18-07-2011 09:00:00 17.14 C 8.05 g/m*3 17.14 C 0 km/h
2170 18-07-2011 10:00:00 17.58 C 7.73 g/m*3 17.58 C 0 km/h
2171 18-07-2011 11:00:00 18.62 C 7.49 g/m*3 18.62 C 0 km/h
2172 18-07-2011 12:00:00 19.28 C 7.22 g/m*3 19.28 C 0 km/h
2173 18-07-2011 13:00:00 20.84 C 6.72 g/m*3 20.84 C 0 km/h
2174 18-07-2011 14:00:00 23.56 C 6.32 g/m*3 23.56 C 0 km/h
2175 18-07-2011 15:00:00 23.92 C 6.15 g/m*3 23.92 C 0 km/h
Sensor: Nr:Datum:Temp:Abs-Feuchte:Windchill:Wind:
Aussen-T/F 2176 18-07-2011 16:00:00 16.9 C 7.8 g/m*3 16.9 C 0 km/h
2177 18-07-2011 17:00:00 23.7 C 7.36 g/m*3 23.7 C 0 km/h
2178 18-07-2011 18:00:00 18.76 C 6.2 g/m*3 18.76 C 0 km/h
2179 18-07-2011 19:00:00 20.12 C 5.95 g/m*3 20.12 C 0 km/h
2180 18-07-2011 20:00:00 17.4 C 6.97 g/m*3 17.4 C 0 km/h
2181 18-07-2011 21:00:00 14.82 C 7.66 g/m*3 14.82 C 0 km/h
2182 18-07-2011 22:00:00 13.7 C 7.86 g/m*3 13.7 C 0 km/h
2183 18-07-2011 23:00:00 13.94 C 7.96 g/m*3 13.94 C 0 km/h
2184 19-07-2011 00:00:00 12.72 C 8.07 g/m*3 12.72 C 0 km/h
2185 19-07-2011 01:00:00 12.02 C 8.24 g/m*3 12.02 C 0 km/h
2186 19-07-2011 02:00:00 11.6 C 8.4 g/m*3 11.6 C 0 km/h
2187 19-07-2011 03:00:00 11.54 C 8.49 g/m*3 11.54 C 0 km/h
2188 19-07-2011 04:00:00 11.68 C 8.73 g/m*3 11.68 C 0 km/h
2189 19-07-2011 05:00:00 11.78 C 8.66 g/m*3 11.78 C 0 km/h
2190 19-07-2011 06:00:00 10.98 C 8.38 g/m*3 10.98 C 0 km/h
2191 19-07-2011 07:00:00 12.68 C 9.25 g/m*3 12.68 C 0 km/h
2192 19-07-2011 08:00:00 15.2 C 8.88 g/m*3 15.2 C 0 km/h
2193 19-07-2011 09:00:00 17.96 C 8.31 g/m*3 17.96 C 0 km/h
2194 19-07-2011 10:00:00 19.16 C 7.73 g/m*3 19.16 C 0 km/h
2195 19-07-2011 11:00:00 21.02 C 7.41 g/m*3 21.02 C 0 km/h
2196 19-07-2011 12:00:00 22.44 C 6.73 g/m*3 22.44 C 0 km/h
2197 19-07-2011 13:00:00 24.46 C 6.7 g/m*3 24.46 C 0 km/h
2198 19-07-2011 14:00:00 26.36 C 6.06 g/m*3 26.36 C 0 km/h
2199 19-07-2011 15:00:00 24.84 C 5.98 g/m*3 24.84 C 0 km/h
2200 19-07-2011 16:00:00 21.06 C 8.68 g/m*3 21.06 C 0 km/h
Sensor: Nr:Datum:Temp:Abs-Feuchte:Windchill:Wind:
Aussen-T/F 2201 19-07-2011 17:00:00 16.54 C 11.09 g/m*3 16.54 C 0 km/h
2202 19-07-2011 18:00:00 16.88 C 11.29 g/m*3 16.88 C 0 km/h
2203 19-07-2011 19:00:00 16.38 C 11.12 g/m*3 16.38 C 0 km/h
2204 19-07-2011 20:00:00 15.88 C 11.09 g/m*3 15.88 C 0 km/h
2205 19-07-2011 21:00:00 14.76 C 10.24 g/m*3 14.76 C 0 km/h
2206 19-07-2011 22:00:00 14.3 C 9.78 g/m*3 14.3 C 0 km/h
2207 19-07-2011 23:00:00 14.28 C 9.5 g/m*3 14.28 C 0 km/h
2208 20-07-2011 00:00:00 14.32 C 9.45 g/m*3 14.32 C 0 km/h
2209 20-07-2011 01:00:00 14.28 C 9.4 g/m*3 14.28 C 0 km/h
2210 20-07-2011 02:00:00 13.86 C 9.3 g/m*3 13.86 C 0 km/h
2211 20-07-2011 03:00:00 13.32 C 9.39 g/m*3 13.32 C 0 km/h
2212 20-07-2011 04:00:00 13.4 C 9.56 g/m*3 13.4 C 0 km/h
2213 20-07-2011 05:00:00 13.28 C 9.53 g/m*3 13.28 C 0 km/h
2214 20-07-2011 06:00:00 13.76 C 9.67 g/m*3 13.76 C 0 km/h
2215 20-07-2011 07:00:00 14.76 C 9.88 g/m*3 14.76 C 0 km/h
2216 20-07-2011 08:00:00 15.38 C 9.97 g/m*3 15.38 C 0 km/h
2217 20-07-2011 09:00:00 16 C 9.84 g/m*3 16 C 0 km/h
2218 20-07-2011 10:00:00 16.96 C 9.67 g/m*3 16.96 C 0 km/h
2219 20-07-2011 11:00:00 18.08 C 9.6 g/m*3 18.08 C 0 km/h
2220 20-07-2011 12:00:00 20.56 C 8.68 g/m*3 20.56 C 0 km/h
2221 20-07-2011 13:00:00 23.06 C 8.5 g/m*3 23.06 C 0 km/h
2222 20-07-2011 14:00:00 17.56 C 10.11 g/m*3 17.56 C 0 km/h
2223 20-07-2011 15:00:00 16.22 C 11.27 g/m*3 16.22 C 0 km/h
2224 20-07-2011 16:00:00 17.4 C 11.97 g/m*3 17.4 C 0 km/h
2225 20-07-2011 17:00:00 18.08 C 11.7 g/m*3 18.08 C 0 km/h
Sensor: Nr:Datum:Temp:Abs-Feuchte:Windchill:Wind:
Aussen-T/F 2226 20-07-2011 18:00:00 16.54 C 11.49 g/m*3 16.54 C 0 km/h
2227 20-07-2011 19:00:00 15.82 C 11.62 g/m*3 15.82 C 0 km/h
2228 20-07-2011 20:00:00 15.52 C 11.51 g/m*3 15.52 C 0 km/h
2229 20-07-2011 21:00:00 14.88 C 11.25 g/m*3 14.88 C 0 km/h
2230 20-07-2011 22:00:00 14.62 C 11.15 g/m*3 14.62 C 0 km/h
2231 20-07-2011 23:00:00 14.4 C 11.08 g/m*3 14.4 C 0 km/h
2232 21-07-2011 00:00:00 14.36 C 11.1 g/m*3 14.36 C 0 km/h
2233 21-07-2011 01:00:00 14.34 C 11.08 g/m*3 14.34 C 0 km/h
2234 21-07-2011 02:00:00 14.16 C 10.96 g/m*3 14.16 C 0 km/h
2235 21-07-2011 03:00:00 13.7 C 10.75 g/m*3 13.7 C 0 km/h
2236 21-07-2011 04:00:00 13.46 C 10.62 g/m*3 13.46 C 0 km/h
2237 21-07-2011 05:00:00 13.14 C 10.41 g/m*3 13.14 C 0 km/h
2238 21-07-2011 06:00:00 13.4 C 10.58 g/m*3 13.4 C 0 km/h
2239 21-07-2011 07:00:00 14.24 C 11.14 g/m*3 14.24 C 0 km/h
2240 21-07-2011 08:00:00 15.52 C 11.3 g/m*3 15.52 C 0 km/h
2241 21-07-2011 09:00:00 17.3 C 10.02 g/m*3 17.3 C 0 km/h
2242 21-07-2011 10:00:00 19.3 C 9.42 g/m*3 19.3 C 0 km/h
2243 21-07-2011 11:00:00 20.18 C 9.19 g/m*3 20.18 C 0 km/h
2244 21-07-2011 12:00:00 20.94 C 9.02 g/m*3 20.94 C 0 km/h
2245 21-07-2011 13:00:00 23.3 C 8.24 g/m*3 23.3 C 0 km/h
2246 21-07-2011 14:00:00 18.84 C 9.72 g/m*3 18.84 C 0 km/h
2247 21-07-2011 15:00:00 17.94 C 12.15 g/m*3 17.94 C 0 km/h
2248 21-07-2011 16:00:00 20.5 C 10.96 g/m*3 20.5 C 0 km/h
2249 21-07-2011 17:00:00 17.18 C 11.44 g/m*3 17.18 C 0 km/h
2250 21-07-2011 18:00:00 18.02 C 11.35 g/m*3 18.02 C 0 km/h
Sensor: Nr:Datum:Temp:Abs-Feuchte:Windchill:Wind:
Aussen-T/F 2251 21-07-2011 19:00:00 19.18 C 11.53 g/m*3 19.18 C 0 km/h
2252 21-07-2011 20:00:00 16.9 C 11.51 g/m*3 16.9 C 0 km/h
2253 21-07-2011 21:00:00 14.76 C 10.72 g/m*3 14.76 C 0 km/h
2254 21-07-2011 22:00:00 13.86 C 10.33 g/m*3 13.86 C 0 km/h
2255 21-07-2011 23:00:00 13.78 C 10.45 g/m*3 13.78 C 0 km/h
2256 22-07-2011 00:00:00 14.02 C 10.63 g/m*3 14.02 C 0 km/h
2257 22-07-2011 01:00:00 14.44 C 10.9 g/m*3 14.44 C 0 km/h
2258 22-07-2011 02:00:00 14.74 C 11.03 g/m*3 14.74 C 0 km/h
2259 22-07-2011 03:00:00 14.64 C 10.89 g/m*3 14.64 C 0 km/h
2260 22-07-2011 04:00:00 14.12 C 10.52 g/m*3 14.12 C 0 km/h
2261 22-07-2011 05:00:00 14.38 C 10.72 g/m*3 14.38 C 0 km/h
2262 22-07-2011 06:00:00 14.62 C 10.75 g/m*3 14.62 C 0 km/h
2263 22-07-2011 07:00:00 15.4 C 9.78 g/m*3 15.4 C 0 km/h
2264 22-07-2011 08:00:00 15.36 C 8.65 g/m*3 15.36 C 0 km/h
2265 22-07-2011 09:00:00 16.16 C 6.8 g/m*3 16.16 C 0 km/h
2266 22-07-2011 10:00:00 18.3 C 6.44 g/m*3 18.3 C 0 km/h
2267 22-07-2011 11:00:00 18.64 C 6.45 g/m*3 18.64 C 0 km/h
2268 22-07-2011 12:00:00 19.44 C 6.76 g/m*3 19.44 C 0 km/h
2269 22-07-2011 13:00:00 18.56 C 6.89 g/m*3 18.56 C 0 km/h
2270 22-07-2011 14:00:00 17.98 C 7.21 g/m*3 17.98 C 0 km/h
2271 22-07-2011 15:00:00 18.18 C 6.89 g/m*3 18.18 C 0 km/h
2272 22-07-2011 16:00:00 21.68 C 6.59 g/m*3 21.68 C 0 km/h
2273 22-07-2011 17:00:00 21.4 C 6.45 g/m*3 21.4 C 0 km/h
2274 22-07-2011 18:00:00 19.4 C 6.67 g/m*3 19.4 C 0 km/h
2275 22-07-2011 19:00:00 18.78 C 6.69 g/m*3 18.78 C 0 km/h
Sensor: Nr:Datum:Temp:Abs-Feuchte:Windchill:Wind:
Aussen-T/F 2276 22-07-2011 20:00:00 17.28 C 6.65 g/m*3 17.28 C 0 km/h
2277 22-07-2011 21:00:00 16.18 C 6.75 g/m*3 16.18 C 0 km/h
2278 22-07-2011 22:00:00 15.88 C 6.41 g/m*3 15.88 C 0 km/h
2279 22-07-2011 23:00:00 15.32 C 6.46 g/m*3 15.32 C 0 km/h
2280 23-07-2011 00:00:00 14.32 C 6.64 g/m*3 14.32 C 0 km/h
2281 23-07-2011 01:00:00 12.14 C 7.16 g/m*3 12.14 C 0 km/h
2282 23-07-2011 02:00:00 11.18 C 7.19 g/m*3 11.18 C 0 km/h
2283 23-07-2011 03:00:00 10.72 C 7.38 g/m*3 10.72 C 0 km/h
2284 23-07-2011 04:00:00 9.88 C 7.42 g/m*3 9.88 C 0 km/h
2285 23-07-2011 05:00:00 9.54 C 7.5 g/m*3 9.54 C 0 km/h
2286 23-07-2011 06:00:00 9.88 C 7.4 g/m*3 9.88 C 0 km/h
2287 23-07-2011 07:00:00 10.88 C 7.33 g/m*3 10.88 C 0 km/h
2288 23-07-2011 08:00:00 12.98 C 7.11 g/m*3 12.98 C 0 km/h
2289 23-07-2011 09:00:00 14.48 C 6.73 g/m*3 14.48 C 0 km/h
2290 23-07-2011 10:00:00 15.8 C 6.14 g/m*3 15.8 C 0 km/h
2291 23-07-2011 11:00:00 15.9 C 6.64 g/m*3 15.9 C 0 km/h
2292 23-07-2011 12:00:00 17.92 C 5.75 g/m*3 17.92 C 0 km/h
2293 23-07-2011 13:00:00 17.8 C 5.86 g/m*3 17.8 C 0 km/h
2294 23-07-2011 14:00:00 19.16 C 5.96 g/m*3 19.16 C 0 km/h
2295 23-07-2011 15:00:00 18.9 C 6.12 g/m*3 18.9 C 0 km/h
2296 23-07-2011 16:00:00 16.72 C 6.94 g/m*3 16.72 C 0 km/h
2297 23-07-2011 17:00:00 16.2 C 7.17 g/m*3 16.2 C 0 km/h
2298 23-07-2011 18:00:00 16.7 C 7.11 g/m*3 16.7 C 0 km/h
2299 23-07-2011 19:00:00 16.04 C 7.7 g/m*3 16.04 C 0 km/h
2300 23-07-2011 20:00:00 12.64 C 9.25 g/m*3 12.64 C 0 km/h
Sensor: Nr:Datum:Temp:Abs-Feuchte:Windchill:Wind:
Aussen-T/F 2301 23-07-2011 21:00:00 12.24 C 9.22 g/m*3 12.24 C 0 km/h
2302 23-07-2011 22:00:00 11.5 C 8.86 g/m*3 11.5 C 0 km/h
2303 23-07-2011 23:00:00 11.14 C 8.72 g/m*3 11.14 C 0 km/h
2304 24-07-2011 00:00:00 11.2 C 8.74 g/m*3 11.2 C 0 km/h
2305 24-07-2011 01:00:00 11.18 C 8.71 g/m*3 11.18 C 0 km/h
2306 24-07-2011 02:00:00 11.08 C 8.13 g/m*3 11.08 C 0 km/h
2307 24-07-2011 03:00:00 10.36 C 7.61 g/m*3 10.36 C 0 km/h
2308 24-07-2011 04:00:00 10.98 C 7.3 g/m*3 10.98 C 0 km/h
2309 24-07-2011 05:00:00 10.56 C 7.24 g/m*3 10.56 C 0 km/h
2310 24-07-2011 06:00:00 10 C 7.42 g/m*3 10 C 0 km/h
2311 24-07-2011 07:00:00 10 C 7.42 g/m*3 10 C 0 km/h
2312 24-07-2011 08:00:00 9.9 C 8.22 g/m*3 9.9 C 0 km/h
2313 24-07-2011 09:00:00 10.28 C 8.32 g/m*3 10.28 C 0 km/h
2314 24-07-2011 10:00:00 11.56 C 8.58 g/m*3 11.56 C 0 km/h
2315 24-07-2011 11:00:00 12.5 C 8.47 g/m*3 12.5 C 0 km/h
2316 24-07-2011 12:00:00 13.4 C 8.53 g/m*3 13.4 C 0 km/h
2317 24-07-2011 13:00:00 14.7 C 7.86 g/m*3 14.7 C 0 km/h
2318 24-07-2011 14:00:00 15.3 C 7.7 g/m*3 15.3 C 0 km/h
2319 24-07-2011 15:00:00 15.86 C 7.67 g/m*3 15.86 C 0 km/h
2320 24-07-2011 16:00:00 17.56 C 7.54 g/m*3 17.56 C 0 km/h
2321 24-07-2011 17:00:00 16.22 C 8.09 g/m*3 16.22 C 0 km/h
2322 24-07-2011 18:00:00 15.3 C 8.23 g/m*3 15.3 C 0 km/h
2323 24-07-2011 19:00:00 14.32 C 9.3 g/m*3 14.32 C 0 km/h
2324 24-07-2011 20:00:00 13.48 C 9.7 g/m*3 13.48 C 0 km/h
2325 24-07-2011 21:00:00 13 C 9.57 g/m*3 13 C 0 km/h
Sensor: Nr:Datum:Temp:Abs-Feuchte:Windchill:Wind:
Aussen-T/F 2326 24-07-2011 22:00:00 12.18 C 9.4 g/m*3 12.18 C 0 km/h
2327 24-07-2011 23:00:00 12.22 C 9.51 g/m*3 12.22 C 0 km/h
2328 25-07-2011 00:00:00 11.82 C 9.34 g/m*3 11.82 C 0 km/h
2329 25-07-2011 01:00:00 11.64 C 9.27 g/m*3 11.64 C 0 km/h
2330 25-07-2011 02:00:00 11.52 C 9.22 g/m*3 11.52 C 0 km/h
2331 25-07-2011 03:00:00 11.44 C 9.26 g/m*3 11.44 C 0 km/h
2332 25-07-2011 04:00:00 10.28 C 8.59 g/m*3 10.28 C 0 km/h
2333 25-07-2011 05:00:00 10.04 C 8.52 g/m*3 10.04 C 0 km/h
2334 25-07-2011 06:00:00 9.26 C 8.18 g/m*3 9.26 C 0 km/h
2335 25-07-2011 07:00:00 9.4 C 8.23 g/m*3 9.4 C 0 km/h
2336 25-07-2011 08:00:00 10.72 C 8.71 g/m*3 10.72 C 0 km/h
2337 25-07-2011 09:00:00 12.02 C 9.3 g/m*3 12.02 C 0 km/h
2338 25-07-2011 10:00:00 14.72 C 9.53 g/m*3 14.72 C 0 km/h
2339 25-07-2011 11:00:00 17.58 C 7.04 g/m*3 17.58 C 0 km/h
2340 25-07-2011 12:00:00 19.62 C 5.95 g/m*3 19.62 C 0 km/h
2341 25-07-2011 13:00:00 24.38 C 5.2 g/m*3 24.38 C 0 km/h
2342 25-07-2011 14:00:00 25.06 C 5.27 g/m*3 25.06 C 0 km/h
2343 25-07-2011 15:00:00 26.42 C 5.63 g/m*3 26.42 C 0 km/h
2344 25-07-2011 16:00:00 23.54 C 7.67 g/m*3 23.54 C 0 km/h
2345 25-07-2011 17:00:00 26 C 6.52 g/m*3 26 C 0 km/h
2346 25-07-2011 18:00:00 22.58 C 7.38 g/m*3 22.58 C 0 km/h
2347 25-07-2011 19:00:00 21.02 C 8.62 g/m*3 21.02 C 0 km/h
2348 25-07-2011 20:00:00 17.22 C 8.47 g/m*3 17.22 C 0 km/h
2349 25-07-2011 21:00:00 16.08 C 8.49 g/m*3 16.08 C 0 km/h
2350 25-07-2011 22:00:00 15.84 C 8.61 g/m*3 15.84 C 0 km/h
Sensor: Nr:Datum:Temp:Abs-Feuchte:Windchill:Wind:
Aussen-T/F 2351 25-07-2011 23:00:00 15.26 C 9.09 g/m*3 15.26 C 0 km/h
2352 26-07-2011 00:00:00 15.24 C 9.06 g/m*3 15.24 C 0 km/h
2353 26-07-2011 01:00:00 14.5 C 9.53 g/m*3 14.5 C 0 km/h
2354 26-07-2011 02:00:00 13.68 C 9.82 g/m*3 13.68 C 0 km/h
2355 26-07-2011 03:00:00 13.52 C 9.72 g/m*3 13.52 C 0 km/h
2356 26-07-2011 04:00:00 13.86 C 9.93 g/m*3 13.86 C 0 km/h
2357 26-07-2011 05:00:00 13.66 C 9.69 g/m*3 13.66 C 0 km/h
2358 26-07-2011 06:00:00 13.38 C 9.64 g/m*3 13.38 C 0 km/h
2359 26-07-2011 07:00:00 14.12 C 10.11 g/m*3 14.12 C 0 km/h
2360 26-07-2011 08:00:00 14.42 C 10.42 g/m*3 14.42 C 0 km/h
2361 26-07-2011 09:00:00 15.14 C 10.86 g/m*3 15.14 C 0 km/h
2362 26-07-2011 10:00:00 15.26 C 10.76 g/m*3 15.26 C 0 km/h
2363 26-07-2011 11:00:00 17.2 C 10.81 g/m*3 17.2 C 0 km/h
2364 26-07-2011 12:00:00 18.64 C 10.11 g/m*3 18.64 C 0 km/h
2365 26-07-2011 13:00:00 21.66 C 9.63 g/m*3 21.66 C 0 km/h
2366 26-07-2011 14:00:00 24.02 C 8.76 g/m*3 24.02 C 0 km/h
2367 26-07-2011 15:00:00 23.16 C 8.92 g/m*3 23.16 C 0 km/h
2368 26-07-2011 16:00:00 20.58 C 10.01 g/m*3 20.58 C 0 km/h
2369 26-07-2011 17:00:00 18.82 C 10.84 g/m*3 18.82 C 0 km/h
2370 26-07-2011 18:00:00 18.36 C 10.76 g/m*3 18.36 C 0 km/h
2371 26-07-2011 19:00:00 17.3 C 10.64 g/m*3 17.3 C 0 km/h
2372 26-07-2011 20:00:00 16.54 C 10.95 g/m*3 16.54 C 0 km/h
2373 26-07-2011 21:00:00 15.7 C 10.92 g/m*3 15.7 C 0 km/h
2374 26-07-2011 22:00:00 14.12 C 10.3 g/m*3 14.12 C 0 km/h
2375 26-07-2011 23:00:00 14.02 C 10.56 g/m*3 14.02 C 0 km/h
Sensor: Nr:Datum:Temp:Abs-Feuchte:Windchill:Wind:
Aussen-T/F 2376 27-07-2011 00:00:00 14.18 C 10.76 g/m*3 14.18 C 0 km/h
2377 27-07-2011 01:00:00 13.48 C 10.4 g/m*3 13.48 C 0 km/h
2378 27-07-2011 02:00:00 13.3 C 10.28 g/m*3 13.3 C 0 km/h
2379 27-07-2011 03:00:00 13.1 C 10.16 g/m*3 13.1 C 0 km/h
2380 27-07-2011 04:00:00 13.06 C 10.18 g/m*3 13.06 C 0 km/h
2381 27-07-2011 05:00:00 13.36 C 10.44 g/m*3 13.36 C 0 km/h
2382 27-07-2011 06:00:00 13.72 C 10.67 g/m*3 13.72 C 0 km/h
2383 27-07-2011 07:00:00 14.78 C 11.26 g/m*3 14.78 C 0 km/h
2384 27-07-2011 08:00:00 15.92 C 11.47 g/m*3 15.92 C 0 km/h
2385 27-07-2011 09:00:00 16.76 C 10.61 g/m*3 16.76 C 0 km/h
2386 27-07-2011 10:00:00 18.98 C 9.86 g/m*3 18.98 C 0 km/h
2387 27-07-2011 11:00:00 21.18 C 9.4 g/m*3 21.18 C 0 km/h
2388 27-07-2011 12:00:00 22.02 C 9.44 g/m*3 22.02 C 0 km/h
2389 27-07-2011 13:00:00 23.46 C 9.24 g/m*3 23.46 C 0 km/h
2390 27-07-2011 14:00:00 20.86 C 11.34 g/m*3 20.86 C 0 km/h
2391 27-07-2011 15:00:00 17.54 C 11.87 g/m*3 17.54 C 0 km/h
2392 27-07-2011 16:00:00 19.12 C 12.44 g/m*3 19.12 C 0 km/h
2393 27-07-2011 17:00:00 18.58 C 12.15 g/m*3 18.58 C 0 km/h
2394 27-07-2011 18:00:00 20.26 C 12.28 g/m*3 20.26 C 0 km/h
2395 27-07-2011 19:00:00 20.36 C 11.61 g/m*3 20.36 C 0 km/h
2396 27-07-2011 20:00:00 17.38 C 11.99 g/m*3 17.38 C 0 km/h
2397 27-07-2011 21:00:00 16.16 C 11.72 g/m*3 16.16 C 0 km/h
2398 27-07-2011 22:00:00 15.9 C 11.73 g/m*3 15.9 C 0 km/h
2399 27-07-2011 23:00:00 15.62 C 11.66 g/m*3 15.62 C 0 km/h
2400 28-07-2011 00:00:00 15.42 C 11.58 g/m*3 15.42 C 0 km/h
Sensor: Nr:Datum:Temp:Abs-Feuchte:Windchill:Wind:
Aussen-T/F 2401 28-07-2011 01:00:00 15.34 C 11.65 g/m*3 15.34 C 0 km/h
2402 28-07-2011 02:00:00 15.38 C 11.68 g/m*3 15.38 C 0 km/h
2403 28-07-2011 03:00:00 15.4 C 11.72 g/m*3 15.4 C 0 km/h
2404 28-07-2011 04:00:00 15.06 C 11.51 g/m*3 15.06 C 0 km/h
2405 28-07-2011 05:00:00 15.04 C 11.54 g/m*3 15.04 C 0 km/h
2406 28-07-2011 06:00:00 15.26 C 11.72 g/m*3 15.26 C 0 km/h
2407 28-07-2011 07:00:00 15.82 C 12.08 g/m*3 15.82 C 0 km/h
2408 28-07-2011 08:00:00 16.1 C 12.17 g/m*3 16.1 C 0 km/h
2409 28-07-2011 09:00:00 16.56 C 11.81 g/m*3 16.56 C 0 km/h
2410 28-07-2011 10:00:00 17.38 C 11.31 g/m*3 17.38 C 0 km/h
2411 28-07-2011 11:00:00 18.16 C 11.16 g/m*3 18.16 C 0 km/h
2412 28-07-2011 12:00:00 19.1 C 11.02 g/m*3 19.1 C 0 km/h
2413 28-07-2011 13:00:00 20.92 C 10.25 g/m*3 20.92 C 0 km/h
2414 28-07-2011 14:00:00 22.16 C 10.22 g/m*3 22.16 C 0 km/h
2415 28-07-2011 15:00:00 26.06 C 9.53 g/m*3 26.06 C 0 km/h
2416 28-07-2011 16:00:00 30.66 C 7.79 g/m*3 30.66 C 0 km/h
2417 28-07-2011 17:00:00 28.34 C 8.37 g/m*3 28.34 C 0 km/h
2418 28-07-2011 18:00:00 23.26 C 9.72 g/m*3 23.26 C 0 km/h
2419 28-07-2011 19:00:00 20.92 C 10.79 g/m*3 20.92 C 0 km/h
2420 28-07-2011 20:00:00 18.86 C 11.05 g/m*3 18.86 C 0 km/h
2421 28-07-2011 21:00:00 16.44 C 11.08 g/m*3 16.44 C 0 km/h
2422 28-07-2011 22:00:00 15.35 C 10.94 g/m*3 15.35 C 0 km/h
2423 28-07-2011 23:00:00 15.46 C 11.05 g/m*3 15.46 C 0 km/h
2424 29-07-2011 00:00:00 15.6 C 11.06 g/m*3 15.6 C 0 km/h
2425 29-07-2011 01:00:00 15.92 C 11.09 g/m*3 15.92 C 0 km/h
Sensor: Nr:Datum:Temp:Abs-Feuchte:Windchill:Wind:
Aussen-T/F 2426 29-07-2011 02:00:00 16.04 C 10.82 g/m*3 16.04 C 0 km/h
2427 29-07-2011 03:00:00 15.56 C 11.04 g/m*3 15.56 C 0 km/h
2428 29-07-2011 04:00:00 15.22 C 11.05 g/m*3 15.22 C 0 km/h
2429 29-07-2011 05:00:00 14.92 C 10.97 g/m*3 14.92 C 0 km/h
2430 29-07-2011 06:00:00 15.28 C 11.27 g/m*3 15.28 C 0 km/h
2431 29-07-2011 07:00:00 16.1 C 11.13 g/m*3 16.1 C 0 km/h
2432 29-07-2011 08:00:00 16.72 C 11.07 g/m*3 16.72 C 0 km/h
2433 29-07-2011 09:00:00 17.62 C 11.05 g/m*3 17.62 C 0 km/h
2434 29-07-2011 10:00:00 17.66 C 11.14 g/m*3 17.66 C 0 km/h
2435 29-07-2011 11:00:00 18.88 C 10.91 g/m*3 18.88 C 0 km/h
2436 29-07-2011 12:00:00 19.18 C 10.24 g/m*3 19.18 C 0 km/h
2437 29-07-2011 13:00:00 19.94 C 9.78 g/m*3 19.94 C 0 km/h
2438 29-07-2011 14:00:00 22.44 C 8.28 g/m*3 22.44 C 0 km/h
2439 29-07-2011 15:00:00 21.62 C 8.24 g/m*3 21.62 C 0 km/h
2440 29-07-2011 16:00:00 21.4 C 7.87 g/m*3 21.4 C 0 km/h
2441 29-07-2011 17:00:00 22 C 7.45 g/m*3 22 C 0 km/h
2442 29-07-2011 18:00:00 20.44 C 7.77 g/m*3 20.44 C 0 km/h
2443 29-07-2011 19:00:00 22.1 C 6.83 g/m*3 22.1 C 0 km/h
2444 29-07-2011 20:00:00 19.48 C 7.41 g/m*3 19.48 C 0 km/h
2445 29-07-2011 21:00:00 16.12 C 8.21 g/m*3 16.12 C 0 km/h
2446 29-07-2011 22:00:00 14.1 C 9.08 g/m*3 14.1 C 0 km/h
2447 29-07-2011 23:00:00 14.68 C 8.95 g/m*3 14.68 C 0 km/h
2448 30-07-2011 00:00:00 14.16 C 9.01 g/m*3 14.16 C 0 km/h
2449 30-07-2011 01:00:00 15 C 9.33 g/m*3 15 C 0 km/h
2450 30-07-2011 02:00:00 15.3 C 9.35 g/m*3 15.3 C 0 km/h
Sensor: Nr:Datum:Temp:Abs-Feuchte:Windchill:Wind:
Aussen-T/F 2451 30-07-2011 03:00:00 14.96 C 9.06 g/m*3 14.96 C 0 km/h
2452 30-07-2011 04:00:00 14.06 C 9.25 g/m*3 14.06 C 0 km/h
2453 30-07-2011 05:00:00 13.32 C 9.81 g/m*3 13.32 C 0 km/h
2454 30-07-2011 06:00:00 13.44 C 9.51 g/m*3 13.44 C 0 km/h
2455 30-07-2011 07:00:00 13.64 C 9.23 g/m*3 13.64 C 0 km/h
2456 30-07-2011 08:00:00 14 C 9.09 g/m*3 14 C 0 km/h
2457 30-07-2011 09:00:00 14.74 C 8.99 g/m*3 14.74 C 0 km/h
2458 30-07-2011 10:00:00 14.88 C 8.86 g/m*3 14.88 C 0 km/h
2459 30-07-2011 11:00:00 15.46 C 8.39 g/m*3 15.46 C 0 km/h
2460 30-07-2011 12:00:00 16.28 C 7.9 g/m*3 16.28 C 0 km/h
2461 30-07-2011 13:00:00 16.12 C 7.66 g/m*3 16.12 C 0 km/h
2462 30-07-2011 14:00:00 16.06 C 7.82 g/m*3 16.06 C 0 km/h
2463 30-07-2011 15:00:00 15.98 C 7.87 g/m*3 15.98 C 0 km/h
2464 30-07-2011 16:00:00 16.78 C 7.83 g/m*3 16.78 C 0 km/h
2465 30-07-2011 17:00:00 15.98 C 7.89 g/m*3 15.98 C 0 km/h
2466 30-07-2011 18:00:00 16.28 C 7.98 g/m*3 16.28 C 0 km/h
2467 30-07-2011 19:00:00 15.96 C 7.77 g/m*3 15.96 C 0 km/h
2468 30-07-2011 20:00:00 15.36 C 7.97 g/m*3 15.36 C 0 km/h
2469 30-07-2011 21:00:00 14.82 C 8.02 g/m*3 14.82 C 0 km/h
2470 30-07-2011 22:00:00 14.46 C 8.21 g/m*3 14.46 C 0 km/h
2471 30-07-2011 23:00:00 14.12 C 8.53 g/m*3 14.12 C 0 km/h
2472 31-07-2011 00:00:00 14.18 C 8.56 g/m*3 14.18 C 0 km/h
2473 31-07-2011 01:00:00 14.14 C 8.52 g/m*3 14.14 C 0 km/h
2474 31-07-2011 02:00:00 13.9 C 8.73 g/m*3 13.9 C 0 km/h
2475 31-07-2011 03:00:00 13.74 C 8.62 g/m*3 13.74 C 0 km/h
Sensor: Nr:Datum:Temp:Abs-Feuchte:Windchill:Wind:
Aussen-T/F 2476 31-07-2011 04:00:00 13.52 C 8.55 g/m*3 13.52 C 0 km/h
2477 31-07-2011 05:00:00 13.46 C 8.66 g/m*3 13.46 C 0 km/h
2478 31-07-2011 06:00:00 13.44 C 8.62 g/m*3 13.44 C 0 km/h
2479 31-07-2011 07:00:00 13.5 C 8.52 g/m*3 13.5 C 0 km/h
2480 31-07-2011 08:00:00 14.24 C 7.91 g/m*3 14.24 C 0 km/h
2481 31-07-2011 09:00:00 14.94 C 7.13 g/m*3 14.94 C 0 km/h
2482 31-07-2011 10:00:00 15.78 C 6.61 g/m*3 15.78 C 0 km/h
2483 31-07-2011 11:00:00 16.18 C 6.56 g/m*3 16.18 C 0 km/h
2484 31-07-2011 12:00:00 17.1 C 6.4 g/m*3 17.1 C 0 km/h
2485 31-07-2011 13:00:00 17.96 C 6.37 g/m*3 17.96 C 0 km/h
2486 31-07-2011 14:00:00 18 C 6.64 g/m*3 18 C 0 km/h
2487 31-07-2011 15:00:00 17.86 C 6.46 g/m*3 17.86 C 0 km/h
2488 31-07-2011 16:00:00 17.98 C 6.66 g/m*3 17.98 C 0 km/h
2489 31-07-2011 17:00:00 17.6 C 6.78 g/m*3 17.6 C 0 km/h
2490 31-07-2011 18:00:00 17.02 C 6.69 g/m*3 17.02 C 0 km/h
2491 31-07-2011 19:00:00 16.62 C 6.93 g/m*3 16.62 C 0 km/h
2492 31-07-2011 20:00:00 15.98 C 7.13 g/m*3 15.98 C 0 km/h
2493 31-07-2011 21:00:00 15.06 C 7.62 g/m*3 15.06 C 0 km/h
2494 31-07-2011 22:00:00 12.8 C 7.89 g/m*3 12.8 C 0 km/h
2495 31-07-2011 23:00:00 11.64 C 8.04 g/m*3 11.64 C 0 km/h
2496 01-08-2011 00:00:00 9.86 C 7.62 g/m*3 9.86 C 0 km/h
2497 01-08-2011 01:00:00 9.14 C 7.6 g/m*3 9.14 C 0 km/h
2498 01-08-2011 02:00:00 8.42 C 7.39 g/m*3 8.42 C 0 km/h
2499 01-08-2011 03:00:00 8 C 7.26 g/m*3 8 C 0 km/h
2500 01-08-2011 04:00:00 7.6 C 7.17 g/m*3 7.6 C 0 km/h
Sensor: Nr:Datum:Temp:Abs-Feuchte:Windchill:Wind:
Aussen-T/F 2501 01-08-2011 05:00:00 7.22 C 7 g/m*3 7.22 C 0 km/h
2502 01-08-2011 06:00:00 7.38 C 7.12 g/m*3 7.38 C 0 km/h
2503 01-08-2011 07:00:00 8.72 C 7.76 g/m*3 8.72 C 0 km/h
2504 01-08-2011 08:00:00 9.96 C 8.12 g/m*3 9.96 C 0 km/h
2505 01-08-2011 09:00:00 11.38 C 8.16 g/m*3 11.38 C 0 km/h
2506 01-08-2011 10:00:00 14.1 C 8.62 g/m*3 14.1 C 0 km/h
2507 01-08-2011 11:00:00 18.4 C 8.02 g/m*3 18.4 C 0 km/h
2508 01-08-2011 12:00:00 19.62 C 7.98 g/m*3 19.62 C 0 km/h
2509 01-08-2011 13:00:00 22.22 C 8.06 g/m*3 22.22 C 0 km/h
2510 01-08-2011 14:00:00 27.08 C 7.44 g/m*3 27.08 C 0 km/h
2511 01-08-2011 15:00:00 28.96 C 7.05 g/m*3 28.96 C 0 km/h
2512 01-08-2011 16:00:00 29.16 C 7.19 g/m*3 29.16 C 0 km/h
2513 01-08-2011 17:00:00 28.88 C 7.88 g/m*3 28.88 C 0 km/h
2514 01-08-2011 18:00:00 29.72 C 7.59 g/m*3 29.72 C 0 km/h
2515 01-08-2011 19:00:00 27.62 C 8.2 g/m*3 27.62 C 0 km/h
2516 01-08-2011 20:00:00 21.32 C 10.08 g/m*3 21.32 C 0 km/h
2517 01-08-2011 21:00:00 18.52 C 9.76 g/m*3 18.52 C 0 km/h
2518 01-08-2011 22:00:00 16.78 C 9.94 g/m*3 16.78 C 0 km/h
2519 01-08-2011 23:00:00 15.18 C 10.09 g/m*3 15.18 C 0 km/h
2520 02-08-2011 00:00:00 14.1 C 9.98 g/m*3 14.1 C 0 km/h
2521 02-08-2011 01:00:00 13.4 C 9.79 g/m*3 13.4 C 0 km/h
2522 02-08-2011 02:00:00 12.78 C 9.69 g/m*3 12.78 C 0 km/h
2523 02-08-2011 03:00:00 12.36 C 9.48 g/m*3 12.36 C 0 km/h
2524 02-08-2011 04:00:00 12 C 9.36 g/m*3 12 C 0 km/h
2525 02-08-2011 05:00:00 11.52 C 9.16 g/m*3 11.52 C 0 km/h
Sensor: Nr:Datum:Temp:Abs-Feuchte:Windchill:Wind:
Aussen-T/F 2526 02-08-2011 06:00:00 11.5 C 9.19 g/m*3 11.5 C 0 km/h
2527 02-08-2011 07:00:00 11.74 C 9.33 g/m*3 11.74 C 0 km/h
2528 02-08-2011 08:00:00 12.88 C 10.02 g/m*3 12.88 C 0 km/h
2529 02-08-2011 09:00:00 15.2 C 11.45 g/m*3 15.2 C 0 km/h
2530 02-08-2011 10:00:00 18.78 C 11.84 g/m*3 18.78 C 0 km/h
2531 02-08-2011 11:00:00 22.22 C 10.46 g/m*3 22.22 C 0 km/h
2532 02-08-2011 12:00:00 24.78 C 8.82 g/m*3 24.78 C 0 km/h
2533 02-08-2011 13:00:00 27.72 C 8.19 g/m*3 27.72 C 0 km/h
2534 02-08-2011 14:00:00 31.42 C 6.81 g/m*3 31.42 C 0 km/h
2535 02-08-2011 15:00:00 31.72 C 6.72 g/m*3 31.72 C 0 km/h
2536 02-08-2011 16:00:00 32.62 C 6.98 g/m*3 32.62 C 0 km/h
2537 02-08-2011 17:00:00 32.64 C 6.99 g/m*3 32.64 C 0 km/h
2538 02-08-2011 18:00:00 31.52 C 6.98 g/m*3 31.52 C 0 km/h
2539 02-08-2011 19:00:00 27.38 C 9.67 g/m*3 27.38 C 0 km/h
2540 02-08-2011 20:00:00 23.38 C 10.42 g/m*3 23.38 C 0 km/h
2541 02-08-2011 21:00:00 21.28 C 10.31 g/m*3 21.28 C 0 km/h
2542 02-08-2011 22:00:00 19.84 C 10.44 g/m*3 19.84 C 0 km/h
2543 02-08-2011 23:00:00 18.24 C 10.72 g/m*3 18.24 C 0 km/h
2544 03-08-2011 00:00:00 17.02 C 10.84 g/m*3 17.02 C 0 km/h
2545 03-08-2011 01:00:00 15.98 C 10.75 g/m*3 15.98 C 0 km/h
2546 03-08-2011 02:00:00 15.16 C 10.62 g/m*3 15.16 C 0 km/h
2547 03-08-2011 03:00:00 14.5 C 10.4 g/m*3 14.5 C 0 km/h
2548 03-08-2011 04:00:00 14.42 C 10.57 g/m*3 14.42 C 0 km/h
2549 03-08-2011 05:00:00 14.4 C 10.75 g/m*3 14.4 C 0 km/h
2550 03-08-2011 06:00:00 15.36 C 11.4 g/m*3 15.36 C 0 km/h
Sensor: Nr:Datum:Temp:Abs-Feuchte:Windchill:Wind:
Aussen-T/F 2551 03-08-2011 07:00:00 16.4 C 11.92 g/m*3 16.4 C 0 km/h
2552 03-08-2011 08:00:00 18.52 C 11.98 g/m*3 18.52 C 0 km/h
2553 03-08-2011 09:00:00 18.12 C 11.94 g/m*3 18.12 C 0 km/h
2554 03-08-2011 10:00:00 18.3 C 12.95 g/m*3 18.3 C 0 km/h
2555 03-08-2011 11:00:00 21.24 C 12.93 g/m*3 21.24 C 0 km/h
2556 03-08-2011 12:00:00 23.82 C 12.71 g/m*3 23.82 C 0 km/h
2557 03-08-2011 13:00:00 25.94 C 12.76 g/m*3 25.94 C 0 km/h
2558 03-08-2011 14:00:00 25.76 C 11.82 g/m*3 25.76 C 0 km/h
2559 03-08-2011 15:00:00 28.32 C 10.96 g/m*3 28.32 C 0 km/h
2560 03-08-2011 16:00:00 24.88 C 11.62 g/m*3 24.88 C 0 km/h
2561 03-08-2011 17:00:00 21.2 C 13.42 g/m*3 21.2 C 0 km/h
2562 03-08-2011 18:00:00 20.06 C 13.42 g/m*3 20.06 C 0 km/h
2563 03-08-2011 19:00:00 19.92 C 14 g/m*3 19.92 C 0 km/h
2564 03-08-2011 20:00:00 19.32 C 13.82 g/m*3 19.32 C 0 km/h
2565 03-08-2011 21:00:00 18.66 C 13.83 g/m*3 18.66 C 0 km/h
2566 03-08-2011 22:00:00 18.5 C 13.83 g/m*3 18.5 C 0 km/h
2567 03-08-2011 23:00:00 18.42 C 13.86 g/m*3 18.42 C 0 km/h
2568 04-08-2011 00:00:00 18.24 C 13.71 g/m*3 18.24 C 0 km/h
2569 04-08-2011 01:00:00 18 C 13.55 g/m*3 18 C 0 km/h
2570 04-08-2011 02:00:00 17.88 C 13.57 g/m*3 17.88 C 0 km/h
2571 04-08-2011 03:00:00 17.72 C 13.44 g/m*3 17.72 C 0 km/h
2572 04-08-2011 04:00:00 17.22 C 13.08 g/m*3 17.22 C 0 km/h
2573 04-08-2011 05:00:00 16.4 C 12.51 g/m*3 16.4 C 0 km/h
2574 04-08-2011 06:00:00 15.86 C 12.13 g/m*3 15.86 C 0 km/h
2575 04-08-2011 07:00:00 16.24 C 12.44 g/m*3 16.24 C 0 km/h
Sensor: Nr:Datum:Temp:Abs-Feuchte:Windchill:Wind:
Aussen-T/F 2576 04-08-2011 08:00:00 17.2 C 12.71 g/m*3 17.2 C 0 km/h
2577 04-08-2011 09:00:00 18.3 C 12.2 g/m*3 18.3 C 0 km/h
2578 04-08-2011 10:00:00 20 C 11.96 g/m*3 20 C 0 km/h
2579 04-08-2011 11:00:00 21.08 C 11.7 g/m*3 21.08 C 0 km/h
2580 04-08-2011 12:00:00 22.7 C 11.4 g/m*3 22.7 C 0 km/h
2581 04-08-2011 13:00:00 25.78 C 10.39 g/m*3 25.78 C 0 km/h
2582 04-08-2011 14:00:00 30.64 C 9.17 g/m*3 30.64 C 0 km/h
2583 04-08-2011 15:00:00 29.36 C 9.37 g/m*3 29.36 C 0 km/h
2584 04-08-2011 16:00:00 30.96 C 7.92 g/m*3 30.96 C 0 km/h
2585 04-08-2011 17:00:00 26.82 C 9.48 g/m*3 26.82 C 0 km/h
2586 04-08-2011 18:00:00 28 C 9.41 g/m*3 28 C 0 km/h
2587 04-08-2011 19:00:00 26.82 C 10.91 g/m*3 26.82 C 0 km/h
2588 04-08-2011 20:00:00 22.22 C 12.38 g/m*3 22.22 C 0 km/h
2589 04-08-2011 21:00:00 20.76 C 12.46 g/m*3 20.76 C 0 km/h
2590 04-08-2011 22:00:00 21 C 12.46 g/m*3 21 C 0 km/h
2591 04-08-2011 23:00:00 18.98 C 12.11 g/m*3 18.98 C 0 km/h
2592 05-08-2011 00:00:00 18 C 12.93 g/m*3 18 C 0 km/h
2593 05-08-2011 01:00:00 17.54 C 12.85 g/m*3 17.54 C 0 km/h
2594 05-08-2011 02:00:00 17.32 C 12.74 g/m*3 17.32 C 0 km/h
2595 05-08-2011 03:00:00 17.22 C 12.81 g/m*3 17.22 C 0 km/h
2596 05-08-2011 04:00:00 17.52 C 13.14 g/m*3 17.52 C 0 km/h
2597 05-08-2011 05:00:00 17.6 C 13.2 g/m*3 17.6 C 0 km/h
2598 05-08-2011 06:00:00 17.78 C 13.22 g/m*3 17.78 C 0 km/h
2599 05-08-2011 07:00:00 18.68 C 12.86 g/m*3 18.68 C 0 km/h
2600 05-08-2011 08:00:00 20.34 C 12.48 g/m*3 20.34 C 0 km/h
Sensor: Nr:Datum:Temp:Abs-Feuchte:Windchill:Wind:
Aussen-T/F 2601 05-08-2011 09:00:00 20.84 C 12.63 g/m*3 20.84 C 0 km/h
2602 05-08-2011 10:00:00 22.6 C 12.17 g/m*3 22.6 C 0 km/h
2603 05-08-2011 11:00:00 24.3 C 11.68 g/m*3 24.3 C 0 km/h
2604 05-08-2011 12:00:00 25.12 C 11.08 g/m*3 25.12 C 0 km/h
2605 05-08-2011 13:00:00 27.5 C 10.32 g/m*3 27.5 C 0 km/h
2606 05-08-2011 14:00:00 27.42 C 9.96 g/m*3 27.42 C 0 km/h
2607 05-08-2011 15:00:00 29.46 C 8.66 g/m*3 29.46 C 0 km/h
2608 05-08-2011 16:00:00 29.42 C 9.23 g/m*3 29.42 C 0 km/h
2609 05-08-2011 17:00:00 27.32 C 9.9 g/m*3 27.32 C 0 km/h
2610 05-08-2011 18:00:00 28.62 C 11.59 g/m*3 28.62 C 0 km/h
2611 05-08-2011 19:00:00 25.82 C 12.29 g/m*3 25.82 C 0 km/h
2612 05-08-2011 20:00:00 21.8 C 13.81 g/m*3 21.8 C 0 km/h
2613 05-08-2011 21:00:00 19.92 C 14.38 g/m*3 19.92 C 0 km/h
2614 05-08-2011 22:00:00 19.48 C 14.38 g/m*3 19.48 C 0 km/h
2615 05-08-2011 23:00:00 18.88 C 14.08 g/m*3 18.88 C 0 km/h
2616 06-08-2011 00:00:00 18.12 C 13.49 g/m*3 18.12 C 0 km/h
2617 06-08-2011 01:00:00 17.8 C 13.39 g/m*3 17.8 C 0 km/h
2618 06-08-2011 02:00:00 17.34 C 13.11 g/m*3 17.34 C 0 km/h
2619 06-08-2011 03:00:00 17.24 C 13.06 g/m*3 17.24 C 0 km/h
2620 06-08-2011 04:00:00 17.7 C 13.49 g/m*3 17.7 C 0 km/h
2621 06-08-2011 05:00:00 17.12 C 13.03 g/m*3 17.12 C 0 km/h
2622 06-08-2011 06:00:00 16.9 C 12.92 g/m*3 16.9 C 0 km/h
2623 06-08-2011 07:00:00 18.02 C 13.75 g/m*3 18.02 C 0 km/h
2624 06-08-2011 08:00:00 19.28 C 14.61 g/m*3 19.28 C 0 km/h
2625 06-08-2011 09:00:00 21.26 C 14.84 g/m*3 21.26 C 0 km/h
Sensor: Nr:Datum:Temp:Abs-Feuchte:Windchill:Wind:
Aussen-T/F 2626 06-08-2011 10:00:00 23.54 C 13.23 g/m*3 23.54 C 0 km/h
2627 06-08-2011 11:00:00 24.58 C 12.77 g/m*3 24.58 C 0 km/h
2628 06-08-2011 12:00:00 25.24 C 12.46 g/m*3 25.24 C 0 km/h
2629 06-08-2011 13:00:00 26.04 C 12.2 g/m*3 26.04 C 0 km/h
2630 06-08-2011 14:00:00 22.18 C 13.14 g/m*3 22.18 C 0 km/h
2631 06-08-2011 15:00:00 20.34 C 13.89 g/m*3 20.34 C 0 km/h
2632 06-08-2011 16:00:00 18 C 13.09 g/m*3 18 C 0 km/h
2633 06-08-2011 17:00:00 18.56 C 13.37 g/m*3 18.56 C 0 km/h
2634 06-08-2011 18:00:00 18.56 C 13.53 g/m*3 18.56 C 0 km/h
2635 06-08-2011 19:00:00 18.34 C 13.51 g/m*3 18.34 C 0 km/h
2636 06-08-2011 20:00:00 18.04 C 13.46 g/m*3 18.04 C 0 km/h
2637 06-08-2011 21:00:00 17.66 C 13.37 g/m*3 17.66 C 0 km/h
2638 06-08-2011 22:00:00 17.56 C 13.32 g/m*3 17.56 C 0 km/h
2639 06-08-2011 23:00:00 16.98 C 12.49 g/m*3 16.98 C 0 km/h
2640 07-08-2011 00:00:00 16.42 C 11.93 g/m*3 16.42 C 0 km/h
2641 07-08-2011 01:00:00 16.32 C 11.72 g/m*3 16.32 C 0 km/h
2642 07-08-2011 02:00:00 15.94 C 11.86 g/m*3 15.94 C 0 km/h
2643 07-08-2011 03:00:00 16.1 C 11.9 g/m*3 16.1 C 0 km/h
2644 07-08-2011 04:00:00 16.08 C 11.83 g/m*3 16.08 C 0 km/h
2645 07-08-2011 05:00:00 15.84 C 11.79 g/m*3 15.84 C 0 km/h
2646 07-08-2011 06:00:00 15.38 C 10.97 g/m*3 15.38 C 0 km/h
2647 07-08-2011 07:00:00 15 C 9.64 g/m*3 15 C 0 km/h
2648 07-08-2011 08:00:00 15.22 C 9.67 g/m*3 15.22 C 0 km/h
2649 07-08-2011 09:00:00 16.32 C 8.17 g/m*3 16.32 C 0 km/h
2650 07-08-2011 10:00:00 17.24 C 7.49 g/m*3 17.24 C 0 km/h
Sensor: Nr:Datum:Temp:Abs-Feuchte:Windchill:Wind:
Aussen-T/F 2651 07-08-2011 11:00:00 18.04 C 7.54 g/m*3 18.04 C 0 km/h
2652 07-08-2011 12:00:00 19.76 C 7.26 g/m*3 19.76 C 0 km/h
2653 07-08-2011 13:00:00 20.48 C 7.11 g/m*3 20.48 C 0 km/h
2654 07-08-2011 14:00:00 21.4 C 6.64 g/m*3 21.4 C 0 km/h
2655 07-08-2011 15:00:00 22.7 C 6.51 g/m*3 22.7 C 0 km/h
2656 07-08-2011 16:00:00 23.62 C 5.88 g/m*3 23.62 C 0 km/h
2657 07-08-2011 17:00:00 21.74 C 6.35 g/m*3 21.74 C 0 km/h
2658 07-08-2011 18:00:00 23.8 C 6.24 g/m*3 23.8 C 0 km/h
2659 07-08-2011 19:00:00 20.68 C 7.41 g/m*3 20.68 C 0 km/h
2660 07-08-2011 20:00:00 18.5 C 8.51 g/m*3 18.5 C 0 km/h
2661 07-08-2011 21:00:00 15.7 C 8.99 g/m*3 15.7 C 0 km/h
2662 07-08-2011 22:00:00 14.96 C 9.03 g/m*3 14.96 C 0 km/h
2663 07-08-2011 23:00:00 14.66 C 8.74 g/m*3 14.66 C 0 km/h
2664 08-08-2011 00:00:00 14.7 C 8.76 g/m*3 14.7 C 0 km/h
2665 08-08-2011 01:00:00 13.08 C 8.87 g/m*3 13.08 C 0 km/h
2666 08-08-2011 02:00:00 12.96 C 9.07 g/m*3 12.96 C 0 km/h
2667 08-08-2011 03:00:00 13.86 C 8.83 g/m*3 13.86 C 0 km/h
2668 08-08-2011 04:00:00 13.7 C 9 g/m*3 13.7 C 0 km/h
2669 08-08-2011 05:00:00 13.68 C 8.96 g/m*3 13.68 C 0 km/h
2670 08-08-2011 06:00:00 12.42 C 9.32 g/m*3 12.42 C 0 km/h
2671 08-08-2011 07:00:00 12.12 C 9.43 g/m*3 12.12 C 0 km/h
2672 08-08-2011 08:00:00 12.2 C 9.5 g/m*3 12.2 C 0 km/h
2673 08-08-2011 09:00:00 14.42 C 8.79 g/m*3 14.42 C 0 km/h
2674 08-08-2011 10:00:00 15.2 C 8.28 g/m*3 15.2 C 0 km/h
2675 08-08-2011 11:00:00 16.44 C 8.28 g/m*3 16.44 C 0 km/h
Sensor: Nr:Datum:Temp:Abs-Feuchte:Windchill:Wind:
Aussen-T/F 2676 08-08-2011 12:00:00 17.04 C 7.92 g/m*3 17.04 C 0 km/h
2677 08-08-2011 13:00:00 17.3 C 7.81 g/m*3 17.3 C 0 km/h
2678 08-08-2011 14:00:00 19.1 C 8.2 g/m*3 19.1 C 0 km/h
2679 08-08-2011 15:00:00 19.1 C 8.2 g/m*3 19.1 C 0 km/h
2680 08-08-2011 16:00:00 19.44 C 7.89 g/m*3 19.44 C 0 km/h
2681 08-08-2011 17:00:00 21.06 C 6.36 g/m*3 21.06 C 0 km/h
2682 08-08-2011 18:00:00 20 C 6.64 g/m*3 20 C 0 km/h
2683 08-08-2011 19:00:00 18.6 C 6.72 g/m*3 18.6 C 0 km/h
2684 08-08-2011 20:00:00 18.3 C 6.72 g/m*3 18.3 C 0 km/h
2685 08-08-2011 21:00:00 14.3 C 9.21 g/m*3 14.3 C 0 km/h
2686 08-08-2011 22:00:00 12.9 C 9.33 g/m*3 12.9 C 0 km/h
2687 08-08-2011 23:00:00 12.72 C 9.16 g/m*3 12.72 C 0 km/h
2688 09-08-2011 00:00:00 13.08 C 9.05 g/m*3 13.08 C 0 km/h
2689 09-08-2011 01:00:00 13.5 C 9.01 g/m*3 13.5 C 0 km/h
2690 09-08-2011 02:00:00 13.68 C 8.78 g/m*3 13.68 C 0 km/h
2691 09-08-2011 03:00:00 13.9 C 8.51 g/m*3 13.9 C 0 km/h
2692 09-08-2011 04:00:00 13.74 C 8.29 g/m*3 13.74 C 0 km/h
2693 09-08-2011 05:00:00 13.66 C 8.03 g/m*3 13.66 C 0 km/h
2694 09-08-2011 06:00:00 13.7 C 8.17 g/m*3 13.7 C 0 km/h
2695 09-08-2011 07:00:00 13.76 C 8.18 g/m*3 13.76 C 0 km/h
2696 09-08-2011 08:00:00 14.2 C 8.06 g/m*3 14.2 C 0 km/h
2697 09-08-2011 09:00:00 14.56 C 8.41 g/m*3 14.56 C 0 km/h
2698 09-08-2011 10:00:00 13.26 C 9.54 g/m*3 13.26 C 0 km/h
2699 09-08-2011 11:00:00 15.18 C 9.88 g/m*3 15.18 C 0 km/h
2700 09-08-2011 12:00:00 16.2 C 9.93 g/m*3 16.2 C 0 km/h
Sensor: Nr:Datum:Temp:Abs-Feuchte:Windchill:Wind:
Aussen-T/F 2701 09-08-2011 13:00:00 16.2 C 9.93 g/m*3 16.2 C 0 km/h
2702 09-08-2011 14:00:00 16.2 C 9.93 g/m*3 16.2 C 0 km/h
2703 09-08-2011 15:00:00 16.2 C 9.93 g/m*3 16.2 C 0 km/h
2704 09-08-2011 16:00:00 16.2 C 9.93 g/m*3 16.2 C 0 km/h
2705 09-08-2011 17:00:00 16.52 C 9.5 g/m*3 16.52 C 0 km/h
2706 09-08-2011 18:00:00 18.16 C 6.7 g/m*3 18.16 C 0 km/h
2707 09-08-2011 19:00:00 16.68 C 6.5 g/m*3 16.68 C 0 km/h
2708 09-08-2011 20:00:00 16.7 C 6.54 g/m*3 16.7 C 0 km/h
2709 09-08-2011 21:00:00 16.7 C 6.54 g/m*3 16.7 C 0 km/h
2710 09-08-2011 22:00:00 16.7 C 6.54 g/m*3 16.7 C 0 km/h
2711 09-08-2011 23:00:00 16.7 C 6.54 g/m*3 16.7 C 0 km/h
2712 10-08-2011 00:00:00 16.7 C 6.54 g/m*3 16.7 C 0 km/h
2713 10-08-2011 01:00:00 16.7 C 6.54 g/m*3 16.7 C 0 km/h
2714 10-08-2011 02:00:00 16.7 C 6.54 g/m*3 16.7 C 0 km/h
2715 10-08-2011 03:00:00 16.7 C 6.54 g/m*3 16.7 C 0 km/h
2716 10-08-2011 04:00:00 16.7 C 6.54 g/m*3 16.7 C 0 km/h
2717 10-08-2011 05:00:00 16.7 C 6.54 g/m*3 16.7 C 0 km/h
2718 10-08-2011 06:00:00 13.7 C 7.1 g/m*3 13.7 C 0 km/h
2719 10-08-2011 07:00:00 9 C 7.32 g/m*3 9 C 0 km/h
2720 10-08-2011 08:00:00 9 C 7.32 g/m*3 9 C 0 km/h
2721 10-08-2011 09:00:00 9 C 7.32 g/m*3 9 C 0 km/h
2722 10-08-2011 10:00:00 9 C 7.32 g/m*3 9 C 0 km/h
2723 10-08-2011 11:00:00 9 C 7.32 g/m*3 9 C 0 km/h
2724 10-08-2011 12:00:00 9 C 7.32 g/m*3 9 C 0 km/h
2725 10-08-2011 13:00:00 9 C 7.32 g/m*3 9 C 0 km/h
Sensor: Nr:Datum:Temp:Abs-Feuchte:Windchill:Wind:
Aussen-T/F 2726 10-08-2011 14:00:00 9 C 7.32 g/m*3 9 C 0 km/h
2727 10-08-2011 15:00:00 9 C 7.32 g/m*3 9 C 0 km/h
2728 10-08-2011 16:00:00 9 C 7.32 g/m*3 9 C 0 km/h
2729 10-08-2011 17:00:00 9 C 7.32 g/m*3 9 C 0 km/h
2730 10-08-2011 18:00:00 9 C 7.32 g/m*3 9 C 0 km/h
2731 10-08-2011 22:00:00 9 C 7.32 g/m*3 9 C 0 km/h
2732 10-08-2011 23:00:00 9 C 7.32 g/m*3 9 C 0 km/h
2733 11-08-2011 00:00:00 9 C 7.32 g/m*3 9 C 0 km/h
2734 11-08-2011 01:00:00 9 C 7.32 g/m*3 9 C 0 km/h
2735 11-08-2011 02:00:00 9 C 7.32 g/m*3 9 C 0 km/h
2736 11-08-2011 03:00:00 9 C 7.32 g/m*3 9 C 0 km/h
2737 11-08-2011 04:00:00 9 C 7.32 g/m*3 9 C 0 km/h
2738 11-08-2011 05:00:00 9 C 7.32 g/m*3 9 C 0 km/h
2739 11-08-2011 06:00:00 10.46 C 7.37 g/m*3 10.46 C 0 km/h
2740 11-08-2011 07:00:00 16.42 C 6.9 g/m*3 16.42 C 0 km/h
2741 11-08-2011 08:00:00 16.4 C 6.98 g/m*3 16.4 C 0 km/h
2742 11-08-2011 09:00:00 16.4 C 6.98 g/m*3 16.4 C 0 km/h
2743 11-08-2011 10:00:00 16.4 C 6.98 g/m*3 16.4 C 0 km/h
2744 11-08-2011 11:00:00 16.4 C 6.98 g/m*3 16.4 C 0 km/h
2745 11-08-2011 12:00:00 16.4 C 6.98 g/m*3 16.4 C 0 km/h
2746 11-08-2011 13:00:00 16.4 C 6.98 g/m*3 16.4 C 0 km/h
2747 11-08-2011 14:00:00 16.4 C 6.98 g/m*3 16.4 C 0 km/h
2748 11-08-2011 15:00:00 16.4 C 6.98 g/m*3 16.4 C 0 km/h
2749 11-08-2011 16:00:00 16.4 C 6.98 g/m*3 16.4 C 0 km/h
2750 11-08-2011 17:00:00 23.92 C 9.05 g/m*3 23.92 C 0 km/h
Sensor: Nr:Datum:Temp:Abs-Feuchte:Windchill:Wind:
Aussen-T/F 2751 11-08-2011 18:00:00 23.78 C 8.77 g/m*3 23.78 C 0 km/h
2752 11-08-2011 19:00:00 21.26 C 7.22 g/m*3 21.26 C 0 km/h
2753 11-08-2011 20:00:00 19.06 C 8.18 g/m*3 19.06 C 0 km/h
2754 11-08-2011 21:00:00 16.98 C 8.61 g/m*3 16.98 C 0 km/h
2755 11-08-2011 22:00:00 16.62 C 9.25 g/m*3 16.62 C 0 km/h
2756 11-08-2011 23:00:00 16.48 C 9.45 g/m*3 16.48 C 0 km/h
2757 12-08-2011 00:00:00 16.76 C 9.53 g/m*3 16.76 C 0 km/h
2758 12-08-2011 01:00:00 16.88 C 9.42 g/m*3 16.88 C 0 km/h
2759 12-08-2011 02:00:00 16.76 C 9.33 g/m*3 16.76 C 0 km/h
2760 12-08-2011 03:00:00 17.02 C 8.95 g/m*3 17.02 C 0 km/h
2761 12-08-2011 04:00:00 15.96 C 9.46 g/m*3 15.96 C 0 km/h
2762 12-08-2011 05:00:00 14.8 C 10.31 g/m*3 14.8 C 0 km/h
2763 12-08-2011 06:00:00 14.92 C 10.34 g/m*3 14.92 C 0 km/h
2764 12-08-2011 07:00:00 16.14 C 10.31 g/m*3 16.14 C 0 km/h
2765 12-08-2011 08:00:00 17.18 C 9.98 g/m*3 17.18 C 0 km/h
2766 12-08-2011 09:00:00 18.04 C 10.13 g/m*3 18.04 C 0 km/h
2767 12-08-2011 10:00:00 18.86 C 10.09 g/m*3 18.86 C 0 km/h
2768 12-08-2011 11:00:00 18.96 C 10.14 g/m*3 18.96 C 0 km/h
2769 12-08-2011 12:00:00 18.24 C 11.03 g/m*3 18.24 C 0 km/h
2770 12-08-2011 13:00:00 18.66 C 11.69 g/m*3 18.66 C 0 km/h
2771 12-08-2011 14:00:00 20.16 C 11.16 g/m*3 20.16 C 0 km/h
2772 12-08-2011 15:00:00 20.84 C 11.94 g/m*3 20.84 C 0 km/h
2773 12-08-2011 16:00:00 21.84 C 10.77 g/m*3 21.84 C 0 km/h
2774 12-08-2011 17:00:00 19.32 C 12.22 g/m*3 19.32 C 0 km/h
2775 12-08-2011 18:00:00 18.84 C 12.75 g/m*3 18.84 C 0 km/h
Sensor: Nr:Datum:Temp:Abs-Feuchte:Windchill:Wind:
Aussen-T/F 2776 12-08-2011 19:00:00 18.18 C 12.48 g/m*3 18.18 C 0 km/h
2777 12-08-2011 20:00:00 17.64 C 12.21 g/m*3 17.64 C 0 km/h
2778 12-08-2011 21:00:00 16.98 C 12.28 g/m*3 16.98 C 0 km/h
2779 12-08-2011 22:00:00 16.62 C 11.97 g/m*3 16.62 C 0 km/h
2780 12-08-2011 23:00:00 16.7 C 11.94 g/m*3 16.7 C 0 km/h
2781 13-08-2011 00:00:00 16.42 C 11.65 g/m*3 16.42 C 0 km/h
2782 13-08-2011 01:00:00 16.34 C 11.6 g/m*3 16.34 C 0 km/h
2783 13-08-2011 02:00:00 16.06 C 11.4 g/m*3 16.06 C 0 km/h
2784 13-08-2011 03:00:00 16.2 C 11.42 g/m*3 16.2 C 0 km/h
2785 13-08-2011 04:00:00 16.16 C 11.28 g/m*3 16.16 C 0 km/h
2786 13-08-2011 05:00:00 16.38 C 11.24 g/m*3 16.38 C 0 km/h
2787 13-08-2011 06:00:00 16.16 C 11.31 g/m*3 16.16 C 0 km/h
2788 13-08-2011 07:00:00 16.5 C 11.51 g/m*3 16.5 C 0 km/h
2789 13-08-2011 08:00:00 17.68 C 11.21 g/m*3 17.68 C 0 km/h
2790 13-08-2011 09:00:00 18.18 C 11.21 g/m*3 18.18 C 0 km/h
2791 13-08-2011 10:00:00 19.22 C 10.83 g/m*3 19.22 C 0 km/h
2792 13-08-2011 11:00:00 20.2 C 10.56 g/m*3 20.2 C 0 km/h
2793 13-08-2011 12:00:00 22.02 C 10.57 g/m*3 22.02 C 0 km/h
2794 13-08-2011 13:00:00 23.68 C 9.61 g/m*3 23.68 C 0 km/h
2795 13-08-2011 14:00:00 24.3 C 9.52 g/m*3 24.3 C 0 km/h
2796 13-08-2011 15:00:00 24.76 C 9.31 g/m*3 24.76 C 0 km/h
2797 13-08-2011 16:00:00 23.92 C 9.66 g/m*3 23.92 C 0 km/h
2798 13-08-2011 17:00:00 21.44 C 12.25 g/m*3 21.44 C 0 km/h
2799 13-08-2011 18:00:00 20.52 C 13.4 g/m*3 20.52 C 0 km/h
2800 13-08-2011 19:00:00 19.68 C 13.87 g/m*3 19.68 C 0 km/h
Sensor: Nr:Datum:Temp:Abs-Feuchte:Windchill:Wind:
Aussen-T/F 2801 13-08-2011 20:00:00 18.7 C 13.51 g/m*3 18.7 C 0 km/h
2802 13-08-2011 21:00:00 18.18 C 13.41 g/m*3 18.18 C 0 km/h
2803 13-08-2011 22:00:00 17.86 C 13.34 g/m*3 17.86 C 0 km/h
2804 13-08-2011 23:00:00 17.56 C 13.17 g/m*3 17.56 C 0 km/h
2805 14-08-2011 00:00:00 17.5 C 13.21 g/m*3 17.5 C 0 km/h
2806 14-08-2011 01:00:00 17.48 C 13.25 g/m*3 17.48 C 0 km/h
2807 14-08-2011 02:00:00 17.36 C 13.16 g/m*3 17.36 C 0 km/h
2808 14-08-2011 03:00:00 17.12 C 12.97 g/m*3 17.12 C 0 km/h
2809 14-08-2011 04:00:00 17.14 C 12.99 g/m*3 17.14 C 0 km/h
2810 14-08-2011 05:00:00 16.92 C 12.82 g/m*3 16.92 C 0 km/h
2811 14-08-2011 06:00:00 17.24 C 13.06 g/m*3 17.24 C 0 km/h
2812 14-08-2011 07:00:00 17.72 C 13.38 g/m*3 17.72 C 0 km/h
2813 14-08-2011 08:00:00 19.12 C 13.72 g/m*3 19.12 C 0 km/h
2814 14-08-2011 09:00:00 19.44 C 13.14 g/m*3 19.44 C 0 km/h
2815 14-08-2011 10:00:00 20.06 C 13.35 g/m*3 20.06 C 0 km/h
2816 14-08-2011 11:00:00 21.26 C 12.42 g/m*3 21.26 C 0 km/h
2817 14-08-2011 12:00:00 21.9 C 11.81 g/m*3 21.9 C 0 km/h
2818 14-08-2011 13:00:00 22.86 C 11.34 g/m*3 22.86 C 0 km/h
2819 14-08-2011 14:00:00 23.56 C 11.29 g/m*3 23.56 C 0 km/h
2820 14-08-2011 15:00:00 20.76 C 12.14 g/m*3 20.76 C 0 km/h
2821 14-08-2011 16:00:00 19.2 C 13.29 g/m*3 19.2 C 0 km/h
2822 14-08-2011 17:00:00 19.26 C 12.31 g/m*3 19.26 C 0 km/h
2823 14-08-2011 18:00:00 19.26 C 12.71 g/m*3 19.26 C 0 km/h
2824 14-08-2011 19:00:00 19.6 C 12.12 g/m*3 19.6 C 0 km/h
2825 14-08-2011 20:00:00 17.44 C 12.18 g/m*3 17.44 C 0 km/h
Sensor: Nr:Datum:Temp:Abs-Feuchte:Windchill:Wind:
Aussen-T/F 2826 14-08-2011 21:00:00 16.46 C 11.93 g/m*3 16.46 C 0 km/h
2827 14-08-2011 22:00:00 16.3 C 12.04 g/m*3 16.3 C 0 km/h
2828 14-08-2011 23:00:00 16.04 C 11.94 g/m*3 16.04 C 0 km/h
2829 15-08-2011 00:00:00 16.14 C 11.98 g/m*3 16.14 C 0 km/h
2830 15-08-2011 01:00:00 15.88 C 11.9 g/m*3 15.88 C 0 km/h
2831 15-08-2011 02:00:00 15.76 C 11.82 g/m*3 15.76 C 0 km/h
2832 15-08-2011 03:00:00 15.8 C 11.85 g/m*3 15.8 C 0 km/h
2833 15-08-2011 04:00:00 15.08 C 11.36 g/m*3 15.08 C 0 km/h
2834 15-08-2011 05:00:00 14.6 C 11.11 g/m*3 14.6 C 0 km/h
2835 15-08-2011 06:00:00 14.54 C 11.1 g/m*3 14.54 C 0 km/h
2836 15-08-2011 07:00:00 15.16 C 11.45 g/m*3 15.16 C 0 km/h
2837 15-08-2011 08:00:00 16.68 C 11.75 g/m*3 16.68 C 0 km/h
2838 15-08-2011 09:00:00 17.14 C 11.32 g/m*3 17.14 C 0 km/h
2839 15-08-2011 10:00:00 19.06 C 10.96 g/m*3 19.06 C 0 km/h
2840 15-08-2011 11:00:00 20.42 C 10.17 g/m*3 20.42 C 0 km/h
2841 15-08-2011 12:00:00 21.44 C 8.76 g/m*3 21.44 C 0 km/h
2842 15-08-2011 13:00:00 22.66 C 7.22 g/m*3 22.66 C 0 km/h
2843 15-08-2011 14:00:00 26.14 C 6.33 g/m*3 26.14 C 0 km/h
2844 15-08-2011 15:00:00 28.02 C 5.88 g/m*3 28.02 C 0 km/h
2845 15-08-2011 16:00:00 24.52 C 6.81 g/m*3 24.52 C 0 km/h
2846 15-08-2011 17:00:00 24.08 C 7.3 g/m*3 24.08 C 0 km/h
2847 15-08-2011 18:00:00 24.24 C 7.76 g/m*3 24.24 C 0 km/h
2848 15-08-2011 19:00:00 21.64 C 9.69 g/m*3 21.64 C 0 km/h
2849 15-08-2011 20:00:00 18.3 C 10.07 g/m*3 18.3 C 0 km/h
2850 15-08-2011 21:00:00 17.62 C 10.12 g/m*3 17.62 C 0 km/h
Sensor: Nr:Datum:Temp:Abs-Feuchte:Windchill:Wind:
Aussen-T/F 2851 15-08-2011 22:00:00 16.7 C 9.95 g/m*3 16.7 C 0 km/h
2852 15-08-2011 23:00:00 16.28 C 9.59 g/m*3 16.28 C 0 km/h
2853 16-08-2011 00:00:00 15.74 C 9.82 g/m*3 15.74 C 0 km/h
2854 16-08-2011 01:00:00 14.9 C 9.58 g/m*3 14.9 C 0 km/h
2855 16-08-2011 02:00:00 14.3 C 9.71 g/m*3 14.3 C 0 km/h
2856 16-08-2011 03:00:00 14.16 C 9.82 g/m*3 14.16 C 0 km/h
2857 16-08-2011 04:00:00 14.18 C 9.93 g/m*3 14.18 C 0 km/h
2858 16-08-2011 05:00:00 13.9 C 9.83 g/m*3 13.9 C 0 km/h
2859 16-08-2011 06:00:00 13.96 C 9.96 g/m*3 13.96 C 0 km/h
2860 16-08-2011 07:00:00 14.74 C 10.17 g/m*3 14.74 C 0 km/h
2861 16-08-2011 08:00:00 15.98 C 9.85 g/m*3 15.98 C 0 km/h
2862 16-08-2011 09:00:00 17 C 9.72 g/m*3 17 C 0 km/h
2863 16-08-2011 10:00:00 18.06 C 9.65 g/m*3 18.06 C 0 km/h
2864 16-08-2011 11:00:00 19.14 C 10.25 g/m*3 19.14 C 0 km/h
2865 16-08-2011 12:00:00 21.76 C 9.57 g/m*3 21.76 C 0 km/h
2866 16-08-2011 13:00:00 23.3 C 8.32 g/m*3 23.3 C 0 km/h
2867 16-08-2011 14:00:00 25.56 C 7.17 g/m*3 25.56 C 0 km/h
2868 16-08-2011 15:00:00 25.14 C 7.19 g/m*3 25.14 C 0 km/h
2869 16-08-2011 16:00:00 25.16 C 6.83 g/m*3 25.16 C 0 km/h
2870 16-08-2011 17:00:00 26.14 C 6.87 g/m*3 26.14 C 0 km/h
2871 16-08-2011 18:00:00 25.74 C 7.92 g/m*3 25.74 C 0 km/h
2872 16-08-2011 19:00:00 20.6 C 9.59 g/m*3 20.6 C 0 km/h
2873 16-08-2011 20:00:00 19.24 C 9.52 g/m*3 19.24 C 0 km/h
2874 16-08-2011 21:00:00 18.48 C 9.51 g/m*3 18.48 C 0 km/h
2875 16-08-2011 22:00:00 17.22 C 9.41 g/m*3 17.22 C 0 km/h
Sensor: Nr:Datum:Temp:Abs-Feuchte:Windchill:Wind:
Aussen-T/F 2876 16-08-2011 23:00:00 15.14 C 9.57 g/m*3 15.14 C 0 km/h
2877 17-08-2011 00:00:00 13.78 C 9.33 g/m*3 13.78 C 0 km/h
2878 17-08-2011 01:00:00 13.04 C 9.37 g/m*3 13.04 C 0 km/h
2879 17-08-2011 02:00:00 12.62 C 9.37 g/m*3 12.62 C 0 km/h
2880 17-08-2011 03:00:00 12.26 C 9.38 g/m*3 12.26 C 0 km/h
2881 17-08-2011 04:00:00 12.2 C 9.41 g/m*3 12.2 C 0 km/h
2882 17-08-2011 05:00:00 11.76 C 9.22 g/m*3 11.76 C 0 km/h
2883 17-08-2011 06:00:00 11.78 C 9.27 g/m*3 11.78 C 0 km/h
2884 17-08-2011 07:00:00 12.3 C 9.58 g/m*3 12.3 C 0 km/h
2885 17-08-2011 08:00:00 13.02 C 9.99 g/m*3 13.02 C 0 km/h
2886 17-08-2011 09:00:00 14.04 C 10.57 g/m*3 14.04 C 0 km/h
2887 17-08-2011 10:00:00 15.98 C 11.62 g/m*3 15.98 C 0 km/h
2888 17-08-2011 11:00:00 19.14 C 11.76 g/m*3 19.14 C 0 km/h
2889 17-08-2011 12:00:00 22.46 C 10.24 g/m*3 22.46 C 0 km/h
2890 17-08-2011 13:00:00 26.9 C 7.93 g/m*3 26.9 C 0 km/h
2891 17-08-2011 14:00:00 25.86 C 10.77 g/m*3 25.86 C 0 km/h
2892 17-08-2011 15:00:00 29.82 C 8.71 g/m*3 29.82 C 0 km/h
2893 17-08-2011 16:00:00 30.78 C 7.72 g/m*3 30.78 C 0 km/h
2894 17-08-2011 17:00:00 28.22 C 10.4 g/m*3 28.22 C 0 km/h
2895 17-08-2011 18:00:00 24.16 C 11.15 g/m*3 24.16 C 0 km/h
2896 17-08-2011 19:00:00 22.98 C 11.21 g/m*3 22.98 C 0 km/h
2897 17-08-2011 20:00:00 21.04 C 10.91 g/m*3 21.04 C 0 km/h
2898 17-08-2011 21:00:00 20.12 C 10.34 g/m*3 20.12 C 0 km/h
2899 17-08-2011 22:00:00 19.86 C 10.63 g/m*3 19.86 C 0 km/h
2900 17-08-2011 23:00:00 19.24 C 11.27 g/m*3 19.24 C 0 km/h
Sensor: Nr:Datum:Temp:Abs-Feuchte:Windchill:Wind:
Aussen-T/F 2901 18-08-2011 00:00:00 18.42 C 11.62 g/m*3 18.42 C 0 km/h
2902 18-08-2011 01:00:00 17.66 C 11.74 g/m*3 17.66 C 0 km/h
2903 18-08-2011 02:00:00 17 C 11.95 g/m*3 17 C 0 km/h
2904 18-08-2011 03:00:00 16.44 C 11.64 g/m*3 16.44 C 0 km/h
2905 18-08-2011 04:00:00 15.88 C 11.55 g/m*3 15.88 C 0 km/h
2906 18-08-2011 05:00:00 15 C 11.1 g/m*3 15 C 0 km/h
2907 18-08-2011 06:00:00 14.96 C 11.23 g/m*3 14.96 C 0 km/h
2908 18-08-2011 07:00:00 16.1 C 12.03 g/m*3 16.1 C 0 km/h
2909 18-08-2011 08:00:00 16.34 C 11.99 g/m*3 16.34 C 0 km/h
2910 18-08-2011 09:00:00 17.14 C 12.49 g/m*3 17.14 C 0 km/h
2911 18-08-2011 10:00:00 19.3 C 13.37 g/m*3 19.3 C 0 km/h
2912 18-08-2011 11:00:00 23.6 C 12.25 g/m*3 23.6 C 0 km/h
2913 18-08-2011 12:00:00 26.88 C 10.58 g/m*3 26.88 C 0 km/h
2914 18-08-2011 13:00:00 27.68 C 11.49 g/m*3 27.68 C 0 km/h
2915 18-08-2011 14:00:00 31.26 C 9.74 g/m*3 31.26 C 0 km/h
2916 18-08-2011 15:00:00 32.68 C 8.82 g/m*3 32.68 C 0 km/h
2917 18-08-2011 16:00:00 32.6 C 8.09 g/m*3 32.6 C 0 km/h
2918 18-08-2011 17:00:00 32.66 C 8.46 g/m*3 32.66 C 0 km/h
2919 18-08-2011 18:00:00 31.72 C 9.25 g/m*3 31.72 C 0 km/h
2920 18-08-2011 19:00:00 28.66 C 11.67 g/m*3 28.66 C 0 km/h
2921 18-08-2011 20:00:00 24.12 C 12.27 g/m*3 24.12 C 0 km/h
2922 18-08-2011 21:00:00 22.62 C 12.51 g/m*3 22.62 C 0 km/h
2923 18-08-2011 22:00:00 22.66 C 12.05 g/m*3 22.66 C 0 km/h
2924 18-08-2011 23:00:00 21.78 C 11.58 g/m*3 21.78 C 0 km/h
2925 19-08-2011 00:00:00 18.6 C 12.64 g/m*3 18.6 C 0 km/h
Sensor: Nr:Datum:Temp:Abs-Feuchte:Windchill:Wind:
Aussen-T/F 2926 19-08-2011 01:00:00 18.38 C 12.66 g/m*3 18.38 C 0 km/h
2927 19-08-2011 02:00:00 17.82 C 12.46 g/m*3 17.82 C 0 km/h
2928 19-08-2011 03:00:00 17.58 C 12.67 g/m*3 17.58 C 0 km/h
2929 19-08-2011 04:00:00 18.18 C 13.01 g/m*3 18.18 C 0 km/h
2930 19-08-2011 05:00:00 18.02 C 12.49 g/m*3 18.02 C 0 km/h
2931 19-08-2011 06:00:00 18.08 C 13.15 g/m*3 18.08 C 0 km/h
2932 19-08-2011 07:00:00 21.16 C 13.16 g/m*3 21.16 C 0 km/h
2933 19-08-2011 08:00:00 22.16 C 12.42 g/m*3 22.16 C 0 km/h
2934 19-08-2011 09:00:00 22.6 C 11.61 g/m*3 22.6 C 0 km/h
2935 19-08-2011 10:00:00 18.46 C 13.04 g/m*3 18.46 C 0 km/h
2936 19-08-2011 11:00:00 18.1 C 12.64 g/m*3 18.1 C 0 km/h
2937 19-08-2011 12:00:00 17.76 C 11.69 g/m*3 17.76 C 0 km/h
2938 19-08-2011 13:00:00 18.46 C 11.08 g/m*3 18.46 C 0 km/h
2939 19-08-2011 14:00:00 20.12 C 10.16 g/m*3 20.12 C 0 km/h
2940 19-08-2011 15:00:00 21.08 C 9.94 g/m*3 21.08 C 0 km/h
2941 19-08-2011 16:00:00 24.54 C 7.99 g/m*3 24.54 C 0 km/h
2942 19-08-2011 17:00:00 25.52 C 7.25 g/m*3 25.52 C 0 km/h
2943 19-08-2011 18:00:00 24 C 7.7 g/m*3 24 C 0 km/h
2944 19-08-2011 19:00:00 21.48 C 8.44 g/m*3 21.48 C 0 km/h
2945 19-08-2011 20:00:00 17.2 C 9.67 g/m*3 17.2 C 0 km/h
2946 19-08-2011 21:00:00 15.24 C 10.12 g/m*3 15.24 C 0 km/h
2947 19-08-2011 22:00:00 14.38 C 10.03 g/m*3 14.38 C 0 km/h
2948 19-08-2011 23:00:00 13 C 9.62 g/m*3 13 C 0 km/h
2949 20-08-2011 00:00:00 12.86 C 9.71 g/m*3 12.86 C 0 km/h
2950 20-08-2011 01:00:00 12.36 C 9.48 g/m*3 12.36 C 0 km/h
Sensor: Nr:Datum:Temp:Abs-Feuchte:Windchill:Wind:
Aussen-T/F 2951 20-08-2011 02:00:00 11.92 C 9.31 g/m*3 11.92 C 0 km/h
2952 20-08-2011 03:00:00 11.66 C 9.24 g/m*3 11.66 C 0 km/h
2953 20-08-2011 04:00:00 11.32 C 9.09 g/m*3 11.32 C 0 km/h
2954 20-08-2011 05:00:00 10.88 C 8.84 g/m*3 10.88 C 0 km/h
2955 20-08-2011 06:00:00 10.98 C 8.96 g/m*3 10.98 C 0 km/h
2956 20-08-2011 07:00:00 11.76 C 9.45 g/m*3 11.76 C 0 km/h
2957 20-08-2011 08:00:00 12.36 C 9.74 g/m*3 12.36 C 0 km/h
2958 20-08-2011 09:00:00 12.8 C 9.86 g/m*3 12.8 C 0 km/h
2959 20-08-2011 10:00:00 14.58 C 10.95 g/m*3 14.58 C 0 km/h
2960 20-08-2011 11:00:00 16.72 C 11.78 g/m*3 16.72 C 0 km/h
2961 20-08-2011 12:00:00 19.88 C 10.12 g/m*3 19.88 C 0 km/h
2962 20-08-2011 13:00:00 23.52 C 9.57 g/m*3 23.52 C 0 km/h
2963 20-08-2011 14:00:00 30.64 C 7.28 g/m*3 30.64 C 0 km/h
2964 20-08-2011 15:00:00 31.4 C 7.13 g/m*3 31.4 C 0 km/h
2965 20-08-2011 16:00:00 31.62 C 6.88 g/m*3 31.62 C 0 km/h
2966 20-08-2011 17:00:00 31.4 C 7.98 g/m*3 31.4 C 0 km/h
2967 20-08-2011 18:00:00 30.54 C 8.55 g/m*3 30.54 C 0 km/h
2968 20-08-2011 19:00:00 24.86 C 9.91 g/m*3 24.86 C 0 km/h
2969 20-08-2011 20:00:00 20.32 C 9.83 g/m*3 20.32 C 0 km/h
2970 20-08-2011 21:00:00 18.5 C 9.81 g/m*3 18.5 C 0 km/h
2971 20-08-2011 22:00:00 17.7 C 9.99 g/m*3 17.7 C 0 km/h
2972 20-08-2011 23:00:00 15.78 C 9.79 g/m*3 15.78 C 0 km/h
2973 21-08-2011 00:00:00 14.34 C 9.68 g/m*3 14.34 C 0 km/h
2974 21-08-2011 01:00:00 13.94 C 9.76 g/m*3 13.94 C 0 km/h
2975 21-08-2011 02:00:00 13.2 C 9.28 g/m*3 13.2 C 0 km/h
Sensor: Nr:Datum:Temp:Abs-Feuchte:Windchill:Wind:
Aussen-T/F 2976 21-08-2011 03:00:00 13.22 C 9.54 g/m*3 13.22 C 0 km/h
2977 21-08-2011 04:00:00 13.7 C 10.04 g/m*3 13.7 C 0 km/h
2978 21-08-2011 05:00:00 14.74 C 10.35 g/m*3 14.74 C 0 km/h
2979 21-08-2011 06:00:00 14.62 C 10.3 g/m*3 14.62 C 0 km/h
2980 21-08-2011 07:00:00 15.5 C 10.36 g/m*3 15.5 C 0 km/h
2981 21-08-2011 08:00:00 16.34 C 10.96 g/m*3 16.34 C 0 km/h
2982 21-08-2011 09:00:00 18.08 C 10.9 g/m*3 18.08 C 0 km/h
2983 21-08-2011 10:00:00 17.74 C 11.65 g/m*3 17.74 C 0 km/h
2984 21-08-2011 11:00:00 17.22 C 12.37 g/m*3 17.22 C 0 km/h
2985 21-08-2011 12:00:00 21.08 C 14.24 g/m*3 21.08 C 0 km/h
2986 21-08-2011 13:00:00 24.78 C 14.05 g/m*3 24.78 C 0 km/h
2987 21-08-2011 14:00:00 31 C 12.1 g/m*3 31 C 0 km/h
2988 21-08-2011 15:00:00 32.36 C 10.81 g/m*3 32.36 C 0 km/h
2989 21-08-2011 16:00:00 32.18 C 11.04 g/m*3 32.18 C 0 km/h
2990 21-08-2011 17:00:00 30.98 C 12.85 g/m*3 30.98 C 0 km/h
2991 21-08-2011 18:00:00 25.52 C 14.79 g/m*3 25.52 C 0 km/h
2992 21-08-2011 19:00:00 24.4 C 14.47 g/m*3 24.4 C 0 km/h
2993 21-08-2011 20:00:00 23.42 C 14.27 g/m*3 23.42 C 0 km/h
2994 21-08-2011 21:00:00 22.3 C 14.41 g/m*3 22.3 C 0 km/h
2995 21-08-2011 22:00:00 22.3 C 14.41 g/m*3 22.3 C 0 km/h
2996 21-08-2011 23:00:00 22.3 C 14.41 g/m*3 22.3 C 0 km/h
2997 22-08-2011 00:00:00 22.3 C 14.41 g/m*3 22.3 C 0 km/h
2998 22-08-2011 01:00:00 20.34 C 14.77 g/m*3 20.34 C 0 km/h
2999 22-08-2011 02:00:00 19.64 C 14.62 g/m*3 19.64 C 0 km/h
3000 22-08-2011 03:00:00 19.78 C 14.77 g/m*3 19.78 C 0 km/h
Sensor: Nr:Datum:Temp:Abs-Feuchte:Windchill:Wind:
Aussen-T/F 3001 22-08-2011 04:00:00 20.26 C 15.09 g/m*3 20.26 C 0 km/h
3002 22-08-2011 05:00:00 19.54 C 14.33 g/m*3 19.54 C 0 km/h
3003 22-08-2011 06:00:00 18.96 C 14.01 g/m*3 18.96 C 0 km/h
3004 22-08-2011 07:00:00 19.06 C 14.1 g/m*3 19.06 C 0 km/h
3005 22-08-2011 08:00:00 19.82 C 14.36 g/m*3 19.82 C 0 km/h
3006 22-08-2011 09:00:00 22.54 C 14.33 g/m*3 22.54 C 0 km/h
3007 22-08-2011 10:00:00 23.22 C 13.4 g/m*3 23.22 C 0 km/h
3008 22-08-2011 11:00:00 24.7 C 12.58 g/m*3 24.7 C 0 km/h
3009 22-08-2011 12:00:00 25.92 C 11.88 g/m*3 25.92 C 0 km/h
3010 22-08-2011 13:00:00 27.82 C 11.69 g/m*3 27.82 C 0 km/h
3011 22-08-2011 14:00:00 31.48 C 9.72 g/m*3 31.48 C 0 km/h
3012 22-08-2011 15:00:00 31.62 C 7.87 g/m*3 31.62 C 0 km/h
3013 22-08-2011 16:00:00 32.58 C 7.66 g/m*3 32.58 C 0 km/h
3014 22-08-2011 17:00:00 32.76 C 7.94 g/m*3 32.76 C 0 km/h
3015 22-08-2011 18:00:00 30.88 C 9.09 g/m*3 30.88 C 0 km/h
3016 22-08-2011 19:00:00 26.2 C 12.36 g/m*3 26.2 C 0 km/h
3017 22-08-2011 20:00:00 22.9 C 12.18 g/m*3 22.9 C 0 km/h
3018 22-08-2011 21:00:00 21 C 11.86 g/m*3 21 C 0 km/h
3019 22-08-2011 22:00:00 19.64 C 12.08 g/m*3 19.64 C 0 km/h
3020 22-08-2011 23:00:00 18.54 C 12.02 g/m*3 18.54 C 0 km/h
3021 23-08-2011 00:00:00 17.9 C 12.09 g/m*3 17.9 C 0 km/h
3022 23-08-2011 01:00:00 17.3 C 12.2 g/m*3 17.3 C 0 km/h
3023 23-08-2011 02:00:00 17.38 C 12.43 g/m*3 17.38 C 0 km/h
3024 23-08-2011 03:00:00 18.06 C 12.52 g/m*3 18.06 C 0 km/h
3025 23-08-2011 04:00:00 17.7 C 11.71 g/m*3 17.7 C 0 km/h
Sensor: Nr:Datum:Temp:Abs-Feuchte:Windchill:Wind:
Aussen-T/F 3026 23-08-2011 05:00:00 17.24 C 11.95 g/m*3 17.24 C 0 km/h
3027 23-08-2011 06:00:00 16.9 C 11.91 g/m*3 16.9 C 0 km/h
3028 23-08-2011 07:00:00 17.96 C 12.44 g/m*3 17.96 C 0 km/h
3029 23-08-2011 08:00:00 19.54 C 12.28 g/m*3 19.54 C 0 km/h
3030 23-08-2011 09:00:00 20.36 C 12.5 g/m*3 20.36 C 0 km/h
3031 23-08-2011 10:00:00 22.56 C 12.91 g/m*3 22.56 C 0 km/h
3032 23-08-2011 11:00:00 23.86 C 13.51 g/m*3 23.86 C 0 km/h
3033 23-08-2011 12:00:00 27.48 C 13 g/m*3 27.48 C 0 km/h
3034 23-08-2011 13:00:00 29.66 C 12.92 g/m*3 29.66 C 0 km/h
3035 23-08-2011 14:00:00 31.78 C 9.88 g/m*3 31.78 C 0 km/h
3036 23-08-2011 15:00:00 32.28 C 8.63 g/m*3 32.28 C 0 km/h
3037 23-08-2011 16:00:00 33 C 8.54 g/m*3 33 C 0 km/h
3038 23-08-2011 17:00:00 32.66 C 9.02 g/m*3 32.66 C 0 km/h
3039 23-08-2011 18:00:00 30.46 C 11.81 g/m*3 30.46 C 0 km/h
3040 23-08-2011 19:00:00 29.7 C 11.82 g/m*3 29.7 C 0 km/h
3041 23-08-2011 20:00:00 24.88 C 13.72 g/m*3 24.88 C 0 km/h
3042 23-08-2011 21:00:00 23.04 C 13.06 g/m*3 23.04 C 0 km/h
3043 23-08-2011 22:00:00 21.22 C 12.95 g/m*3 21.22 C 0 km/h
3044 23-08-2011 23:00:00 20.26 C 13.09 g/m*3 20.26 C 0 km/h
3045 24-08-2011 00:00:00 20.64 C 12.92 g/m*3 20.64 C 0 km/h
3046 24-08-2011 01:00:00 20.38 C 12.33 g/m*3 20.38 C 0 km/h
3047 24-08-2011 02:00:00 20.36 C 12.21 g/m*3 20.36 C 0 km/h
3048 24-08-2011 03:00:00 19.26 C 12.54 g/m*3 19.26 C 0 km/h
3049 24-08-2011 04:00:00 18.94 C 12.44 g/m*3 18.94 C 0 km/h
3050 24-08-2011 05:00:00 17.62 C 12.28 g/m*3 17.62 C 0 km/h
Sensor: Nr:Datum:Temp:Abs-Feuchte:Windchill:Wind:
Aussen-T/F 3051 24-08-2011 06:00:00 17.02 C 12.17 g/m*3 17.02 C 0 km/h
3052 24-08-2011 07:00:00 17.4 C 12.54 g/m*3 17.4 C 0 km/h
3053 24-08-2011 08:00:00 19.18 C 12.65 g/m*3 19.18 C 0 km/h
3054 24-08-2011 09:00:00 19.2 C 12.89 g/m*3 19.2 C 0 km/h
3055 24-08-2011 10:00:00 21.04 C 13.11 g/m*3 21.04 C 0 km/h
3056 24-08-2011 11:00:00 23.78 C 12.2 g/m*3 23.78 C 0 km/h
3057 24-08-2011 12:00:00 25.64 C 11.36 g/m*3 25.64 C 0 km/h
3058 24-08-2011 13:00:00 27.1 C 10.92 g/m*3 27.1 C 0 km/h
3059 24-08-2011 14:00:00 28.54 C 10.53 g/m*3 28.54 C 0 km/h
3060 24-08-2011 15:00:00 24.24 C 11.69 g/m*3 24.24 C 0 km/h
3061 24-08-2011 16:00:00 23.6 C 11.02 g/m*3 23.6 C 0 km/h
3062 24-08-2011 17:00:00 22.68 C 11.34 g/m*3 22.68 C 0 km/h
3063 24-08-2011 18:00:00 21.58 C 12.62 g/m*3 21.58 C 0 km/h
3064 24-08-2011 19:00:00 21.48 C 11.38 g/m*3 21.48 C 0 km/h
3065 24-08-2011 20:00:00 19.92 C 11.59 g/m*3 19.92 C 0 km/h
3066 24-08-2011 21:00:00 18.56 C 11.75 g/m*3 18.56 C 0 km/h
3067 24-08-2011 22:00:00 17.86 C 12.22 g/m*3 17.86 C 0 km/h
3068 24-08-2011 23:00:00 17.46 C 12.23 g/m*3 17.46 C 0 km/h
3069 25-08-2011 00:00:00 17.12 C 12.1 g/m*3 17.12 C 0 km/h
3070 25-08-2011 01:00:00 15.68 C 11.33 g/m*3 15.68 C 0 km/h
3071 25-08-2011 02:00:00 15.1 C 11.28 g/m*3 15.1 C 0 km/h
3072 25-08-2011 03:00:00 14.58 C 11 g/m*3 14.58 C 0 km/h
3073 25-08-2011 04:00:00 14.56 C 11.04 g/m*3 14.56 C 0 km/h
3074 25-08-2011 05:00:00 14.46 C 11.04 g/m*3 14.46 C 0 km/h
3075 25-08-2011 06:00:00 14.64 C 11.16 g/m*3 14.64 C 0 km/h
Sensor: Nr:Datum:Temp:Abs-Feuchte:Windchill:Wind:
Aussen-T/F 3076 25-08-2011 07:00:00 15.9 C 12.11 g/m*3 15.9 C 0 km/h
3077 25-08-2011 08:00:00 16.64 C 12.57 g/m*3 16.64 C 0 km/h
3078 25-08-2011 09:00:00 18.26 C 12.39 g/m*3 18.26 C 0 km/h
3079 25-08-2011 10:00:00 19.7 C 11.51 g/m*3 19.7 C 0 km/h
3080 25-08-2011 11:00:00 20.54 C 11.34 g/m*3 20.54 C 0 km/h
3081 25-08-2011 12:00:00 21.94 C 11.88 g/m*3 21.94 C 0 km/h
3082 25-08-2011 13:00:00 25.34 C 11.83 g/m*3 25.34 C 0 km/h
3083 25-08-2011 14:00:00 30.98 C 10.42 g/m*3 30.98 C 0 km/h
3084 25-08-2011 15:00:00 30.68 C 9.94 g/m*3 30.68 C 0 km/h
3085 25-08-2011 16:00:00 28.5 C 11.12 g/m*3 28.5 C 0 km/h
3086 25-08-2011 17:00:00 25.94 C 12.23 g/m*3 25.94 C 0 km/h
3087 25-08-2011 18:00:00 27.24 C 12.26 g/m*3 27.24 C 0 km/h
3088 25-08-2011 19:00:00 24.74 C 12.84 g/m*3 24.74 C 0 km/h
3089 25-08-2011 20:00:00 22.64 C 13.49 g/m*3 22.64 C 0 km/h
3090 25-08-2011 21:00:00 21 C 13.78 g/m*3 21 C 0 km/h
3091 25-08-2011 22:00:00 20.34 C 14.46 g/m*3 20.34 C 0 km/h
3092 25-08-2011 23:00:00 20 C 14.41 g/m*3 20 C 0 km/h
3093 26-08-2011 00:00:00 19.7 C 14.43 g/m*3 19.7 C 0 km/h
3094 26-08-2011 01:00:00 19.62 C 14.4 g/m*3 19.62 C 0 km/h
3095 26-08-2011 02:00:00 19.06 C 13.97 g/m*3 19.06 C 0 km/h
3096 26-08-2011 03:00:00 19.08 C 14.18 g/m*3 19.08 C 0 km/h
3097 26-08-2011 04:00:00 18.44 C 13.72 g/m*3 18.44 C 0 km/h
3098 26-08-2011 05:00:00 18.02 C 13.44 g/m*3 18.02 C 0 km/h
3099 26-08-2011 06:00:00 17.72 C 13.29 g/m*3 17.72 C 0 km/h
3100 26-08-2011 07:00:00 18.06 C 13.6 g/m*3 18.06 C 0 km/h
Sensor: Nr:Datum:Temp:Abs-Feuchte:Windchill:Wind:
Aussen-T/F 3101 26-08-2011 08:00:00 18.7 C 13.93 g/m*3 18.7 C 0 km/h
3102 26-08-2011 09:00:00 19.9 C 14.23 g/m*3 19.9 C 0 km/h
3103 26-08-2011 10:00:00 24.28 C 14.24 g/m*3 24.28 C 0 km/h
3104 26-08-2011 11:00:00 26.4 C 12.85 g/m*3 26.4 C 0 km/h
3105 26-08-2011 12:00:00 25.86 C 14.06 g/m*3 25.86 C 0 km/h
3106 26-08-2011 13:00:00 29.06 C 12.22 g/m*3 29.06 C 0 km/h
3107 26-08-2011 14:00:00 30.7 C 10.71 g/m*3 30.7 C 0 km/h
3108 26-08-2011 15:00:00 30.5 C 9.66 g/m*3 30.5 C 0 km/h
3109 26-08-2011 16:00:00 21.6 C 12.48 g/m*3 21.6 C 0 km/h
3110 26-08-2011 17:00:00 23.1 C 12.65 g/m*3 23.1 C 0 km/h
3111 26-08-2011 18:00:00 19.5 C 13.33 g/m*3 19.5 C 0 km/h
3112 26-08-2011 19:00:00 18.36 C 13.34 g/m*3 18.36 C 0 km/h
3113 26-08-2011 20:00:00 16.8 C 12.18 g/m*3 16.8 C 0 km/h
3114 26-08-2011 21:00:00 15.6 C 11.46 g/m*3 15.6 C 0 km/h
3115 26-08-2011 22:00:00 15.46 C 11.58 g/m*3 15.46 C 0 km/h
3116 26-08-2011 23:00:00 15.36 C 11.53 g/m*3 15.36 C 0 km/h
3117 27-08-2011 00:00:00 15.14 C 11.28 g/m*3 15.14 C 0 km/h
3118 27-08-2011 01:00:00 14.66 C 11.05 g/m*3 14.66 C 0 km/h
3119 27-08-2011 02:00:00 14.16 C 10.7 g/m*3 14.16 C 0 km/h
3120 27-08-2011 03:00:00 13.8 C 10.53 g/m*3 13.8 C 0 km/h
3121 27-08-2011 04:00:00 13.58 C 10.46 g/m*3 13.58 C 0 km/h
3122 27-08-2011 05:00:00 13.28 C 10.27 g/m*3 13.28 C 0 km/h
3123 27-08-2011 06:00:00 13 C 10.12 g/m*3 13 C 0 km/h
3124 27-08-2011 07:00:00 12.82 C 10.09 g/m*3 12.82 C 0 km/h
3125 27-08-2011 08:00:00 12.84 C 10.08 g/m*3 12.84 C 0 km/h
Sensor: Nr:Datum:Temp:Abs-Feuchte:Windchill:Wind:
Aussen-T/F 3126 27-08-2011 09:00:00 13.16 C 10.03 g/m*3 13.16 C 0 km/h
3127 27-08-2011 10:00:00 14.14 C 9.93 g/m*3 14.14 C 0 km/h
3128 27-08-2011 11:00:00 14.98 C 9.5 g/m*3 14.98 C 0 km/h
3129 27-08-2011 12:00:00 15.98 C 9.44 g/m*3 15.98 C 0 km/h
3130 27-08-2011 13:00:00 17.52 C 8.81 g/m*3 17.52 C 0 km/h
3131 27-08-2011 14:00:00 17.8 C 8.95 g/m*3 17.8 C 0 km/h
3132 27-08-2011 15:00:00 20.88 C 7.97 g/m*3 20.88 C 0 km/h
3133 27-08-2011 16:00:00 20.18 C 7.89 g/m*3 20.18 C 0 km/h
3134 27-08-2011 17:00:00 19.64 C 8.09 g/m*3 19.64 C 0 km/h
3135 27-08-2011 18:00:00 17.98 C 8.68 g/m*3 17.98 C 0 km/h
3136 27-08-2011 19:00:00 14.3 C 9.9 g/m*3 14.3 C 0 km/h
3137 27-08-2011 20:00:00 13.52 C 10.12 g/m*3 13.52 C 0 km/h
3138 27-08-2011 21:00:00 13.08 C 9.55 g/m*3 13.08 C 0 km/h
3139 27-08-2011 22:00:00 12.24 C 9.04 g/m*3 12.24 C 0 km/h
3140 27-08-2011 23:00:00 12.16 C 9.36 g/m*3 12.16 C 0 km/h
3141 28-08-2011 00:00:00 12.52 C 9.53 g/m*3 12.52 C 0 km/h
3142 28-08-2011 01:00:00 12.78 C 9.37 g/m*3 12.78 C 0 km/h
3143 28-08-2011 02:00:00 12.9 C 9.04 g/m*3 12.9 C 0 km/h
3144 28-08-2011 03:00:00 12.96 C 8.8 g/m*3 12.96 C 0 km/h
3145 28-08-2011 04:00:00 12.7 C 8.82 g/m*3 12.7 C 0 km/h
3146 28-08-2011 05:00:00 12.24 C 8.94 g/m*3 12.24 C 0 km/h
3147 28-08-2011 06:00:00 11.78 C 8.93 g/m*3 11.78 C 0 km/h
3148 28-08-2011 07:00:00 11.86 C 8.73 g/m*3 11.86 C 0 km/h
3149 28-08-2011 08:00:00 12.54 C 8.35 g/m*3 12.54 C 0 km/h
3150 28-08-2011 09:00:00 14.1 C 8.08 g/m*3 14.1 C 0 km/h
Sensor: Nr:Datum:Temp:Abs-Feuchte:Windchill:Wind:
Aussen-T/F 3151 28-08-2011 10:00:00 15.4 C 7.94 g/m*3 15.4 C 0 km/h
3152 28-08-2011 11:00:00 17.16 C 7.48 g/m*3 17.16 C 0 km/h
3153 28-08-2011 12:00:00 18.1 C 7.23 g/m*3 18.1 C 0 km/h
3154 28-08-2011 13:00:00 18.48 C 7.02 g/m*3 18.48 C 0 km/h
3155 28-08-2011 14:00:00 18.56 C 7.15 g/m*3 18.56 C 0 km/h
3156 28-08-2011 15:00:00 18.82 C 7.32 g/m*3 18.82 C 0 km/h
3157 28-08-2011 16:00:00 20.18 C 7.06 g/m*3 20.18 C 0 km/h
3158 28-08-2011 17:00:00 22.56 C 5.93 g/m*3 22.56 C 0 km/h
3159 28-08-2011 18:00:00 19.14 C 6.77 g/m*3 19.14 C 0 km/h
3160 28-08-2011 19:00:00 18.04 C 6.99 g/m*3 18.04 C 0 km/h
3161 28-08-2011 20:00:00 15.34 C 7.41 g/m*3 15.34 C 0 km/h
3162 28-08-2011 21:00:00 13.58 C 7.88 g/m*3 13.58 C 0 km/h
3163 28-08-2011 22:00:00 12.16 C 8.16 g/m*3 12.16 C 0 km/h
3164 28-08-2011 23:00:00 12.24 C 8.42 g/m*3 12.24 C 0 km/h
3165 29-08-2011 00:00:00 11.1 C 8.26 g/m*3 11.1 C 0 km/h
3166 29-08-2011 01:00:00 11.66 C 8.26 g/m*3 11.66 C 0 km/h
3167 29-08-2011 02:00:00 12.22 C 7.95 g/m*3 12.22 C 0 km/h
3168 29-08-2011 03:00:00 12.58 C 8.07 g/m*3 12.58 C 0 km/h
3169 29-08-2011 04:00:00 12.44 C 8 g/m*3 12.44 C 0 km/h
3170 29-08-2011 05:00:00 11.2 C 8.21 g/m*3 11.2 C 0 km/h
3171 29-08-2011 06:00:00 10.28 C 8.11 g/m*3 10.28 C 0 km/h
3172 29-08-2011 07:00:00 10.06 C 8.19 g/m*3 10.06 C 0 km/h
3173 29-08-2011 08:00:00 11.32 C 8.6 g/m*3 11.32 C 0 km/h
3174 29-08-2011 09:00:00 13.46 C 7.96 g/m*3 13.46 C 0 km/h
3175 29-08-2011 10:00:00 15.06 C 7.54 g/m*3 15.06 C 0 km/h
Sensor: Nr:Datum:Temp:Abs-Feuchte:Windchill:Wind:
Aussen-T/F 3176 29-08-2011 11:00:00 16.86 C 7 g/m*3 16.86 C 0 km/h
3177 29-08-2011 12:00:00 17.98 C 6.35 g/m*3 17.98 C 0 km/h
3178 29-08-2011 13:00:00 18.32 C 6.36 g/m*3 18.32 C 0 km/h
3179 29-08-2011 14:00:00 18.44 C 5.86 g/m*3 18.44 C 0 km/h
3180 29-08-2011 15:00:00 20.22 C 5.57 g/m*3 20.22 C 0 km/h
3181 29-08-2011 16:00:00 20.92 C 5 g/m*3 20.92 C 0 km/h
3182 29-08-2011 17:00:00 19.64 C 5.28 g/m*3 19.64 C 0 km/h
3183 29-08-2011 18:00:00 20.02 C 5.33 g/m*3 20.02 C 0 km/h
3184 29-08-2011 19:00:00 16.7 C 6.34 g/m*3 16.7 C 0 km/h
3185 29-08-2011 20:00:00 13.5 C 7.13 g/m*3 13.5 C 0 km/h
3186 29-08-2011 21:00:00 13.2 C 7.1 g/m*3 13.2 C 0 km/h
3187 29-08-2011 22:00:00 13.26 C 6.68 g/m*3 13.26 C 0 km/h
3188 29-08-2011 23:00:00 12.04 C 7.03 g/m*3 12.04 C 0 km/h
3189 30-08-2011 00:00:00 10.96 C 7.19 g/m*3 10.96 C 0 km/h
3190 30-08-2011 01:00:00 9.5 C 7.19 g/m*3 9.5 C 0 km/h
3191 30-08-2011 02:00:00 8.82 C 7.37 g/m*3 8.82 C 0 km/h
3192 30-08-2011 03:00:00 8.02 C 7.17 g/m*3 8.02 C 0 km/h
3193 30-08-2011 04:00:00 7.72 C 7.23 g/m*3 7.72 C 0 km/h
3194 30-08-2011 05:00:00 7.22 C 7.09 g/m*3 7.22 C 0 km/h
3195 30-08-2011 06:00:00 7 C 7.05 g/m*3 7 C 0 km/h
3196 30-08-2011 07:00:00 7.06 C 7.14 g/m*3 7.06 C 0 km/h
3197 30-08-2011 08:00:00 7.54 C 7.38 g/m*3 7.54 C 0 km/h
3198 30-08-2011 09:00:00 9 C 7.97 g/m*3 9 C 0 km/h
3199 30-08-2011 10:00:00 11.42 C 8.45 g/m*3 11.42 C 0 km/h
3200 30-08-2011 11:00:00 14.62 C 6.82 g/m*3 14.62 C 0 km/h
Sensor: Nr:Datum:Temp:Abs-Feuchte:Windchill:Wind:
Aussen-T/F 3201 30-08-2011 12:00:00 16.48 C 6.65 g/m*3 16.48 C 0 km/h
3202 30-08-2011 13:00:00 18.62 C 6.02 g/m*3 18.62 C 0 km/h
3203 30-08-2011 14:00:00 18.52 C 5.99 g/m*3 18.52 C 0 km/h
3204 30-08-2011 15:00:00 17.52 C 5.94 g/m*3 17.52 C 0 km/h
3205 30-08-2011 16:00:00 16.78 C 6.23 g/m*3 16.78 C 0 km/h
3206 30-08-2011 17:00:00 16.92 C 6.68 g/m*3 16.92 C 0 km/h
3207 30-08-2011 18:00:00 20.68 C 6.4 g/m*3 20.68 C 0 km/h